Mississippi River (Missouri), Chester (07020500)

StateMissouriLatestUnknown (262000 cfs)
RiverMississippi RiverRatingObservedEstimated
Updated2020-08-11 20:00 (9 minutes ago)Flood - The river is flooding. Obstacles can be treacherous or deadly. The river should be avoided at this stage for casual trips and definitely for the inexperienced. Trips should be attempted only with protective gear and equipment.Flood(none)(none)
Discharge262000 cfs (median: 162000 cfs)High - The river is high and potentially dangerous, especially for the young and / or inexperienced. Normal stream obstacles are sometimes difficult to navigate. Extended distances can be attempted, but canoe travel may not be advisable.High(none)(none)
Height17.94 feetGood - Conditions are ideal for a canoe or kayak. Boats typically will drag on fewer than one-quarter of riffles, if at all, and portages are unnecessary or rare. Normal float lengths can be attempted without a problem.Good(none)(none)
TrendFalling (falling over 24 hours)Low - River is low but can still be floated. Some riffles are okay but most come with significant dragging and might need a portage. Float lengths should be reduced to accommodate low flow, dragging, and portages.Low(none)(none)
USGSExternal icon USGS Site (External icon Google Maps)Poor - River is too low to float comfortably. Most or all riffles will drag or must be portaged and some obstacles (such as slick shelf rock) cause undue problems. Avoid the river at this stage for casual paddling trips.Poor(none)(none)

Trending Data

Plot Image

Trips for Mississippi River (Missouri), Chester (07020500)

DateStartEndDistanceConditionDischargeHeightFishingDetails

A total of 0 rows are displayed.

Condition Descriptions

Fishing Conditions

Fish Species

Notes

Classic Trip List

The classic River Trips application is still available for use. It is updated with the new system using a data retrofit. It is no longer maintained. The original River Trips application is no longer updated (as of 1 Dec 2016) but can be checked for errors or for the condition of the data before it was converted to the new system.

Gauge Data Table

ObservationHeightDischargeMaximum
Discharge
Minimum
Discharge
Mean
Discharge
P05P10P20P25P50
(Median)
P75P80P90P95
2020-08-11 20:00 17.94 262000 896000 (1993) 60000 (1988) 179000 77700 94000 111000 113000 162000 216000 235000 262000 308000
2020-08-11 19:30 18.00 263000 896000 (1993) 60000 (1988) 179000 77700 94000 111000 113000 162000 216000 235000 262000 308000
2020-08-11 19:00 17.89 261000 896000 (1993) 60000 (1988) 179000 77700 94000 111000 113000 162000 216000 235000 262000 308000
2020-08-11 18:30 18.06 264000 896000 (1993) 60000 (1988) 179000 77700 94000 111000 113000 162000 216000 235000 262000 308000
2020-08-11 18:00 17.90 261000 896000 (1993) 60000 (1988) 179000 77700 94000 111000 113000 162000 216000 235000 262000 308000
2020-08-11 17:30 18.11 264000 896000 (1993) 60000 (1988) 179000 77700 94000 111000 113000 162000 216000 235000 262000 308000
2020-08-11 17:00 18.18 265000 896000 (1993) 60000 (1988) 179000 77700 94000 111000 113000 162000 216000 235000 262000 308000
2020-08-11 16:30 18.25 267000 896000 (1993) 60000 (1988) 179000 77700 94000 111000 113000 162000 216000 235000 262000 308000
2020-08-11 16:00 18.37 269000 896000 (1993) 60000 (1988) 179000 77700 94000 111000 113000 162000 216000 235000 262000 308000
2020-08-11 15:30 18.40 269000 896000 (1993) 60000 (1988) 179000 77700 94000 111000 113000 162000 216000 235000 262000 308000
2020-08-11 15:00 18.48 270000 896000 (1993) 60000 (1988) 179000 77700 94000 111000 113000 162000 216000 235000 262000 308000
2020-08-11 14:30 18.55 271000 896000 (1993) 60000 (1988) 179000 77700 94000 111000 113000 162000 216000 235000 262000 308000
2020-08-11 14:00 18.58 272000 896000 (1993) 60000 (1988) 179000 77700 94000 111000 113000 162000 216000 235000 262000 308000
2020-08-11 13:30 18.60 272000 896000 (1993) 60000 (1988) 179000 77700 94000 111000 113000 162000 216000 235000 262000 308000
2020-08-11 13:00 18.63 273000 896000 (1993) 60000 (1988) 179000 77700 94000 111000 113000 162000 216000 235000 262000 308000
2020-08-11 12:30 18.52 271000 896000 (1993) 60000 (1988) 179000 77700 94000 111000 113000 162000 216000 235000 262000 308000
2020-08-11 12:00 18.70 274000 896000 (1993) 60000 (1988) 179000 77700 94000 111000 113000 162000 216000 235000 262000 308000
2020-08-11 11:30 18.66 273000 896000 (1993) 60000 (1988) 179000 77700 94000 111000 113000 162000 216000 235000 262000 308000
2020-08-11 11:00 18.61 272000 896000 (1993) 60000 (1988) 179000 77700 94000 111000 113000 162000 216000 235000 262000 308000
2020-08-11 10:30 18.72 274000 896000 (1993) 60000 (1988) 179000 77700 94000 111000 113000 162000 216000 235000 262000 308000
2020-08-11 10:00 18.63 273000 896000 (1993) 60000 (1988) 179000 77700 94000 111000 113000 162000 216000 235000 262000 308000
2020-08-11 09:30 18.75 275000 896000 (1993) 60000 (1988) 179000 77700 94000 111000 113000 162000 216000 235000 262000 308000
2020-08-11 09:00 18.71 274000 896000 (1993) 60000 (1988) 179000 77700 94000 111000 113000 162000 216000 235000 262000 308000
2020-08-11 08:30 18.70 274000 896000 (1993) 60000 (1988) 179000 77700 94000 111000 113000 162000 216000 235000 262000 308000
2020-08-11 08:00 18.79 275000 896000 (1993) 60000 (1988) 179000 77700 94000 111000 113000 162000 216000 235000 262000 308000
2020-08-11 07:30 18.84 276000 896000 (1993) 60000 (1988) 179000 77700 94000 111000 113000 162000 216000 235000 262000 308000
2020-08-11 07:00 18.93 278000 896000 (1993) 60000 (1988) 179000 77700 94000 111000 113000 162000 216000 235000 262000 308000
2020-08-11 06:30 18.96 278000 896000 (1993) 60000 (1988) 179000 77700 94000 111000 113000 162000 216000 235000 262000 308000
2020-08-11 06:00 18.89 277000 896000 (1993) 60000 (1988) 179000 77700 94000 111000 113000 162000 216000 235000 262000 308000
2020-08-11 05:30 19.04 279000 896000 (1993) 60000 (1988) 179000 77700 94000 111000 113000 162000 216000 235000 262000 308000
2020-08-11 05:00 19.02 279000 896000 (1993) 60000 (1988) 179000 77700 94000 111000 113000 162000 216000 235000 262000 308000
2020-08-11 04:30 19.11 281000 896000 (1993) 60000 (1988) 179000 77700 94000 111000 113000 162000 216000 235000 262000 308000
2020-08-11 04:00 19.16 281000 896000 (1993) 60000 (1988) 179000 77700 94000 111000 113000 162000 216000 235000 262000 308000
2020-08-11 03:30 19.12 281000 896000 (1993) 60000 (1988) 179000 77700 94000 111000 113000 162000 216000 235000 262000 308000
2020-08-11 03:00 19.09 280000 896000 (1993) 60000 (1988) 179000 77700 94000 111000 113000 162000 216000 235000 262000 308000
2020-08-11 02:30 19.28 283000 896000 (1993) 60000 (1988) 179000 77700 94000 111000 113000 162000 216000 235000 262000 308000
2020-08-11 02:00 19.22 282000 896000 (1993) 60000 (1988) 179000 77700 94000 111000 113000 162000 216000 235000 262000 308000
2020-08-11 01:30 19.28 283000 896000 (1993) 60000 (1988) 179000 77700 94000 111000 113000 162000 216000 235000 262000 308000
2020-08-11 01:00 19.31 284000 896000 (1993) 60000 (1988) 179000 77700 94000 111000 113000 162000 216000 235000 262000 308000
2020-08-11 00:30 19.38 285000 896000 (1993) 60000 (1988) 179000 77700 94000 111000 113000 162000 216000 235000 262000 308000
2020-08-11 00:00 19.32 284000 896000 (1993) 60000 (1988) 179000 77700 94000 111000 113000 162000 216000 235000 262000 308000
2020-08-10 23:30 19.44 286000 929000 (1993) 59700 (1988) 182000 79900 92600 114000 118000 162000 218000 241000 272000 322000
2020-08-10 23:00 19.34 284000 929000 (1993) 59700 (1988) 182000 79900 92600 114000 118000 162000 218000 241000 272000 322000
2020-08-10 22:30 19.49 287000 929000 (1993) 59700 (1988) 182000 79900 92600 114000 118000 162000 218000 241000 272000 322000
2020-08-10 22:00 19.47 287000 929000 (1993) 59700 (1988) 182000 79900 92600 114000 118000 162000 218000 241000 272000 322000
2020-08-10 21:30 19.46 286000 929000 (1993) 59700 (1988) 182000 79900 92600 114000 118000 162000 218000 241000 272000 322000
2020-08-10 21:00 19.36 285000 929000 (1993) 59700 (1988) 182000 79900 92600 114000 118000 162000 218000 241000 272000 322000
2020-08-10 20:30 19.47 287000 929000 (1993) 59700 (1988) 182000 79900 92600 114000 118000 162000 218000 241000 272000 322000
2020-08-10 20:00 19.61 289000 929000 (1993) 59700 (1988) 182000 79900 92600 114000 118000 162000 218000 241000 272000 322000
2020-08-10 19:30 19.61 289000 929000 (1993) 59700 (1988) 182000 79900 92600 114000 118000 162000 218000 241000 272000 322000
2020-08-10 19:00 19.71 291000 929000 (1993) 59700 (1988) 182000 79900 92600 114000 118000 162000 218000 241000 272000 322000
2020-08-10 18:30 19.70 291000 929000 (1993) 59700 (1988) 182000 79900 92600 114000 118000 162000 218000 241000 272000 322000
2020-08-10 18:00 19.83 293000 929000 (1993) 59700 (1988) 182000 79900 92600 114000 118000 162000 218000 241000 272000 322000
2020-08-10 17:30 19.85 293000 929000 (1993) 59700 (1988) 182000 79900 92600 114000 118000 162000 218000 241000 272000 322000
2020-08-10 17:00 19.76 292000 929000 (1993) 59700 (1988) 182000 79900 92600 114000 118000 162000 218000 241000 272000 322000
2020-08-10 16:30 19.87 293000 929000 (1993) 59700 (1988) 182000 79900 92600 114000 118000 162000 218000 241000 272000 322000
2020-08-10 16:00 19.84 293000 929000 (1993) 59700 (1988) 182000 79900 92600 114000 118000 162000 218000 241000 272000 322000
2020-08-10 15:30 19.75 291000 929000 (1993) 59700 (1988) 182000 79900 92600 114000 118000 162000 218000 241000 272000 322000
2020-08-10 15:00 19.86 293000 929000 (1993) 59700 (1988) 182000 79900 92600 114000 118000 162000 218000 241000 272000 322000
2020-08-10 14:30 19.81 292000 929000 (1993) 59700 (1988) 182000 79900 92600 114000 118000 162000 218000 241000 272000 322000
2020-08-10 14:00 19.83 293000 929000 (1993) 59700 (1988) 182000 79900 92600 114000 118000 162000 218000 241000 272000 322000
2020-08-10 13:30 19.77 292000 929000 (1993) 59700 (1988) 182000 79900 92600 114000 118000 162000 218000 241000 272000 322000
2020-08-10 13:00 19.76 292000 929000 (1993) 59700 (1988) 182000 79900 92600 114000 118000 162000 218000 241000 272000 322000
2020-08-10 12:30 19.71 291000 929000 (1993) 59700 (1988) 182000 79900 92600 114000 118000 162000 218000 241000 272000 322000
2020-08-10 12:00 19.71 291000 929000 (1993) 59700 (1988) 182000 79900 92600 114000 118000 162000 218000 241000 272000 322000
2020-08-10 11:30 19.65 290000 929000 (1993) 59700 (1988) 182000 79900 92600 114000 118000 162000 218000 241000 272000 322000
2020-08-10 11:00 19.54 288000 929000 (1993) 59700 (1988) 182000 79900 92600 114000 118000 162000 218000 241000 272000 322000
2020-08-10 10:30 19.44 286000 929000 (1993) 59700 (1988) 182000 79900 92600 114000 118000 162000 218000 241000 272000 322000
2020-08-10 10:00 19.43 286000 929000 (1993) 59700 (1988) 182000 79900 92600 114000 118000 162000 218000 241000 272000 322000
2020-08-10 09:30 19.49 287000 929000 (1993) 59700 (1988) 182000 79900 92600 114000 118000 162000 218000 241000 272000 322000
2020-08-10 09:00 19.31 284000 929000 (1993) 59700 (1988) 182000 79900 92600 114000 118000 162000 218000 241000 272000 322000
2020-08-10 08:30 19.34 284000 929000 (1993) 59700 (1988) 182000 79900 92600 114000 118000 162000 218000 241000 272000 322000
2020-08-10 08:00 19.36 285000 929000 (1993) 59700 (1988) 182000 79900 92600 114000 118000 162000 218000 241000 272000 322000
2020-08-10 07:30 19.24 283000 929000 (1993) 59700 (1988) 182000 79900 92600 114000 118000 162000 218000 241000 272000 322000
2020-08-10 07:00 19.19 282000 929000 (1993) 59700 (1988) 182000 79900 92600 114000 118000 162000 218000 241000 272000 322000
2020-08-10 06:30 19.19 282000 929000 (1993) 59700 (1988) 182000 79900 92600 114000 118000 162000 218000 241000 272000 322000
2020-08-10 06:00 19.21 282000 929000 (1993) 59700 (1988) 182000 79900 92600 114000 118000 162000 218000 241000 272000 322000
2020-08-10 05:30 18.95 278000 929000 (1993) 59700 (1988) 182000 79900 92600 114000 118000 162000 218000 241000 272000 322000
2020-08-10 05:00 19.03 279000 929000 (1993) 59700 (1988) 182000 79900 92600 114000 118000 162000 218000 241000 272000 322000
2020-08-10 04:30 18.97 278000 929000 (1993) 59700 (1988) 182000 79900 92600 114000 118000 162000 218000 241000 272000 322000
2020-08-10 04:00 18.95 278000 929000 (1993) 59700 (1988) 182000 79900 92600 114000 118000 162000 218000 241000 272000 322000
2020-08-10 03:30 18.83 276000 929000 (1993) 59700 (1988) 182000 79900 92600 114000 118000 162000 218000 241000 272000 322000
2020-08-10 03:00 18.84 276000 929000 (1993) 59700 (1988) 182000 79900 92600 114000 118000 162000 218000 241000 272000 322000
2020-08-10 02:30 18.71 274000 929000 (1993) 59700 (1988) 182000 79900 92600 114000 118000 162000 218000 241000 272000 322000
2020-08-10 02:00 18.58 272000 929000 (1993) 59700 (1988) 182000 79900 92600 114000 118000 162000 218000 241000 272000 322000
2020-08-10 01:30 18.69 274000 929000 (1993) 59700 (1988) 182000 79900 92600 114000 118000 162000 218000 241000 272000 322000
2020-08-10 01:00 18.46 270000 929000 (1993) 59700 (1988) 182000 79900 92600 114000 118000 162000 218000 241000 272000 322000
2020-08-10 00:30 18.52 271000 929000 (1993) 59700 (1988) 182000 79900 92600 114000 118000 162000 218000 241000 272000 322000
2020-08-10 00:00 18.47 270000 929000 (1993) 59700 (1988) 182000 79900 92600 114000 118000 162000 218000 241000 272000 322000
2020-08-09 23:30 18.31 268000 961000 (1993) 59400 (1988) 183000 88400 92900 110000 120000 155000 206000 229000 289000 375000
2020-08-09 23:00 18.41 269000 961000 (1993) 59400 (1988) 183000 88400 92900 110000 120000 155000 206000 229000 289000 375000
2020-08-09 22:30 18.22 266000 961000 (1993) 59400 (1988) 183000 88400 92900 110000 120000 155000 206000 229000 289000 375000
2020-08-09 22:00 18.29 267000 961000 (1993) 59400 (1988) 183000 88400 92900 110000 120000 155000 206000 229000 289000 375000
2020-08-09 21:30 18.22 266000 961000 (1993) 59400 (1988) 183000 88400 92900 110000 120000 155000 206000 229000 289000 375000
2020-08-09 21:00 18.12 265000 961000 (1993) 59400 (1988) 183000 88400 92900 110000 120000 155000 206000 229000 289000 375000
2020-08-09 20:30 18.08 264000 961000 (1993) 59400 (1988) 183000 88400 92900 110000 120000 155000 206000 229000 289000 375000
2020-08-09 20:00 18.05 263000 961000 (1993) 59400 (1988) 183000 88400 92900 110000 120000 155000 206000 229000 289000 375000
2020-08-09 19:30 17.90 261000 961000 (1993) 59400 (1988) 183000 88400 92900 110000 120000 155000 206000 229000 289000 375000
2020-08-09 19:00 17.95 262000 961000 (1993) 59400 (1988) 183000 88400 92900 110000 120000 155000 206000 229000 289000 375000
2020-08-09 18:30 17.87 261000 961000 (1993) 59400 (1988) 183000 88400 92900 110000 120000 155000 206000 229000 289000 375000
2020-08-09 18:00 17.85 260000 961000 (1993) 59400 (1988) 183000 88400 92900 110000 120000 155000 206000 229000 289000 375000
2020-08-09 17:30 17.80 259000 961000 (1993) 59400 (1988) 183000 88400 92900 110000 120000 155000 206000 229000 289000 375000
2020-08-09 17:00 17.74 258000 961000 (1993) 59400 (1988) 183000 88400 92900 110000 120000 155000 206000 229000 289000 375000
2020-08-09 16:30 17.72 258000 961000 (1993) 59400 (1988) 183000 88400 92900 110000 120000 155000 206000 229000 289000 375000
2020-08-09 16:00 17.71 258000 961000 (1993) 59400 (1988) 183000 88400 92900 110000 120000 155000 206000 229000 289000 375000
2020-08-09 15:30 17.63 257000 961000 (1993) 59400 (1988) 183000 88400 92900 110000 120000 155000 206000 229000 289000 375000
2020-08-09 15:00 17.48 254000 961000 (1993) 59400 (1988) 183000 88400 92900 110000 120000 155000 206000 229000 289000 375000
2020-08-09 14:30 17.51 255000 961000 (1993) 59400 (1988) 183000 88400 92900 110000 120000 155000 206000 229000 289000 375000
2020-08-09 14:00 17.44 254000 961000 (1993) 59400 (1988) 183000 88400 92900 110000 120000 155000 206000 229000 289000 375000
2020-08-09 13:30 17.37 253000 961000 (1993) 59400 (1988) 183000 88400 92900 110000 120000 155000 206000 229000 289000 375000
2020-08-09 13:00 17.26 251000 961000 (1993) 59400 (1988) 183000 88400 92900 110000 120000 155000 206000 229000 289000 375000
2020-08-09 12:30 17.27 251000 961000 (1993) 59400 (1988) 183000 88400 92900 110000 120000 155000 206000 229000 289000 375000
2020-08-09 12:00 17.15 249000 961000 (1993) 59400 (1988) 183000 88400 92900 110000 120000 155000 206000 229000 289000 375000
2020-08-09 11:30 17.02 247000 961000 (1993) 59400 (1988) 183000 88400 92900 110000 120000 155000 206000 229000 289000 375000
2020-08-09 11:00 16.99 247000 961000 (1993) 59400 (1988) 183000 88400 92900 110000 120000 155000 206000 229000 289000 375000
2020-08-09 10:30 16.92 246000 961000 (1993) 59400 (1988) 183000 88400 92900 110000 120000 155000 206000 229000 289000 375000
2020-08-09 10:00 16.94 246000 961000 (1993) 59400 (1988) 183000 88400 92900 110000 120000 155000 206000 229000 289000 375000
2020-08-09 09:30 16.99 247000 961000 (1993) 59400 (1988) 183000 88400 92900 110000 120000 155000 206000 229000 289000 375000
2020-08-09 09:00 17.01 247000 961000 (1993) 59400 (1988) 183000 88400 92900 110000 120000 155000 206000 229000 289000 375000
2020-08-09 08:30 16.83 244000 961000 (1993) 59400 (1988) 183000 88400 92900 110000 120000 155000 206000 229000 289000 375000
2020-08-09 08:00 16.73 243000 961000 (1993) 59400 (1988) 183000 88400 92900 110000 120000 155000 206000 229000 289000 375000
2020-08-09 07:30 16.85 245000 961000 (1993) 59400 (1988) 183000 88400 92900 110000 120000 155000 206000 229000 289000 375000
2020-08-09 07:00 16.89 245000 961000 (1993) 59400 (1988) 183000 88400 92900 110000 120000 155000 206000 229000 289000 375000
2020-08-09 06:30 16.86 245000 961000 (1993) 59400 (1988) 183000 88400 92900 110000 120000 155000 206000 229000 289000 375000
2020-08-09 06:00 16.81 244000 961000 (1993) 59400 (1988) 183000 88400 92900 110000 120000 155000 206000 229000 289000 375000
2020-08-09 05:30 16.83 244000 961000 (1993) 59400 (1988) 183000 88400 92900 110000 120000 155000 206000 229000 289000 375000
2020-08-09 05:00 16.82 244000 961000 (1993) 59400 (1988) 183000 88400 92900 110000 120000 155000 206000 229000 289000 375000
2020-08-09 04:30 16.81 244000 961000 (1993) 59400 (1988) 183000 88400 92900 110000 120000 155000 206000 229000 289000 375000
2020-08-09 04:00 16.94 246000 961000 (1993) 59400 (1988) 183000 88400 92900 110000 120000 155000 206000 229000 289000 375000
2020-08-09 03:30 16.90 245000 961000 (1993) 59400 (1988) 183000 88400 92900 110000 120000 155000 206000 229000 289000 375000
2020-08-09 03:00 16.87 245000 961000 (1993) 59400 (1988) 183000 88400 92900 110000 120000 155000 206000 229000 289000 375000
2020-08-09 02:30 16.86 245000 961000 (1993) 59400 (1988) 183000 88400 92900 110000 120000 155000 206000 229000 289000 375000
2020-08-09 02:00 16.92 246000 961000 (1993) 59400 (1988) 183000 88400 92900 110000 120000 155000 206000 229000 289000 375000
2020-08-09 01:30 16.80 244000 961000 (1993) 59400 (1988) 183000 88400 92900 110000 120000 155000 206000 229000 289000 375000
2020-08-09 01:00 16.99 247000 961000 (1993) 59400 (1988) 183000 88400 92900 110000 120000 155000 206000 229000 289000 375000
2020-08-09 00:30 17.01 247000 961000 (1993) 59400 (1988) 183000 88400 92900 110000 120000 155000 206000 229000 289000 375000
2020-08-09 00:00 16.96 246000 961000 (1993) 59400 (1988) 183000 88400 92900 110000 120000 155000 206000 229000 289000 375000
2020-08-08 23:30 17.02 247000 985000 (1993) 62800 (1988) 185000 85600 92300 114000 118000 152000 205000 237000 312000 401000
2020-08-08 23:00 16.99 247000 985000 (1993) 62800 (1988) 185000 85600 92300 114000 118000 152000 205000 237000 312000 401000
2020-08-08 22:30 16.97 247000 985000 (1993) 62800 (1988) 185000 85600 92300 114000 118000 152000 205000 237000 312000 401000
2020-08-08 22:00 17.01 247000 985000 (1993) 62800 (1988) 185000 85600 92300 114000 118000 152000 205000 237000 312000 401000
2020-08-08 21:30 17.00 247000 985000 (1993) 62800 (1988) 185000 85600 92300 114000 118000 152000 205000 237000 312000 401000
2020-08-08 21:00 16.93 246000 985000 (1993) 62800 (1988) 185000 85600 92300 114000 118000 152000 205000 237000 312000 401000
2020-08-08 20:30 16.98 247000 985000 (1993) 62800 (1988) 185000 85600 92300 114000 118000 152000 205000 237000 312000 401000
2020-08-08 20:00 17.00 247000 985000 (1993) 62800 (1988) 185000 85600 92300 114000 118000 152000 205000 237000 312000 401000
2020-08-08 19:30 17.05 248000 985000 (1993) 62800 (1988) 185000 85600 92300 114000 118000 152000 205000 237000 312000 401000
2020-08-08 19:00 16.98 247000 985000 (1993) 62800 (1988) 185000 85600 92300 114000 118000 152000 205000 237000 312000 401000
2020-08-08 18:30 16.99 247000 985000 (1993) 62800 (1988) 185000 85600 92300 114000 118000 152000 205000 237000 312000 401000
2020-08-08 18:00 17.01 247000 985000 (1993) 62800 (1988) 185000 85600 92300 114000 118000 152000 205000 237000 312000 401000
2020-08-08 17:30 17.07 248000 985000 (1993) 62800 (1988) 185000 85600 92300 114000 118000 152000 205000 237000 312000 401000
2020-08-08 17:00 17.07 248000 985000 (1993) 62800 (1988) 185000 85600 92300 114000 118000 152000 205000 237000 312000 401000
2020-08-08 16:30 17.10 249000 985000 (1993) 62800 (1988) 185000 85600 92300 114000 118000 152000 205000 237000 312000 401000
2020-08-08 16:00 17.08 248000 985000 (1993) 62800 (1988) 185000 85600 92300 114000 118000 152000 205000 237000 312000 401000
2020-08-08 15:30 17.08 248000 985000 (1993) 62800 (1988) 185000 85600 92300 114000 118000 152000 205000 237000 312000 401000
2020-08-08 15:00 17.04 248000 985000 (1993) 62800 (1988) 185000 85600 92300 114000 118000 152000 205000 237000 312000 401000
2020-08-08 14:30 17.06 248000 985000 (1993) 62800 (1988) 185000 85600 92300 114000 118000 152000 205000 237000 312000 401000
2020-08-08 14:00 17.08 248000 985000 (1993) 62800 (1988) 185000 85600 92300 114000 118000 152000 205000 237000 312000 401000
2020-08-08 13:30 17.06 248000 985000 (1993) 62800 (1988) 185000 85600 92300 114000 118000 152000 205000 237000 312000 401000
2020-08-08 13:00 17.05 248000 985000 (1993) 62800 (1988) 185000 85600 92300 114000 118000 152000 205000 237000 312000 401000
2020-08-08 12:30 17.01 247000 985000 (1993) 62800 (1988) 185000 85600 92300 114000 118000 152000 205000 237000 312000 401000
2020-08-08 12:00 17.05 248000 985000 (1993) 62800 (1988) 185000 85600 92300 114000 118000 152000 205000 237000 312000 401000
2020-08-08 11:30 17.03 247000 985000 (1993) 62800 (1988) 185000 85600 92300 114000 118000 152000 205000 237000 312000 401000
2020-08-08 11:00 17.00 247000 985000 (1993) 62800 (1988) 185000 85600 92300 114000 118000 152000 205000 237000 312000 401000
2020-08-08 10:30 16.99 247000 985000 (1993) 62800 (1988) 185000 85600 92300 114000 118000 152000 205000 237000 312000 401000
2020-08-08 10:00 17.06 248000 985000 (1993) 62800 (1988) 185000 85600 92300 114000 118000 152000 205000 237000 312000 401000
2020-08-08 09:30 17.01 247000 985000 (1993) 62800 (1988) 185000 85600 92300 114000 118000 152000 205000 237000 312000 401000
2020-08-08 09:00 17.03 247000 985000 (1993) 62800 (1988) 185000 85600 92300 114000 118000 152000 205000 237000 312000 401000
2020-08-08 08:30 17.03 247000 985000 (1993) 62800 (1988) 185000 85600 92300 114000 118000 152000 205000 237000 312000 401000
2020-08-08 08:00 16.97 247000 985000 (1993) 62800 (1988) 185000 85600 92300 114000 118000 152000 205000 237000 312000 401000
2020-08-08 07:30 17.05 248000 985000 (1993) 62800 (1988) 185000 85600 92300 114000 118000 152000 205000 237000 312000 401000
2020-08-08 07:00 17.07 248000 985000 (1993) 62800 (1988) 185000 85600 92300 114000 118000 152000 205000 237000 312000 401000
2020-08-08 06:30 16.98 247000 985000 (1993) 62800 (1988) 185000 85600 92300 114000 118000 152000 205000 237000 312000 401000
2020-08-08 06:00 17.03 247000 985000 (1993) 62800 (1988) 185000 85600 92300 114000 118000 152000 205000 237000 312000 401000
2020-08-08 05:30 17.09 248000 985000 (1993) 62800 (1988) 185000 85600 92300 114000 118000 152000 205000 237000 312000 401000
2020-08-08 05:00 17.13 249000 985000 (1993) 62800 (1988) 185000 85600 92300 114000 118000 152000 205000 237000 312000 401000
2020-08-08 04:30 17.15 249000 985000 (1993) 62800 (1988) 185000 85600 92300 114000 118000 152000 205000 237000 312000 401000
2020-08-08 04:00 17.13 249000 985000 (1993) 62800 (1988) 185000 85600 92300 114000 118000 152000 205000 237000 312000 401000
2020-08-08 03:30 17.10 249000 985000 (1993) 62800 (1988) 185000 85600 92300 114000 118000 152000 205000 237000 312000 401000
2020-08-08 03:00 17.17 250000 985000 (1993) 62800 (1988) 185000 85600 92300 114000 118000 152000 205000 237000 312000 401000
2020-08-08 02:30 17.22 250000 985000 (1993) 62800 (1988) 185000 85600 92300 114000 118000 152000 205000 237000 312000 401000
2020-08-08 02:00 17.26 251000 985000 (1993) 62800 (1988) 185000 85600 92300 114000 118000 152000 205000 237000 312000 401000
2020-08-08 01:30 17.17 250000 985000 (1993) 62800 (1988) 185000 85600 92300 114000 118000 152000 205000 237000 312000 401000
2020-08-08 01:00 17.26 251000 985000 (1993) 62800 (1988) 185000 85600 92300 114000 118000 152000 205000 237000 312000 401000
2020-08-08 00:30 17.22 250000 985000 (1993) 62800 (1988) 185000 85600 92300 114000 118000 152000 205000 237000 312000 401000
2020-08-08 00:00 17.32 252000 985000 (1993) 62800 (1988) 185000 85600 92300 114000 118000 152000 205000 237000 312000 401000
2020-08-07 23:30 17.23 251000 1000000 (1993) 66400 (1988) 188000 82000 90700 115000 118000 157000 210000 229000 338000 418000
2020-08-07 23:00 17.36 253000 1000000 (1993) 66400 (1988) 188000 82000 90700 115000 118000 157000 210000 229000 338000 418000
2020-08-07 22:30 17.31 252000 1000000 (1993) 66400 (1988) 188000 82000 90700 115000 118000 157000 210000 229000 338000 418000
2020-08-07 22:00 17.35 252000 1000000 (1993) 66400 (1988) 188000 82000 90700 115000 118000 157000 210000 229000 338000 418000
2020-08-07 21:30 17.40 253000 1000000 (1993) 66400 (1988) 188000 82000 90700 115000 118000 157000 210000 229000 338000 418000
2020-08-07 21:00 17.44 254000 1000000 (1993) 66400 (1988) 188000 82000 90700 115000 118000 157000 210000 229000 338000 418000
2020-08-07 20:30 17.52 255000 1000000 (1993) 66400 (1988) 188000 82000 90700 115000 118000 157000 210000 229000 338000 418000
2020-08-07 20:00 17.52 255000 1000000 (1993) 66400 (1988) 188000 82000 90700 115000 118000 157000 210000 229000 338000 418000
2020-08-07 19:30 17.35 252000 1000000 (1993) 66400 (1988) 188000 82000 90700 115000 118000 157000 210000 229000 338000 418000
2020-08-07 19:00 17.43 254000 1000000 (1993) 66400 (1988) 188000 82000 90700 115000 118000 157000 210000 229000 338000 418000
2020-08-07 18:30 17.52 255000 1000000 (1993) 66400 (1988) 188000 82000 90700 115000 118000 157000 210000 229000 338000 418000
2020-08-07 18:00 17.46 254000 1000000 (1993) 66400 (1988) 188000 82000 90700 115000 118000 157000 210000 229000 338000 418000
2020-08-07 17:30 17.50 255000 1000000 (1993) 66400 (1988) 188000 82000 90700 115000 118000 157000 210000 229000 338000 418000
2020-08-07 17:00 17.52 255000 1000000 (1993) 66400 (1988) 188000 82000 90700 115000 118000 157000 210000 229000 338000 418000
2020-08-07 16:30 17.56 256000 1000000 (1993) 66400 (1988) 188000 82000 90700 115000 118000 157000 210000 229000 338000 418000
2020-08-07 16:00 17.49 255000 1000000 (1993) 66400 (1988) 188000 82000 90700 115000 118000 157000 210000 229000 338000 418000
2020-08-07 15:30 17.60 256000 1000000 (1993) 66400 (1988) 188000 82000 90700 115000 118000 157000 210000 229000 338000 418000
2020-08-07 15:00 17.57 256000 1000000 (1993) 66400 (1988) 188000 82000 90700 115000 118000 157000 210000 229000 338000 418000
2020-08-07 14:30 17.50 255000 1000000 (1993) 66400 (1988) 188000 82000 90700 115000 118000 157000 210000 229000 338000 418000
2020-08-07 14:00 17.65 257000 1000000 (1993) 66400 (1988) 188000 82000 90700 115000 118000 157000 210000 229000 338000 418000
2020-08-07 13:30 17.61 256000 1000000 (1993) 66400 (1988) 188000 82000 90700 115000 118000 157000 210000 229000 338000 418000
2020-08-07 13:00 17.57 256000 1000000 (1993) 66400 (1988) 188000 82000 90700 115000 118000 157000 210000 229000 338000 418000
2020-08-07 12:30 17.61 256000 1000000 (1993) 66400 (1988) 188000 82000 90700 115000 118000 157000 210000 229000 338000 418000
2020-08-07 12:00 17.58 256000 1000000 (1993) 66400 (1988) 188000 82000 90700 115000 118000 157000 210000 229000 338000 418000
2020-08-07 11:30 17.65 257000 1000000 (1993) 66400 (1988) 188000 82000 90700 115000 118000 157000 210000 229000 338000 418000
2020-08-07 11:00 17.58 256000 1000000 (1993) 66400 (1988) 188000 82000 90700 115000 118000 157000 210000 229000 338000 418000
2020-08-07 10:30 17.66 257000 1000000 (1993) 66400 (1988) 188000 82000 90700 115000 118000 157000 210000 229000 338000 418000
2020-08-07 10:00 17.55 256000 1000000 (1993) 66400 (1988) 188000 82000 90700 115000 118000 157000 210000 229000 338000 418000
2020-08-07 09:30 17.50 255000 1000000 (1993) 66400 (1988) 188000 82000 90700 115000 118000 157000 210000 229000 338000 418000
2020-08-07 09:00 17.74 258000 1000000 (1993) 66400 (1988) 188000 82000 90700 115000 118000 157000 210000 229000 338000 418000
2020-08-07 08:30 17.68 258000 1000000 (1993) 66400 (1988) 188000 82000 90700 115000 118000 157000 210000 229000 338000 418000
2020-08-07 08:00 17.73 258000 1000000 (1993) 66400 (1988) 188000 82000 90700 115000 118000 157000 210000 229000 338000 418000
2020-08-07 07:30 17.71 258000 1000000 (1993) 66400 (1988) 188000 82000 90700 115000 118000 157000 210000 229000 338000 418000
2020-08-07 07:00 17.73 258000 1000000 (1993) 66400 (1988) 188000 82000 90700 115000 118000 157000 210000 229000 338000 418000
2020-08-07 06:30 17.65 257000 1000000 (1993) 66400 (1988) 188000 82000 90700 115000 118000 157000 210000 229000 338000 418000
2020-08-07 06:00 17.73 258000 1000000 (1993) 66400 (1988) 188000 82000 90700 115000 118000 157000 210000 229000 338000 418000
2020-08-07 05:30 17.76 259000 1000000 (1993) 66400 (1988) 188000 82000 90700 115000 118000 157000 210000 229000 338000 418000
2020-08-07 05:00 17.79 259000 1000000 (1993) 66400 (1988) 188000 82000 90700 115000 118000 157000 210000 229000 338000 418000
2020-08-07 04:30 17.79 259000 1000000 (1993) 66400 (1988) 188000 82000 90700 115000 118000 157000 210000 229000 338000 418000
2020-08-07 04:00 17.80 259000 1000000 (1993) 66400 (1988) 188000 82000 90700 115000 118000 157000 210000 229000 338000 418000
2020-08-07 03:30 17.90 261000 1000000 (1993) 66400 (1988) 188000 82000 90700 115000 118000 157000 210000 229000 338000 418000
2020-08-07 03:00 17.84 260000 1000000 (1993) 66400 (1988) 188000 82000 90700 115000 118000 157000 210000 229000 338000 418000
2020-08-07 02:30 17.94 262000 1000000 (1993) 66400 (1988) 188000 82000 90700 115000 118000 157000 210000 229000 338000 418000
2020-08-07 02:00 17.72 258000 1000000 (1993) 66400 (1988) 188000 82000 90700 115000 118000 157000 210000 229000 338000 418000
2020-08-07 01:30 17.95 262000 1000000 (1993) 66400 (1988) 188000 82000 90700 115000 118000 157000 210000 229000 338000 418000
2020-08-07 01:00 17.83 260000 1000000 (1993) 66400 (1988) 188000 82000 90700 115000 118000 157000 210000 229000 338000 418000
2020-08-07 00:30 17.98 262000 1000000 (1993) 66400 (1988) 188000 82000 90700 115000 118000 157000 210000 229000 338000 418000
2020-08-07 00:00 18.01 263000 1000000 (1993) 66400 (1988) 188000 82000 90700 115000 118000 157000 210000 229000 338000 418000
2020-08-06 23:30 17.99 262000 1000000 (1993) 66200 (1988) 189000 80500 83800 106000 118000 150000 215000 239000 353000 432000
2020-08-06 23:00 17.99 262000 1000000 (1993) 66200 (1988) 189000 80500 83800 106000 118000 150000 215000 239000 353000 432000
2020-08-06 22:30 18.06 264000 1000000 (1993) 66200 (1988) 189000 80500 83800 106000 118000 150000 215000 239000 353000 432000
2020-08-06 22:00 18.07 264000 1000000 (1993) 66200 (1988) 189000 80500 83800 106000 118000 150000 215000 239000 353000 432000
2020-08-06 21:30 17.94 262000 1000000 (1993) 66200 (1988) 189000 80500 83800 106000 118000 150000 215000 239000 353000 432000
2020-08-06 21:00 18.06 264000 1000000 (1993) 66200 (1988) 189000 80500 83800 106000 118000 150000 215000 239000 353000 432000
2020-08-06 20:30 18.13 265000 1000000 (1993) 66200 (1988) 189000 80500 83800 106000 118000 150000 215000 239000 353000 432000
2020-08-06 20:00 18.22 266000 1000000 (1993) 66200 (1988) 189000 80500 83800 106000 118000 150000 215000 239000 353000 432000
2020-08-06 19:30 18.24 266000 1000000 (1993) 66200 (1988) 189000 80500 83800 106000 118000 150000 215000 239000 353000 432000
2020-08-06 19:00 18.26 267000 1000000 (1993) 66200 (1988) 189000 80500 83800 106000 118000 150000 215000 239000 353000 432000
2020-08-06 18:30 18.27 267000 1000000 (1993) 66200 (1988) 189000 80500 83800 106000 118000 150000 215000 239000 353000 432000
2020-08-06 18:00 18.27 267000 1000000 (1993) 66200 (1988) 189000 80500 83800 106000 118000 150000 215000 239000 353000 432000
2020-08-06 17:30 18.27 267000 1000000 (1993) 66200 (1988) 189000 80500 83800 106000 118000 150000 215000 239000 353000 432000
2020-08-06 17:00 18.18 265000 1000000 (1993) 66200 (1988) 189000 80500 83800 106000 118000 150000 215000 239000 353000 432000
2020-08-06 16:30 18.14 265000 1000000 (1993) 66200 (1988) 189000 80500 83800 106000 118000 150000 215000 239000 353000 432000
2020-08-06 16:00 18.18 265000 1000000 (1993) 66200 (1988) 189000 80500 83800 106000 118000 150000 215000 239000 353000 432000
2020-08-06 15:30 18.18 265000 1000000 (1993) 66200 (1988) 189000 80500 83800 106000 118000 150000 215000 239000 353000 432000
2020-08-06 15:00 18.24 266000 1000000 (1993) 66200 (1988) 189000 80500 83800 106000 118000 150000 215000 239000 353000 432000
2020-08-06 14:30 18.29 267000 1000000 (1993) 66200 (1988) 189000 80500 83800 106000 118000 150000 215000 239000 353000 432000
2020-08-06 14:00 18.19 266000 1000000 (1993) 66200 (1988) 189000 80500 83800 106000 118000 150000 215000 239000 353000 432000
2020-08-06 13:30 18.24 266000 1000000 (1993) 66200 (1988) 189000 80500 83800 106000 118000 150000 215000 239000 353000 432000
2020-08-06 13:00 18.25 267000 1000000 (1993) 66200 (1988) 189000 80500 83800 106000 118000 150000 215000 239000 353000 432000
2020-08-06 12:30 18.15 265000 1000000 (1993) 66200 (1988) 189000 80500 83800 106000 118000 150000 215000 239000 353000 432000
2020-08-06 12:00 18.22 266000 1000000 (1993) 66200 (1988) 189000 80500 83800 106000 118000 150000 215000 239000 353000 432000
2020-08-06 11:30 18.23 266000 1000000 (1993) 66200 (1988) 189000 80500 83800 106000 118000 150000 215000 239000 353000 432000
2020-08-06 11:00 18.29 267000 1000000 (1993) 66200 (1988) 189000 80500 83800 106000 118000 150000 215000 239000 353000 432000
2020-08-06 10:30 18.30 267000 1000000 (1993) 66200 (1988) 189000 80500 83800 106000 118000 150000 215000 239000 353000 432000
2020-08-06 10:00 18.38 269000 1000000 (1993) 66200 (1988) 189000 80500 83800 106000 118000 150000 215000 239000 353000 432000
2020-08-06 09:30 18.28 267000 1000000 (1993) 66200 (1988) 189000 80500 83800 106000 118000 150000 215000 239000 353000 432000
2020-08-06 09:00 18.38 269000 1000000 (1993) 66200 (1988) 189000 80500 83800 106000 118000 150000 215000 239000 353000 432000
2020-08-06 08:30 18.29 267000 1000000 (1993) 66200 (1988) 189000 80500 83800 106000 118000 150000 215000 239000 353000 432000
2020-08-06 08:00 18.30 267000 1000000 (1993) 66200 (1988) 189000 80500 83800 106000 118000 150000 215000 239000 353000 432000
2020-08-06 07:30 18.30 267000 1000000 (1993) 66200 (1988) 189000 80500 83800 106000 118000 150000 215000 239000 353000 432000
2020-08-06 07:00 18.41 269000 1000000 (1993) 66200 (1988) 189000 80500 83800 106000 118000 150000 215000 239000 353000 432000
2020-08-06 06:30 18.46 270000 1000000 (1993) 66200 (1988) 189000 80500 83800 106000 118000 150000 215000 239000 353000 432000
2020-08-06 06:00 18.49 270000 1000000 (1993) 66200 (1988) 189000 80500 83800 106000 118000 150000 215000 239000 353000 432000
2020-08-06 05:30 18.45 270000 1000000 (1993) 66200 (1988) 189000 80500 83800 106000 118000 150000 215000 239000 353000 432000
2020-08-06 05:00 18.48 270000 1000000 (1993) 66200 (1988) 189000 80500 83800 106000 118000 150000 215000 239000 353000 432000
2020-08-06 04:30 18.56 272000 1000000 (1993) 66200 (1988) 189000 80500 83800 106000 118000 150000 215000 239000 353000 432000
2020-08-06 04:00 18.59 272000 1000000 (1993) 66200 (1988) 189000 80500 83800 106000 118000 150000 215000 239000 353000 432000
2020-08-06 03:30 18.53 271000 1000000 (1993) 66200 (1988) 189000 80500 83800 106000 118000 150000 215000 239000 353000 432000
2020-08-06 03:00 18.59 272000 1000000 (1993) 66200 (1988) 189000 80500 83800 106000 118000 150000 215000 239000 353000 432000
2020-08-06 02:30 18.64 273000 1000000 (1993) 66200 (1988) 189000 80500 83800 106000 118000 150000 215000 239000 353000 432000
2020-08-06 02:00 18.66 273000 1000000 (1993) 66200 (1988) 189000 80500 83800 106000 118000 150000 215000 239000 353000 432000
2020-08-06 01:30 18.66 273000 1000000 (1993) 66200 (1988) 189000 80500 83800 106000 118000 150000 215000 239000 353000 432000
2020-08-06 01:00 18.70 274000 1000000 (1993) 66200 (1988) 189000 80500 83800 106000 118000 150000 215000 239000 353000 432000
2020-08-06 00:30 18.76 275000 1000000 (1993) 66200 (1988) 189000 80500 83800 106000 118000 150000 215000 239000 353000 432000
2020-08-06 00:00 18.78 275000 1000000 (1993) 66200 (1988) 189000 80500 83800 106000 118000 150000 215000 239000 353000 432000
2020-08-05 23:30 18.74 275000 991000 (1993) 65400 (1988) 191000 76800 85800 105000 119000 154000 222000 243000 365000 466000
2020-08-05 23:00 18.77 275000 991000 (1993) 65400 (1988) 191000 76800 85800 105000 119000 154000 222000 243000 365000 466000
2020-08-05 22:30 18.85 276000 991000 (1993) 65400 (1988) 191000 76800 85800 105000 119000 154000 222000 243000 365000 466000
2020-08-05 22:00 18.88 277000 991000 (1993) 65400 (1988) 191000 76800 85800 105000 119000 154000 222000 243000 365000 466000
2020-08-05 21:30 18.81 276000 991000 (1993) 65400 (1988) 191000 76800 85800 105000 119000 154000 222000 243000 365000 466000
2020-08-05 21:00 18.94 278000 991000 (1993) 65400 (1988) 191000 76800 85800 105000 119000 154000 222000 243000 365000 466000
2020-08-05 20:30 19.05 280000 991000 (1993) 65400 (1988) 191000 76800 85800 105000 119000 154000 222000 243000 365000 466000
2020-08-05 20:00 19.19 282000 991000 (1993) 65400 (1988) 191000 76800 85800 105000 119000 154000 222000 243000 365000 466000
2020-08-05 19:30 19.21 282000 991000 (1993) 65400 (1988) 191000 76800 85800 105000 119000 154000 222000 243000 365000 466000
2020-08-05 19:00 19.21 282000 991000 (1993) 65400 (1988) 191000 76800 85800 105000 119000 154000 222000 243000 365000 466000
2020-08-05 18:30 19.21 282000 991000 (1993) 65400 (1988) 191000 76800 85800 105000 119000 154000 222000 243000 365000 466000
2020-08-05 18:00 19.24 283000 991000 (1993) 65400 (1988) 191000 76800 85800 105000 119000 154000 222000 243000 365000 466000
2020-08-05 17:30 19.33 284000 991000 (1993) 65400 (1988) 191000 76800 85800 105000 119000 154000 222000 243000 365000 466000
2020-08-05 17:00 19.36 285000 991000 (1993) 65400 (1988) 191000 76800 85800 105000 119000 154000 222000 243000 365000 466000
2020-08-05 16:30 19.23 283000 991000 (1993) 65400 (1988) 191000 76800 85800 105000 119000 154000 222000 243000 365000 466000
2020-08-05 16:00 19.41 286000 991000 (1993) 65400 (1988) 191000 76800 85800 105000 119000 154000 222000 243000 365000 466000
2020-08-05 15:30 19.36 285000 991000 (1993) 65400 (1988) 191000 76800 85800 105000 119000 154000 222000 243000 365000 466000
2020-08-05 15:00 19.49 287000 991000 (1993) 65400 (1988) 191000 76800 85800 105000 119000 154000 222000 243000 365000 466000
2020-08-05 14:30 19.55 288000 991000 (1993) 65400 (1988) 191000 76800 85800 105000 119000 154000 222000 243000 365000 466000
2020-08-05 14:00 19.51 287000 991000 (1993) 65400 (1988) 191000 76800 85800 105000 119000 154000 222000 243000 365000 466000
2020-08-05 13:30 19.59 289000 991000 (1993) 65400 (1988) 191000 76800 85800 105000 119000 154000 222000 243000 365000 466000
2020-08-05 13:00 19.58 289000 991000 (1993) 65400 (1988) 191000 76800 85800 105000 119000 154000 222000 243000 365000 466000
2020-08-05 12:30 19.59 289000 991000 (1993) 65400 (1988) 191000 76800 85800 105000 119000 154000 222000 243000 365000 466000
2020-08-05 12:00 19.66 290000 991000 (1993) 65400 (1988) 191000 76800 85800 105000 119000 154000 222000 243000 365000 466000
2020-08-05 11:30 19.68 290000 991000 (1993) 65400 (1988) 191000 76800 85800 105000 119000 154000 222000 243000 365000 466000
2020-08-05 11:00 19.75 291000 991000 (1993) 65400 (1988) 191000 76800 85800 105000 119000 154000 222000 243000 365000 466000
2020-08-05 10:30 19.70 291000 991000 (1993) 65400 (1988) 191000 76800 85800 105000 119000 154000 222000 243000 365000 466000
2020-08-05 10:00 19.82 293000 991000 (1993) 65400 (1988) 191000 76800 85800 105000 119000 154000 222000 243000 365000 466000
2020-08-05 09:30 19.75 291000 991000 (1993) 65400 (1988) 191000 76800 85800 105000 119000 154000 222000 243000 365000 466000
2020-08-05 09:00 19.78 292000 991000 (1993) 65400 (1988) 191000 76800 85800 105000 119000 154000 222000 243000 365000 466000
2020-08-05 08:30 19.96 295000 991000 (1993) 65400 (1988) 191000 76800 85800 105000 119000 154000 222000 243000 365000 466000
2020-08-05 08:00 19.99 295000 991000 (1993) 65400 (1988) 191000 76800 85800 105000 119000 154000 222000 243000 365000 466000
2020-08-05 07:30 20.05 297000 991000 (1993) 65400 (1988) 191000 76800 85800 105000 119000 154000 222000 243000 365000 466000
2020-08-05 07:00 20.14 298000 991000 (1993) 65400 (1988) 191000 76800 85800 105000 119000 154000 222000 243000 365000 466000
2020-08-05 06:30 20.11 298000 991000 (1993) 65400 (1988) 191000 76800 85800 105000 119000 154000 222000 243000 365000 466000
2020-08-05 06:00 20.17 299000 991000 (1993) 65400 (1988) 191000 76800 85800 105000 119000 154000 222000 243000 365000 466000
2020-08-05 05:30 20.17 299000 991000 (1993) 65400 (1988) 191000 76800 85800 105000 119000 154000 222000 243000 365000 466000
2020-08-05 05:00 20.36 302000 991000 (1993) 65400 (1988) 191000 76800 85800 105000 119000 154000 222000 243000 365000 466000
2020-08-05 04:30 20.44 303000 991000 (1993) 65400 (1988) 191000 76800 85800 105000 119000 154000 222000 243000 365000 466000
2020-08-05 04:00 20.41 303000 991000 (1993) 65400 (1988) 191000 76800 85800 105000 119000 154000 222000 243000 365000 466000
2020-08-05 03:30 20.38 302000 991000 (1993) 65400 (1988) 191000 76800 85800 105000 119000 154000 222000 243000 365000 466000
2020-08-05 03:00 20.58 306000 991000 (1993) 65400 (1988) 191000 76800 85800 105000 119000 154000 222000 243000 365000 466000
2020-08-05 02:30 20.58 306000 991000 (1993) 65400 (1988) 191000 76800 85800 105000 119000 154000 222000 243000 365000 466000
2020-08-05 02:00 20.69 308000 991000 (1993) 65400 (1988) 191000 76800 85800 105000 119000 154000 222000 243000 365000 466000
2020-08-05 01:30 20.76 309000 991000 (1993) 65400 (1988) 191000 76800 85800 105000 119000 154000 222000 243000 365000 466000
2020-08-05 01:00 20.72 308000 991000 (1993) 65400 (1988) 191000 76800 85800 105000 119000 154000 222000 243000 365000 466000
2020-08-05 00:30 20.79 309000 991000 (1993) 65400 (1988) 191000 76800 85800 105000 119000 154000 222000 243000 365000 466000
2020-08-05 00:00 20.92 312000 991000 (1993) 65400 (1988) 191000 76800 85800 105000 119000 154000 222000 243000 365000 466000
2020-08-04 23:30 20.99 313000 955000 (1993) 64200 (1977) 195000 75900 87900 108000 123000 157000 229000 243000 373000 483000
2020-08-04 23:00 21.14 316000 955000 (1993) 64200 (1977) 195000 75900 87900 108000 123000 157000 229000 243000 373000 483000
2020-08-04 22:30 21.13 315000 955000 (1993) 64200 (1977) 195000 75900 87900 108000 123000 157000 229000 243000 373000 483000
2020-08-04 22:00 21.04 314000 955000 (1993) 64200 (1977) 195000 75900 87900 108000 123000 157000 229000 243000 373000 483000
2020-08-04 21:30 21.29 318000 955000 (1993) 64200 (1977) 195000 75900 87900 108000 123000 157000 229000 243000 373000 483000
2020-08-04 21:00 21.35 319000 955000 (1993) 64200 (1977) 195000 75900 87900 108000 123000 157000 229000 243000 373000 483000
2020-08-04 20:30 21.37 320000 955000 (1993) 64200 (1977) 195000 75900 87900 108000 123000 157000 229000 243000 373000 483000
2020-08-04 20:00 21.49 322000 955000 (1993) 64200 (1977) 195000 75900 87900 108000 123000 157000 229000 243000 373000 483000
2020-08-04 19:30 21.55 323000 955000 (1993) 64200 (1977) 195000 75900 87900 108000 123000 157000 229000 243000 373000 483000
2020-08-04 19:00 21.62 324000 955000 (1993) 64200 (1977) 195000 75900 87900 108000 123000 157000 229000 243000 373000 483000
2020-08-04 18:30 21.59 324000 955000 (1993) 64200 (1977) 195000 75900 87900 108000 123000 157000 229000 243000 373000 483000
2020-08-04 18:00 21.68 325000 955000 (1993) 64200 (1977) 195000 75900 87900 108000 123000 157000 229000 243000 373000 483000
2020-08-04 17:30 21.75 327000 955000 (1993) 64200 (1977) 195000 75900 87900 108000 123000 157000 229000 243000 373000 483000
2020-08-04 17:00 21.77 327000 955000 (1993) 64200 (1977) 195000 75900 87900 108000 123000 157000 229000 243000 373000 483000
2020-08-04 16:30 21.78 327000 955000 (1993) 64200 (1977) 195000 75900 87900 108000 123000 157000 229000 243000 373000 483000
2020-08-04 16:00 21.88 329000 955000 (1993) 64200 (1977) 195000 75900 87900 108000 123000 157000 229000 243000 373000 483000
2020-08-04 15:30 21.89 329000 955000 (1993) 64200 (1977) 195000 75900 87900 108000 123000 157000 229000 243000 373000 483000
2020-08-04 15:00 21.90 329000 955000 (1993) 64200 (1977) 195000 75900 87900 108000 123000 157000 229000 243000 373000 483000
2020-08-04 14:30 21.95 330000 955000 (1993) 64200 (1977) 195000 75900 87900 108000 123000 157000 229000 243000 373000 483000
2020-08-04 14:00 21.95 330000 955000 (1993) 64200 (1977) 195000 75900 87900 108000 123000 157000 229000 243000 373000 483000
2020-08-04 13:30 21.96 331000 955000 (1993) 64200 (1977) 195000 75900 87900 108000 123000 157000 229000 243000 373000 483000
2020-08-04 13:00 21.88 329000 955000 (1993) 64200 (1977) 195000 75900 87900 108000 123000 157000 229000 243000 373000 483000
2020-08-04 12:30 21.99 331000 955000 (1993) 64200 (1977) 195000 75900 87900 108000 123000 157000 229000 243000 373000 483000
2020-08-04 12:00 22.06 332000 955000 (1993) 64200 (1977) 195000 75900 87900 108000 123000 157000 229000 243000 373000 483000
2020-08-04 11:30 22.07 333000 955000 (1993) 64200 (1977) 195000 75900 87900 108000 123000 157000 229000 243000 373000 483000
2020-08-04 11:00 22.07 333000 955000 (1993) 64200 (1977) 195000 75900 87900 108000 123000 157000 229000 243000 373000 483000
2020-08-04 10:30 22.09 333000 955000 (1993) 64200 (1977) 195000 75900 87900 108000 123000 157000 229000 243000 373000 483000
2020-08-04 10:00 22.08 333000 955000 (1993) 64200 (1977) 195000 75900 87900 108000 123000 157000 229000 243000 373000 483000
2020-08-04 09:30 22.16 334000 955000 (1993) 64200 (1977) 195000 75900 87900 108000 123000 157000 229000 243000 373000 483000
2020-08-04 09:00 22.13 334000 955000 (1993) 64200 (1977) 195000 75900 87900 108000 123000 157000 229000 243000 373000 483000
2020-08-04 08:30 22.11 333000 955000 (1993) 64200 (1977) 195000 75900 87900 108000 123000 157000 229000 243000 373000 483000
2020-08-04 08:00 22.22 335000 955000 (1993) 64200 (1977) 195000 75900 87900 108000 123000 157000 229000 243000 373000 483000
2020-08-04 07:30 22.24 336000 955000 (1993) 64200 (1977) 195000 75900 87900 108000 123000 157000 229000 243000 373000 483000
2020-08-04 07:00 22.17 334000 955000 (1993) 64200 (1977) 195000 75900 87900 108000 123000 157000 229000 243000 373000 483000
2020-08-04 06:30 22.19 335000 955000 (1993) 64200 (1977) 195000 75900 87900 108000 123000 157000 229000 243000 373000 483000
2020-08-04 06:00 22.12 333000 955000 (1993) 64200 (1977) 195000 75900 87900 108000 123000 157000 229000 243000 373000 483000
2020-08-04 05:30 22.21 335000 955000 (1993) 64200 (1977) 195000 75900 87900 108000 123000 157000 229000 243000 373000 483000
2020-08-04 05:00 22.29 337000 955000 (1993) 64200 (1977) 195000 75900 87900 108000 123000 157000 229000 243000 373000 483000
2020-08-04 04:30 22.20 335000 955000 (1993) 64200 (1977) 195000 75900 87900 108000 123000 157000 229000 243000 373000 483000
2020-08-04 04:00 22.33 337000 955000 (1993) 64200 (1977) 195000 75900 87900 108000 123000 157000 229000 243000 373000 483000
2020-08-04 03:30 22.33 337000 955000 (1993) 64200 (1977) 195000 75900 87900 108000 123000 157000 229000 243000 373000 483000
2020-08-04 03:00 22.29 337000 955000 (1993) 64200 (1977) 195000 75900 87900 108000 123000 157000 229000 243000 373000 483000
2020-08-04 02:30 22.32 337000 955000 (1993) 64200 (1977) 195000 75900 87900 108000 123000 157000 229000 243000 373000 483000
2020-08-04 02:00 22.18 335000 955000 (1993) 64200 (1977) 195000 75900 87900 108000 123000 157000 229000 243000 373000 483000
2020-08-04 01:30 22.29 337000 955000 (1993) 64200 (1977) 195000 75900 87900 108000 123000 157000 229000 243000 373000 483000
2020-08-04 01:00 22.18 335000 955000 (1993) 64200 (1977) 195000 75900 87900 108000 123000 157000 229000 243000 373000 483000
2020-08-04 00:30 22.25 336000 955000 (1993) 64200 (1977) 195000 75900 87900 108000 123000 157000 229000 243000 373000 483000
2020-08-04 00:00 22.33 337000 955000 (1993) 64200 (1977) 195000 75900 87900 108000 123000 157000 229000 243000 373000 483000
2020-08-03 23:30 22.30 337000 938000 (1993) 64600 (1988) 200000 77900 89100 107000 126000 165000 238000 249000 399000 463000
2020-08-03 23:00 22.19 335000 938000 (1993) 64600 (1988) 200000 77900 89100 107000 126000 165000 238000 249000 399000 463000
2020-08-03 22:30 22.25 336000 938000 (1993) 64600 (1988) 200000 77900 89100 107000 126000 165000 238000 249000 399000 463000
2020-08-03 22:00 22.17 334000 938000 (1993) 64600 (1988) 200000 77900 89100 107000 126000 165000 238000 249000 399000 463000
2020-08-03 21:30 22.35 338000 938000 (1993) 64600 (1988) 200000 77900 89100 107000 126000 165000 238000 249000 399000 463000
2020-08-03 21:00 22.31 337000 938000 (1993) 64600 (1988) 200000 77900 89100 107000 126000 165000 238000 249000 399000 463000
2020-08-03 20:30 22.33 337000 938000 (1993) 64600 (1988) 200000 77900 89100 107000 126000 165000 238000 249000 399000 463000
2020-08-03 20:00 22.30 337000 938000 (1993) 64600 (1988) 200000 77900 89100 107000 126000 165000 238000 249000 399000 463000
2020-08-03 19:30 22.23 335000 938000 (1993) 64600 (1988) 200000 77900 89100 107000 126000 165000 238000 249000 399000 463000
2020-08-03 19:00 22.33 337000 938000 (1993) 64600 (1988) 200000 77900 89100 107000 126000 165000 238000 249000 399000 463000
2020-08-03 18:30 22.30 337000 938000 (1993) 64600 (1988) 200000 77900 89100 107000 126000 165000 238000 249000 399000 463000
2020-08-03 18:00 22.33 337000 938000 (1993) 64600 (1988) 200000 77900 89100 107000 126000 165000 238000 249000 399000 463000
2020-08-03 17:30 22.30 337000 938000 (1993) 64600 (1988) 200000 77900 89100 107000 126000 165000 238000 249000 399000 463000
2020-08-03 17:00 22.25 336000 938000 (1993) 64600 (1988) 200000 77900 89100 107000 126000 165000 238000 249000 399000 463000
2020-08-03 16:30 22.33 337000 938000 (1993) 64600 (1988) 200000 77900 89100 107000 126000 165000 238000 249000 399000 463000
2020-08-03 16:00 22.24 336000 938000 (1993) 64600 (1988) 200000 77900 89100 107000 126000 165000 238000 249000 399000 463000
2020-08-03 15:30 22.19 335000 938000 (1993) 64600 (1988) 200000 77900 89100 107000 126000 165000 238000 249000 399000 463000
2020-08-03 15:00 22.13 334000 938000 (1993) 64600 (1988) 200000 77900 89100 107000 126000 165000 238000 249000 399000 463000
2020-08-03 14:30 22.19 335000 938000 (1993) 64600 (1988) 200000 77900 89100 107000 126000 165000 238000 249000 399000 463000
2020-08-03 14:00 22.15 334000 938000 (1993) 64600 (1988) 200000 77900 89100 107000 126000 165000 238000 249000 399000 463000
2020-08-03 13:30 21.95 330000 938000 (1993) 64600 (1988) 200000 77900 89100 107000 126000 165000 238000 249000 399000 463000
2020-08-03 13:00 21.92 330000 938000 (1993) 64600 (1988) 200000 77900 89100 107000 126000 165000 238000 249000 399000 463000
2020-08-03 12:30 21.93 330000 938000 (1993) 64600 (1988) 200000 77900 89100 107000 126000 165000 238000 249000 399000 463000
2020-08-03 12:00 21.94 330000 938000 (1993) 64600 (1988) 200000 77900 89100 107000 126000 165000 238000 249000 399000 463000
2020-08-03 11:30 21.94 330000 938000 (1993) 64600 (1988) 200000 77900 89100 107000 126000 165000 238000 249000 399000 463000
2020-08-03 11:00 21.85 328000 938000 (1993) 64600 (1988) 200000 77900 89100 107000 126000 165000 238000 249000 399000 463000
2020-08-03 10:30 21.77 327000 938000 (1993) 64600 (1988) 200000 77900 89100 107000 126000 165000 238000 249000 399000 463000
2020-08-03 10:00 21.81 328000 938000 (1993) 64600 (1988) 200000 77900 89100 107000 126000 165000 238000 249000 399000 463000
2020-08-03 09:30 21.81 328000 938000 (1993) 64600 (1988) 200000 77900 89100 107000 126000 165000 238000 249000 399000 463000
2020-08-03 09:00 21.78 327000 938000 (1993) 64600 (1988) 200000 77900 89100 107000 126000 165000 238000 249000 399000 463000
2020-08-03 08:30 21.75 327000 938000 (1993) 64600 (1988) 200000 77900 89100 107000 126000 165000 238000 249000 399000 463000
2020-08-03 08:00 21.52 322000 938000 (1993) 64600 (1988) 200000 77900 89100 107000 126000 165000 238000 249000 399000 463000
2020-08-03 07:30 21.51 322000 938000 (1993) 64600 (1988) 200000 77900 89100 107000 126000 165000 238000 249000 399000 463000
2020-08-03 07:00 21.60 324000 938000 (1993) 64600 (1988) 200000 77900 89100 107000 126000 165000 238000 249000 399000 463000
2020-08-03 06:30 21.57 323000 938000 (1993) 64600 (1988) 200000 77900 89100 107000 126000 165000 238000 249000 399000 463000
2020-08-03 06:00 21.34 319000 938000 (1993) 64600 (1988) 200000 77900 89100 107000 126000 165000 238000 249000 399000 463000
2020-08-03 05:30 21.57 323000 938000 (1993) 64600 (1988) 200000 77900 89100 107000 126000 165000 238000 249000 399000 463000
2020-08-03 05:00 21.45 321000 938000 (1993) 64600 (1988) 200000 77900 89100 107000 126000 165000 238000 249000 399000 463000
2020-08-03 04:30 21.18 316000 938000 (1993) 64600 (1988) 200000 77900 89100 107000 126000 165000 238000 249000 399000 463000
2020-08-03 04:00 21.26 318000 938000 (1993) 64600 (1988) 200000 77900 89100 107000 126000 165000 238000 249000 399000 463000
2020-08-03 03:30 21.43 321000 938000 (1993) 64600 (1988) 200000 77900 89100 107000 126000 165000 238000 249000 399000 463000
2020-08-03 03:00 21.41 320000 938000 (1993) 64600 (1988) 200000 77900 89100 107000 126000 165000 238000 249000 399000 463000
2020-08-03 02:30 21.38 320000 938000 (1993) 64600 (1988) 200000 77900 89100 107000 126000 165000 238000 249000 399000 463000
2020-08-03 02:00 21.39 320000 938000 (1993) 64600 (1988) 200000 77900 89100 107000 126000 165000 238000 249000 399000 463000
2020-08-03 01:30 21.34 319000 938000 (1993) 64600 (1988) 200000 77900 89100 107000 126000 165000 238000 249000 399000 463000
2020-08-03 01:00 21.37 320000 938000 (1993) 64600 (1988) 200000 77900 89100 107000 126000 165000 238000 249000 399000 463000
2020-08-03 00:30 21.31 319000 938000 (1993) 64600 (1988) 200000 77900 89100 107000 126000 165000 238000 249000 399000 463000
2020-08-03 00:00 21.32 319000 938000 (1993) 64600 (1988) 200000 77900 89100 107000 126000 165000 238000 249000 399000 463000
2020-08-02 23:30 21.13 315000 947000 (1993) 63000 (1988) 205000 84100 90400 114000 124000 166000 238000 253000 412000 474000
2020-08-02 23:00 21.31 319000 947000 (1993) 63000 (1988) 205000 84100 90400 114000 124000 166000 238000 253000 412000 474000
2020-08-02 22:30 21.26 318000 947000 (1993) 63000 (1988) 205000 84100 90400 114000 124000 166000 238000 253000 412000 474000
2020-08-02 22:00 21.35 319000 947000 (1993) 63000 (1988) 205000 84100 90400 114000 124000 166000 238000 253000 412000 474000
2020-08-02 21:30 21.32 319000 947000 (1993) 63000 (1988) 205000 84100 90400 114000 124000 166000 238000 253000 412000 474000
2020-08-02 21:00 21.29 318000 947000 (1993) 63000 (1988) 205000 84100 90400 114000 124000 166000 238000 253000 412000 474000
2020-08-02 20:30 21.34 319000 947000 (1993) 63000 (1988) 205000 84100 90400 114000 124000 166000 238000 253000 412000 474000
2020-08-02 20:00 21.23 317000 947000 (1993) 63000 (1988) 205000 84100 90400 114000 124000 166000 238000 253000 412000 474000
2020-08-02 19:30 21.27 318000 947000 (1993) 63000 (1988) 205000 84100 90400 114000 124000 166000 238000 253000 412000 474000
2020-08-02 19:00 21.34 319000 947000 (1993) 63000 (1988) 205000 84100 90400 114000 124000 166000 238000 253000 412000 474000
2020-08-02 18:30 21.36 320000 947000 (1993) 63000 (1988) 205000 84100 90400 114000 124000 166000 238000 253000 412000 474000
2020-08-02 18:00 21.33 319000 947000 (1993) 63000 (1988) 205000 84100 90400 114000 124000 166000 238000 253000 412000 474000
2020-08-02 17:30 21.40 320000 947000 (1993) 63000 (1988) 205000 84100 90400 114000 124000 166000 238000 253000 412000 474000
2020-08-02 17:00 21.40 320000 947000 (1993) 63000 (1988) 205000 84100 90400 114000 124000 166000 238000 253000 412000 474000
2020-08-02 16:30 21.35 319000 947000 (1993) 63000 (1988) 205000 84100 90400 114000 124000 166000 238000 253000 412000 474000
2020-08-02 16:00 21.43 321000 947000 (1993) 63000 (1988) 205000 84100 90400 114000 124000 166000 238000 253000 412000 474000
2020-08-02 15:30 21.36 320000 947000 (1993) 63000 (1988) 205000 84100 90400 114000 124000 166000 238000 253000 412000 474000
2020-08-02 15:00 21.45 321000 947000 (1993) 63000 (1988) 205000 84100 90400 114000 124000 166000 238000 253000 412000 474000
2020-08-02 14:30 21.36 320000 947000 (1993) 63000 (1988) 205000 84100 90400 114000 124000 166000 238000 253000 412000 474000
2020-08-02 14:00 21.38 320000 947000 (1993) 63000 (1988) 205000 84100 90400 114000 124000 166000 238000 253000 412000 474000
2020-08-02 13:30 21.20 317000 947000 (1993) 63000 (1988) 205000 84100 90400 114000 124000 166000 238000 253000 412000 474000
2020-08-02 13:00 21.11 315000 947000 (1993) 63000 (1988) 205000 84100 90400 114000 124000 166000 238000 253000 412000 474000
2020-08-02 12:30 21.35 319000 947000 (1993) 63000 (1988) 205000 84100 90400 114000 124000 166000 238000 253000 412000 474000
2020-08-02 12:00 21.34 319000 947000 (1993) 63000 (1988) 205000 84100 90400 114000 124000 166000 238000 253000 412000 474000
2020-08-02 11:30 21.35 319000 947000 (1993) 63000 (1988) 205000 84100 90400 114000 124000 166000 238000 253000 412000 474000
2020-08-02 11:00 21.23 317000 947000 (1993) 63000 (1988) 205000 84100 90400 114000 124000 166000 238000 253000 412000 474000
2020-08-02 10:30 21.33 319000 947000 (1993) 63000 (1988) 205000 84100 90400 114000 124000 166000 238000 253000 412000 474000
2020-08-02 10:00 21.27 318000 947000 (1993) 63000 (1988) 205000 84100 90400 114000 124000 166000 238000 253000 412000 474000
2020-08-02 09:30 21.19 317000 947000 (1993) 63000 (1988) 205000 84100 90400 114000 124000 166000 238000 253000 412000 474000
2020-08-02 09:00 21.16 316000 947000 (1993) 63000 (1988) 205000 84100 90400 114000 124000 166000 238000 253000 412000 474000
2020-08-02 08:30 21.20 317000 947000 (1993) 63000 (1988) 205000 84100 90400 114000 124000 166000 238000 253000 412000 474000
2020-08-02 08:00 21.22 317000 947000 (1993) 63000 (1988) 205000 84100 90400 114000 124000 166000 238000 253000 412000 474000
2020-08-02 07:30 21.08 315000 947000 (1993) 63000 (1988) 205000 84100 90400 114000 124000 166000 238000 253000 412000 474000
2020-08-02 07:00 21.21 317000 947000 (1993) 63000 (1988) 205000 84100 90400 114000 124000 166000 238000 253000 412000 474000
2020-08-02 06:30 21.11 315000 947000 (1993) 63000 (1988) 205000 84100 90400 114000 124000 166000 238000 253000 412000 474000
2020-08-02 06:00 21.12 315000 947000 (1993) 63000 (1988) 205000 84100 90400 114000 124000 166000 238000 253000 412000 474000
2020-08-02 05:30 21.00 313000 947000 (1993) 63000 (1988) 205000 84100 90400 114000 124000 166000 238000 253000 412000 474000
2020-08-02 05:00 20.96 312000 947000 (1993) 63000 (1988) 205000 84100 90400 114000 124000 166000 238000 253000 412000 474000
2020-08-02 04:30 21.02 313000 947000 (1993) 63000 (1988) 205000 84100 90400 114000 124000 166000 238000 253000 412000 474000
2020-08-02 04:00 20.99 313000 947000 (1993) 63000 (1988) 205000 84100 90400 114000 124000 166000 238000 253000 412000 474000
2020-08-02 03:30 20.92 312000 947000 (1993) 63000 (1988) 205000 84100 90400 114000 124000 166000 238000 253000 412000 474000
2020-08-02 03:00 20.86 311000 947000 (1993) 63000 (1988) 205000 84100 90400 114000 124000 166000 238000 253000 412000 474000
2020-08-02 02:30 20.62 306000 947000 (1993) 63000 (1988) 205000 84100 90400 114000 124000 166000 238000 253000 412000 474000
2020-08-02 02:00 20.84 310000 947000 (1993) 63000 (1988) 205000 84100 90400 114000 124000 166000 238000 253000 412000 474000
2020-08-02 01:30 20.80 310000 947000 (1993) 63000 (1988) 205000 84100 90400 114000 124000 166000 238000 253000 412000 474000
2020-08-02 01:00 20.73 308000 947000 (1993) 63000 (1988) 205000 84100 90400 114000 124000 166000 238000 253000 412000 474000
2020-08-02 00:30 20.63 307000 947000 (1993) 63000 (1988) 205000 84100 90400 114000 124000 166000 238000 253000 412000 474000
2020-08-02 00:00 20.37 302000 947000 (1993) 63000 (1988) 205000 84100 90400 114000 124000 166000 238000 253000 412000 474000
2020-08-01 23:30 20.49 304000 950000 (1993) 63200 (1988) 209000 82100 91800 114000 131000 173000 237000 259000 417000 495000
2020-08-01 23:00 20.33 301000 950000 (1993) 63200 (1988) 209000 82100 91800 114000 131000 173000 237000 259000 417000 495000
2020-08-01 22:30 20.45 303000 950000 (1993) 63200 (1988) 209000 82100 91800 114000 131000 173000 237000 259000 417000 495000
2020-08-01 22:00 20.26 300000 950000 (1993) 63200 (1988) 209000 82100 91800 114000 131000 173000 237000 259000 417000 495000
2020-08-01 21:30 20.17 299000 950000 (1993) 63200 (1988) 209000 82100 91800 114000 131000 173000 237000 259000 417000 495000
2020-08-01 21:00 20.02 296000 950000 (1993) 63200 (1988) 209000 82100 91800 114000 131000 173000 237000 259000 417000 495000
2020-08-01 20:30 20.11 298000 950000 (1993) 63200 (1988) 209000 82100 91800 114000 131000 173000 237000 259000 417000 495000
2020-08-01 20:00 20.07 297000 950000 (1993) 63200 (1988) 209000 82100 91800 114000 131000 173000 237000 259000 417000 495000
2020-08-01 19:30 19.79 292000 950000 (1993) 63200 (1988) 209000 82100 91800 114000 131000 173000 237000 259000 417000 495000
2020-08-01 19:00 19.78 292000 950000 (1993) 63200 (1988) 209000 82100 91800 114000 131000 173000 237000 259000 417000 495000
2020-08-01 18:30 19.59 289000 950000 (1993) 63200 (1988) 209000 82100 91800 114000 131000 173000 237000 259000 417000 495000
2020-08-01 18:00 19.65 290000 950000 (1993) 63200 (1988) 209000 82100 91800 114000 131000 173000 237000 259000 417000 495000
2020-08-01 17:30 19.40 285000 950000 (1993) 63200 (1988) 209000 82100 91800 114000 131000 173000 237000 259000 417000 495000
2020-08-01 17:00 19.36 285000 950000 (1993) 63200 (1988) 209000 82100 91800 114000 131000 173000 237000 259000 417000 495000
2020-08-01 16:30 19.21 282000 950000 (1993) 63200 (1988) 209000 82100 91800 114000 131000 173000 237000 259000 417000 495000
2020-08-01 16:00 19.19 282000 950000 (1993) 63200 (1988) 209000 82100 91800 114000 131000 173000 237000 259000 417000 495000
2020-08-01 15:30 19.17 282000 950000 (1993) 63200 (1988) 209000 82100 91800 114000 131000 173000 237000 259000 417000 495000
2020-08-01 15:00 19.08 280000 950000 (1993) 63200 (1988) 209000 82100 91800 114000 131000 173000 237000 259000 417000 495000
2020-08-01 14:30 18.84 276000 950000 (1993) 63200 (1988) 209000 82100 91800 114000 131000 173000 237000 259000 417000 495000
2020-08-01 14:00 18.76 275000 950000 (1993) 63200 (1988) 209000 82100 91800 114000 131000 173000 237000 259000 417000 495000
2020-08-01 13:30 18.66 273000 950000 (1993) 63200 (1988) 209000 82100 91800 114000 131000 173000 237000 259000 417000 495000
2020-08-01 13:00 18.65 273000 950000 (1993) 63200 (1988) 209000 82100 91800 114000 131000 173000 237000 259000 417000 495000
2020-08-01 12:30 18.51 271000 950000 (1993) 63200 (1988) 209000 82100 91800 114000 131000 173000 237000 259000 417000 495000
2020-08-01 12:00 18.50 271000 950000 (1993) 63200 (1988) 209000 82100 91800 114000 131000 173000 237000 259000 417000 495000
2020-08-01 11:30 18.36 268000 950000 (1993) 63200 (1988) 209000 82100 91800 114000 131000 173000 237000 259000 417000 495000
2020-08-01 11:00 18.31 268000 950000 (1993) 63200 (1988) 209000 82100 91800 114000 131000 173000 237000 259000 417000 495000
2020-08-01 10:30 18.07 264000 950000 (1993) 63200 (1988) 209000 82100 91800 114000 131000 173000 237000 259000 417000 495000
2020-08-01 10:00 18.03 263000 950000 (1993) 63200 (1988) 209000 82100 91800 114000 131000 173000 237000 259000 417000 495000
2020-08-01 09:30 18.00 263000 950000 (1993) 63200 (1988) 209000 82100 91800 114000 131000 173000 237000 259000 417000 495000
2020-08-01 09:00 17.95 262000 950000 (1993) 63200 (1988) 209000 82100 91800 114000 131000 173000 237000 259000 417000 495000
2020-08-01 08:30 17.78 259000 950000 (1993) 63200 (1988) 209000 82100 91800 114000 131000 173000 237000 259000 417000 495000
2020-08-01 08:00 17.73 258000 950000 (1993) 63200 (1988) 209000 82100 91800 114000 131000 173000 237000 259000 417000 495000
2020-08-01 07:30 17.76 259000 950000 (1993) 63200 (1988) 209000 82100 91800 114000 131000 173000 237000 259000 417000 495000
2020-08-01 07:00 17.49 255000 950000 (1993) 63200 (1988) 209000 82100 91800 114000 131000 173000 237000 259000 417000 495000
2020-08-01 06:30 17.47 254000 950000 (1993) 63200 (1988) 209000 82100 91800 114000 131000 173000 237000 259000 417000 495000
2020-08-01 06:00 17.66 257000 950000 (1993) 63200 (1988) 209000 82100 91800 114000 131000 173000 237000 259000 417000 495000
2020-08-01 05:30 17.66 257000 950000 (1993) 63200 (1988) 209000 82100 91800 114000 131000 173000 237000 259000 417000 495000
2020-08-01 05:00 17.60 256000 950000 (1993) 63200 (1988) 209000 82100 91800 114000 131000 173000 237000 259000 417000 495000
2020-08-01 04:30 17.55 256000 950000 (1993) 63200 (1988) 209000 82100 91800 114000 131000 173000 237000 259000 417000 495000
2020-08-01 04:00 17.51 255000 950000 (1993) 63200 (1988) 209000 82100 91800 114000 131000 173000 237000 259000 417000 495000
2020-08-01 03:30 17.53 255000 950000 (1993) 63200 (1988) 209000 82100 91800 114000 131000 173000 237000 259000 417000 495000
2020-08-01 03:00 17.15 249000 950000 (1993) 63200 (1988) 209000 82100 91800 114000 131000 173000 237000 259000 417000 495000
2020-08-01 02:30 17.43 254000 950000 (1993) 63200 (1988) 209000 82100 91800 114000 131000 173000 237000 259000 417000 495000
2020-08-01 02:00 17.26 251000 950000 (1993) 63200 (1988) 209000 82100 91800 114000 131000 173000 237000 259000 417000 495000
2020-08-01 01:30 17.42 253000 950000 (1993) 63200 (1988) 209000 82100 91800 114000 131000 173000 237000 259000 417000 495000
2020-08-01 01:00 17.17 250000 950000 (1993) 63200 (1988) 209000 82100 91800 114000 131000 173000 237000 259000 417000 495000
2020-08-01 00:30 17.35 252000 950000 (1993) 63200 (1988) 209000 82100 91800 114000 131000 173000 237000 259000 417000 495000
2020-08-01 00:00 17.28 251000 950000 (1993) 63200 (1988) 209000 82100 91800 114000 131000 173000 237000 259000 417000 495000
2020-07-31 23:30 17.30 252000 930000 (1993) 65900 (1988) 212000 86900 92500 113000 128000 180000 241000 263000 418000 501000
2020-07-31 23:00 17.24 251000 930000 (1993) 65900 (1988) 212000 86900 92500 113000 128000 180000 241000 263000 418000 501000
2020-07-31 22:30 17.20 250000 930000 (1993) 65900 (1988) 212000 86900 92500 113000 128000 180000 241000 263000 418000 501000
2020-07-31 22:00 17.21 250000 930000 (1993) 65900 (1988) 212000 86900 92500 113000 128000 180000 241000 263000 418000 501000
2020-07-31 21:30 17.21 250000 930000 (1993) 65900 (1988) 212000 86900 92500 113000 128000 180000 241000 263000 418000 501000
2020-07-31 21:00 17.19 250000 930000 (1993) 65900 (1988) 212000 86900 92500 113000 128000 180000 241000 263000 418000 501000
2020-07-31 20:30 17.17 250000 930000 (1993) 65900 (1988) 212000 86900 92500 113000 128000 180000 241000 263000 418000 501000
2020-07-31 20:00 17.14 249000 930000 (1993) 65900 (1988) 212000 86900 92500 113000 128000 180000 241000 263000 418000 501000
2020-07-31 19:30 17.06 248000 930000 (1993) 65900 (1988) 212000 86900 92500 113000 128000 180000 241000 263000 418000 501000
2020-07-31 19:00 16.94 246000 930000 (1993) 65900 (1988) 212000 86900 92500 113000 128000 180000 241000 263000 418000 501000
2020-07-31 18:30 17.10 249000 930000 (1993) 65900 (1988) 212000 86900 92500 113000 128000 180000 241000 263000 418000 501000
2020-07-31 18:00 16.93 246000 930000 (1993) 65900 (1988) 212000 86900 92500 113000 128000 180000 241000 263000 418000 501000
2020-07-31 17:30 17.10 249000 930000 (1993) 65900 (1988) 212000 86900 92500 113000 128000 180000 241000 263000 418000 501000
2020-07-31 17:00 17.05 248000 930000 (1993) 65900 (1988) 212000 86900 92500 113000 128000 180000 241000 263000 418000 501000
2020-07-31 16:30 17.03 247000 930000 (1993) 65900 (1988) 212000 86900 92500 113000 128000 180000 241000 263000 418000 501000
2020-07-31 16:00 16.97 247000 930000 (1993) 65900 (1988) 212000 86900 92500 113000 128000 180000 241000 263000 418000 501000
2020-07-31 15:30 16.99 247000 930000 (1993) 65900 (1988) 212000 86900 92500 113000 128000 180000 241000 263000 418000 501000
2020-07-31 15:00 16.96 246000 930000 (1993) 65900 (1988) 212000 86900 92500 113000 128000 180000 241000 263000 418000 501000
2020-07-31 14:30 16.84 245000 930000 (1993) 65900 (1988) 212000 86900 92500 113000 128000 180000 241000 263000 418000 501000
2020-07-31 14:00 16.68 242000 930000 (1993) 65900 (1988) 212000 86900 92500 113000 128000 180000 241000 263000 418000 501000
2020-07-31 13:30 16.85 245000 930000 (1993) 65900 (1988) 212000 86900 92500 113000 128000 180000 241000 263000 418000 501000
2020-07-31 13:00 16.74 243000 930000 (1993) 65900 (1988) 212000 86900 92500 113000 128000 180000 241000 263000 418000 501000
2020-07-31 12:30 16.84 245000 930000 (1993) 65900 (1988) 212000 86900 92500 113000 128000 180000 241000 263000 418000 501000
2020-07-31 12:00 16.78 244000 930000 (1993) 65900 (1988) 212000 86900 92500 113000 128000 180000 241000 263000 418000 501000
2020-07-31 11:30 16.73 243000 930000 (1993) 65900 (1988) 212000 86900 92500 113000 128000 180000 241000 263000 418000 501000
2020-07-31 11:00 16.72 243000 930000 (1993) 65900 (1988) 212000 86900 92500 113000 128000 180000 241000 263000 418000 501000
2020-07-31 10:30 16.72 243000 930000 (1993) 65900 (1988) 212000 86900 92500 113000 128000 180000 241000 263000 418000 501000
2020-07-31 10:00 16.63 241000 930000 (1993) 65900 (1988) 212000 86900 92500 113000 128000 180000 241000 263000 418000 501000
2020-07-31 09:30 16.62 241000 930000 (1993) 65900 (1988) 212000 86900 92500 113000 128000 180000 241000 263000 418000 501000
2020-07-31 09:00 16.55 240000 930000 (1993) 65900 (1988) 212000 86900 92500 113000 128000 180000 241000 263000 418000 501000
2020-07-31 08:30 16.53 240000 930000 (1993) 65900 (1988) 212000 86900 92500 113000 128000 180000 241000 263000 418000 501000
2020-07-31 08:00 16.48 239000 930000 (1993) 65900 (1988) 212000 86900 92500 113000 128000 180000 241000 263000 418000 501000
2020-07-31 07:30 16.47 239000 930000 (1993) 65900 (1988) 212000 86900 92500 113000 128000 180000 241000 263000 418000 501000
2020-07-31 07:00 16.40 238000 930000 (1993) 65900 (1988) 212000 86900 92500 113000 128000 180000 241000 263000 418000 501000
2020-07-31 06:30 16.20 235000 930000 (1993) 65900 (1988) 212000 86900 92500 113000 128000 180000 241000 263000 418000 501000
2020-07-31 06:00 16.35 237000 930000 (1993) 65900 (1988) 212000 86900 92500 113000 128000 180000 241000 263000 418000 501000
2020-07-31 05:30 16.23 235000 930000 (1993) 65900 (1988) 212000 86900 92500 113000 128000 180000 241000 263000 418000 501000
2020-07-31 05:00 16.31 237000 930000 (1993) 65900 (1988) 212000 86900 92500 113000 128000 180000 241000 263000 418000 501000
2020-07-31 04:30 16.20 235000 930000 (1993) 65900 (1988) 212000 86900 92500 113000 128000 180000 241000 263000 418000 501000
2020-07-31 04:00 16.10 233000 930000 (1993) 65900 (1988) 212000 86900 92500 113000 128000 180000 241000 263000 418000 501000
2020-07-31 03:30 16.06 233000 930000 (1993) 65900 (1988) 212000 86900 92500 113000 128000 180000 241000 263000 418000 501000
2020-07-31 03:00 16.05 233000 930000 (1993) 65900 (1988) 212000 86900 92500 113000 128000 180000 241000 263000 418000 501000
2020-07-31 02:30 16.00 232000 930000 (1993) 65900 (1988) 212000 86900 92500 113000 128000 180000 241000 263000 418000 501000
2020-07-31 02:00 16.05 233000 930000 (1993) 65900 (1988) 212000 86900 92500 113000 128000 180000 241000 263000 418000 501000
2020-07-31 01:30 15.90 231000 930000 (1993) 65900 (1988) 212000 86900 92500 113000 128000 180000 241000 263000 418000 501000
2020-07-31 01:00 15.89 230000 930000 (1993) 65900 (1988) 212000 86900 92500 113000 128000 180000 241000 263000 418000 501000
2020-07-31 00:30 15.84 230000 930000 (1993) 65900 (1988) 212000 86900 92500 113000 128000 180000 241000 263000 418000 501000
2020-07-31 00:00 15.74 228000 930000 (1993) 65900 (1988) 212000 86900 92500 113000 128000 180000 241000 263000 418000 501000
2020-07-30 23:30 15.72 228000 911000 (1993) 65300 (1988) 215000 89300 94300 117000 125000 183000 249000 274000 416000 487000
2020-07-30 23:00 15.74 228000 911000 (1993) 65300 (1988) 215000 89300 94300 117000 125000 183000 249000 274000 416000 487000
2020-07-30 22:30 15.60 226000 911000 (1993) 65300 (1988) 215000 89300 94300 117000 125000 183000 249000 274000 416000 487000
2020-07-30 22:00 15.58 226000 911000 (1993) 65300 (1988) 215000 89300 94300 117000 125000 183000 249000 274000 416000 487000
2020-07-30 21:30 15.55 225000 911000 (1993) 65300 (1988) 215000 89300 94300 117000 125000 183000 249000 274000 416000 487000
2020-07-30 21:00 15.48 224000 911000 (1993) 65300 (1988) 215000 89300 94300 117000 125000 183000 249000 274000 416000 487000
2020-07-30 20:30 15.46 224000 911000 (1993) 65300 (1988) 215000 89300 94300 117000 125000 183000 249000 274000 416000 487000
2020-07-30 20:00 15.56 226000 911000 (1993) 65300 (1988) 215000 89300 94300 117000 125000 183000 249000 274000 416000 487000
2020-07-30 19:30 15.48 224000 911000 (1993) 65300 (1988) 215000 89300 94300 117000 125000 183000 249000 274000 416000 487000
2020-07-30 19:00 15.44 224000 911000 (1993) 65300 (1988) 215000 89300 94300 117000 125000 183000 249000 274000 416000 487000
2020-07-30 18:30 15.44 224000 911000 (1993) 65300 (1988) 215000 89300 94300 117000 125000 183000 249000 274000 416000 487000
2020-07-30 18:00 15.35 223000 911000 (1993) 65300 (1988) 215000 89300 94300 117000 125000 183000 249000 274000 416000 487000
2020-07-30 17:30 15.29 222000 911000 (1993) 65300 (1988) 215000 89300 94300 117000 125000 183000 249000 274000 416000 487000
2020-07-30 17:00 15.27 221000 911000 (1993) 65300 (1988) 215000 89300 94300 117000 125000 183000 249000 274000 416000 487000
2020-07-30 16:30 15.26 221000 911000 (1993) 65300 (1988) 215000 89300 94300 117000 125000 183000 249000 274000 416000 487000
2020-07-30 16:00 15.17 220000 911000 (1993) 65300 (1988) 215000 89300 94300 117000 125000 183000 249000 274000 416000 487000
2020-07-30 15:30 15.00 218000 911000 (1993) 65300 (1988) 215000 89300 94300 117000 125000 183000 249000 274000 416000 487000
2020-07-30 15:00 15.00 218000 911000 (1993) 65300 (1988) 215000 89300 94300 117000 125000 183000 249000 274000 416000 487000
2020-07-30 14:30 15.01 218000 911000 (1993) 65300 (1988) 215000 89300 94300 117000 125000 183000 249000 274000 416000 487000
2020-07-30 14:00 14.95 217000 911000 (1993) 65300 (1988) 215000 89300 94300 117000 125000 183000 249000 274000 416000 487000
2020-07-30 13:30 14.89 216000 911000 (1993) 65300 (1988) 215000 89300 94300 117000 125000 183000 249000 274000 416000 487000
2020-07-30 13:00 14.93 217000 911000 (1993) 65300 (1988) 215000 89300 94300 117000 125000 183000 249000 274000 416000 487000
2020-07-30 12:30 14.83 215000 911000 (1993) 65300 (1988) 215000 89300 94300 117000 125000 183000 249000 274000 416000 487000
2020-07-30 12:00 14.87 216000 911000 (1993) 65300 (1988) 215000 89300 94300 117000 125000 183000 249000 274000 416000 487000
2020-07-30 11:30 14.77 214000 911000 (1993) 65300 (1988) 215000 89300 94300 117000 125000 183000 249000 274000 416000 487000
2020-07-30 11:00 14.85 215000 911000 (1993) 65300 (1988) 215000 89300 94300 117000 125000 183000 249000 274000 416000 487000
2020-07-30 10:30 14.80 215000 911000 (1993) 65300 (1988) 215000 89300 94300 117000 125000 183000 249000 274000 416000 487000
2020-07-30 10:00 14.77 214000 911000 (1993) 65300 (1988) 215000 89300 94300 117000 125000 183000 249000 274000 416000 487000
2020-07-30 09:30 14.77 214000 911000 (1993) 65300 (1988) 215000 89300 94300 117000 125000 183000 249000 274000 416000 487000
2020-07-30 09:00 14.79 215000 911000 (1993) 65300 (1988) 215000 89300 94300 117000 125000 183000 249000 274000 416000 487000
2020-07-30 08:30 14.80 215000 911000 (1993) 65300 (1988) 215000 89300 94300 117000 125000 183000 249000 274000 416000 487000
2020-07-30 08:00 14.85 215000 911000 (1993) 65300 (1988) 215000 89300 94300 117000 125000 183000 249000 274000 416000 487000
2020-07-30 07:30 14.77 214000 911000 (1993) 65300 (1988) 215000 89300 94300 117000 125000 183000 249000 274000 416000 487000
2020-07-30 07:00 14.83 215000 911000 (1993) 65300 (1988) 215000 89300 94300 117000 125000 183000 249000 274000 416000 487000
2020-07-30 06:30 14.85 215000 911000 (1993) 65300 (1988) 215000 89300 94300 117000 125000 183000 249000 274000 416000 487000
2020-07-30 06:00 14.91 216000 911000 (1993) 65300 (1988) 215000 89300 94300 117000 125000 183000 249000 274000 416000 487000
2020-07-30 05:30 14.85 215000 911000 (1993) 65300 (1988) 215000 89300 94300 117000 125000 183000 249000 274000 416000 487000
2020-07-30 05:00 14.92 216000 911000 (1993) 65300 (1988) 215000 89300 94300 117000 125000 183000 249000 274000 416000 487000
2020-07-30 04:30 14.92 216000 911000 (1993) 65300 (1988) 215000 89300 94300 117000 125000 183000 249000 274000 416000 487000
2020-07-30 04:00 14.90 216000 911000 (1993) 65300 (1988) 215000 89300 94300 117000 125000 183000 249000 274000 416000 487000
2020-07-30 03:30 14.89 216000 911000 (1993) 65300 (1988) 215000 89300 94300 117000 125000 183000 249000 274000 416000 487000
2020-07-30 03:00 14.86 216000 911000 (1993) 65300 (1988) 215000 89300 94300 117000 125000 183000 249000 274000 416000 487000
2020-07-30 02:30 14.84 215000 911000 (1993) 65300 (1988) 215000 89300 94300 117000 125000 183000 249000 274000 416000 487000
2020-07-30 02:00 14.82 215000 911000 (1993) 65300 (1988) 215000 89300 94300 117000 125000 183000 249000 274000 416000 487000
2020-07-30 01:30 14.90 216000 911000 (1993) 65300 (1988) 215000 89300 94300 117000 125000 183000 249000 274000 416000 487000
2020-07-30 01:00 14.98 217000 911000 (1993) 65300 (1988) 215000 89300 94300 117000 125000 183000 249000 274000 416000 487000
2020-07-30 00:30 14.98 217000 911000 (1993) 65300 (1988) 215000 89300 94300 117000 125000 183000 249000 274000 416000 487000
2020-07-30 00:00 14.89 216000 911000 (1993) 65300 (1988) 215000 89300 94300 117000 125000 183000 249000 274000 416000 487000
2020-07-29 23:30 15.04 218000 906000 (1993) 68800 (1988) 218000 85500 93500 109000 129000 183000 264000 280000 412000 465000
2020-07-29 23:00 14.96 217000 906000 (1993) 68800 (1988) 218000 85500 93500 109000 129000 183000 264000 280000 412000 465000
2020-07-29 22:30 14.90 216000 906000 (1993) 68800 (1988) 218000 85500 93500 109000 129000 183000 264000 280000 412000 465000
2020-07-29 22:00 15.05 218000 906000 (1993) 68800 (1988) 218000 85500 93500 109000 129000 183000 264000 280000 412000 465000
2020-07-29 21:30 15.10 219000 906000 (1993) 68800 (1988) 218000 85500 93500 109000 129000 183000 264000 280000 412000 465000
2020-07-29 21:00 14.98 217000 906000 (1993) 68800 (1988) 218000 85500 93500 109000 129000 183000 264000 280000 412000 465000
2020-07-29 20:30 15.01 218000 906000 (1993) 68800 (1988) 218000 85500 93500 109000 129000 183000 264000 280000 412000 465000
2020-07-29 20:00 14.98 217000 906000 (1993) 68800 (1988) 218000 85500 93500 109000 129000 183000 264000 280000 412000 465000
2020-07-29 19:30 15.02 218000 906000 (1993) 68800 (1988) 218000 85500 93500 109000 129000 183000 264000 280000 412000 465000
2020-07-29 19:00 15.04 218000 906000 (1993) 68800 (1988) 218000 85500 93500 109000 129000 183000 264000 280000 412000 465000
2020-07-29 18:30 15.06 218000 906000 (1993) 68800 (1988) 218000 85500 93500 109000 129000 183000 264000 280000 412000 465000
2020-07-29 18:00 15.13 219000 906000 (1993) 68800 (1988) 218000 85500 93500 109000 129000 183000 264000 280000 412000 465000
2020-07-29 17:30 15.15 220000 906000 (1993) 68800 (1988) 218000 85500 93500 109000 129000 183000 264000 280000 412000 465000
2020-07-29 17:00 15.04 218000 906000 (1993) 68800 (1988) 218000 85500 93500 109000 129000 183000 264000 280000 412000 465000
2020-07-29 16:30 15.12 219000 906000 (1993) 68800 (1988) 218000 85500 93500 109000 129000 183000 264000 280000 412000 465000
2020-07-29 16:00 14.96 217000 906000 (1993) 68800 (1988) 218000 85500 93500 109000 129000 183000 264000 280000 412000 465000
2020-07-29 15:30 15.22 221000 906000 (1993) 68800 (1988) 218000 85500 93500 109000 129000 183000 264000 280000 412000 465000
2020-07-29 15:00 15.15 220000 906000 (1993) 68800 (1988) 218000 85500 93500 109000 129000 183000 264000 280000 412000 465000
2020-07-29 14:30 15.23 221000 906000 (1993) 68800 (1988) 218000 85500 93500 109000 129000 183000 264000 280000 412000 465000
2020-07-29 14:00 15.35 223000 906000 (1993) 68800 (1988) 218000 85500 93500 109000 129000 183000 264000 280000 412000 465000
2020-07-29 13:30 15.25 221000 906000 (1993) 68800 (1988) 218000 85500 93500 109000 129000 183000 264000 280000 412000 465000
2020-07-29 13:00 15.21 221000 906000 (1993) 68800 (1988) 218000 85500 93500 109000 129000 183000 264000 280000 412000 465000
2020-07-29 12:30 15.27 221000 906000 (1993) 68800 (1988) 218000 85500 93500 109000 129000 183000 264000 280000 412000 465000
2020-07-29 12:00 15.23 221000 906000 (1993) 68800 (1988) 218000 85500 93500 109000 129000 183000 264000 280000 412000 465000
2020-07-29 11:30 15.29 222000 906000 (1993) 68800 (1988) 218000 85500 93500 109000 129000 183000 264000 280000 412000 465000
2020-07-29 11:00 15.31 222000 906000 (1993) 68800 (1988) 218000 85500 93500 109000 129000 183000 264000 280000 412000 465000
2020-07-29 10:30 15.34 222000 906000 (1993) 68800 (1988) 218000 85500 93500 109000 129000 183000 264000 280000 412000 465000
2020-07-29 10:00 15.33 222000 906000 (1993) 68800 (1988) 218000 85500 93500 109000 129000 183000 264000 280000 412000 465000
2020-07-29 09:30 15.36 223000 906000 (1993) 68800 (1988) 218000 85500 93500 109000 129000 183000 264000 280000 412000 465000
2020-07-29 09:00 15.37 223000 906000 (1993) 68800 (1988) 218000 85500 93500 109000 129000 183000 264000 280000 412000 465000
2020-07-29 08:30 15.34 222000 906000 (1993) 68800 (1988) 218000 85500 93500 109000 129000 183000 264000 280000 412000 465000
2020-07-29 08:00 15.43 224000 906000 (1993) 68800 (1988) 218000 85500 93500 109000 129000 183000 264000 280000 412000 465000
2020-07-29 07:30 15.42 224000 906000 (1993) 68800 (1988) 218000 85500 93500 109000 129000 183000 264000 280000 412000 465000
2020-07-29 07:00 15.39 223000 906000 (1993) 68800 (1988) 218000 85500 93500 109000 129000 183000 264000 280000 412000 465000
2020-07-29 06:30 15.48 224000 906000 (1993) 68800 (1988) 218000 85500 93500 109000 129000 183000 264000 280000 412000 465000
2020-07-29 06:00 15.54 225000 906000 (1993) 68800 (1988) 218000 85500 93500 109000 129000 183000 264000 280000 412000 465000
2020-07-29 05:30 15.12 219000 906000 (1993) 68800 (1988) 218000 85500 93500 109000 129000 183000 264000 280000 412000 465000
2020-07-29 05:00 15.58 226000 906000 (1993) 68800 (1988) 218000 85500 93500 109000 129000 183000 264000 280000 412000 465000
2020-07-29 04:30 15.59 226000 906000 (1993) 68800 (1988) 218000 85500 93500 109000 129000 183000 264000 280000 412000 465000
2020-07-29 04:00 15.39 223000 906000 (1993) 68800 (1988) 218000 85500 93500 109000 129000 183000 264000 280000 412000 465000
2020-07-29 03:30 15.58 226000 906000 (1993) 68800 (1988) 218000 85500 93500 109000 129000 183000 264000 280000 412000 465000
2020-07-29 03:00 15.68 227000 906000 (1993) 68800 (1988) 218000 85500 93500 109000 129000 183000 264000 280000 412000 465000
2020-07-29 02:30 15.65 227000 906000 (1993) 68800 (1988) 218000 85500 93500 109000 129000 183000 264000 280000 412000 465000
2020-07-29 02:00 15.72 228000 906000 (1993) 68800 (1988) 218000 85500 93500 109000 129000 183000 264000 280000 412000 465000
2020-07-29 01:30 15.70 228000 906000 (1993) 68800 (1988) 218000 85500 93500 109000 129000 183000 264000 280000 412000 465000
2020-07-29 01:00 15.74 228000 906000 (1993) 68800 (1988) 218000 85500 93500 109000 129000 183000 264000 280000 412000 465000
2020-07-29 00:30 15.74 228000 906000 (1993) 68800 (1988) 218000 85500 93500 109000 129000 183000 264000 280000 412000 465000
2020-07-29 00:00 15.76 228000 906000 (1993) 68800 (1988) 218000 85500 93500 109000 129000 183000 264000 280000 412000 465000
2020-07-28 23:30 15.83 230000 911000 (1993) 73700 (1988) 220000 86100 96700 107000 132000 185000 263000 285000 420000 452000
2020-07-28 23:00 15.77 229000 911000 (1993) 73700 (1988) 220000 86100 96700 107000 132000 185000 263000 285000 420000 452000
2020-07-28 22:30 15.83 230000 911000 (1993) 73700 (1988) 220000 86100 96700 107000 132000 185000 263000 285000 420000 452000
2020-07-28 22:00 15.88 230000 911000 (1993) 73700 (1988) 220000 86100 96700 107000 132000 185000 263000 285000 420000 452000
2020-07-28 21:30 15.87 230000 911000 (1993) 73700 (1988) 220000 86100 96700 107000 132000 185000 263000 285000 420000 452000
2020-07-28 21:00 15.94 231000 911000 (1993) 73700 (1988) 220000 86100 96700 107000 132000 185000 263000 285000 420000 452000
2020-07-28 20:30 15.97 232000 911000 (1993) 73700 (1988) 220000 86100 96700 107000 132000 185000 263000 285000 420000 452000
2020-07-28 20:00 16.00 232000 911000 (1993) 73700 (1988) 220000 86100 96700 107000 132000 185000 263000 285000 420000 452000
2020-07-28 19:30 16.01 232000 911000 (1993) 73700 (1988) 220000 86100 96700 107000 132000 185000 263000 285000 420000 452000
2020-07-28 19:00 15.99 232000 911000 (1993) 73700 (1988) 220000 86100 96700 107000 132000 185000 263000 285000 420000 452000
2020-07-28 18:30 15.99 232000 911000 (1993) 73700 (1988) 220000 86100 96700 107000 132000 185000 263000 285000 420000 452000
2020-07-28 18:00 16.03 232000 911000 (1993) 73700 (1988) 220000 86100 96700 107000 132000 185000 263000 285000 420000 452000
2020-07-28 17:30 16.06 233000 911000 (1993) 73700 (1988) 220000 86100 96700 107000 132000 185000 263000 285000 420000 452000
2020-07-28 17:00 15.99 232000 911000 (1993) 73700 (1988) 220000 86100 96700 107000 132000 185000 263000 285000 420000 452000
2020-07-28 16:30 16.06 233000 911000 (1993) 73700 (1988) 220000 86100 96700 107000 132000 185000 263000 285000 420000 452000
2020-07-28 16:00 16.02 232000 911000 (1993) 73700 (1988) 220000 86100 96700 107000 132000 185000 263000 285000 420000 452000
2020-07-28 15:30 16.04 233000 911000 (1993) 73700 (1988) 220000 86100 96700 107000 132000 185000 263000 285000 420000 452000
2020-07-28 15:00 16.04 233000 911000 (1993) 73700 (1988) 220000 86100 96700 107000 132000 185000 263000 285000 420000 452000
2020-07-28 14:30 16.07 233000 911000 (1993) 73700 (1988) 220000 86100 96700 107000 132000 185000 263000 285000 420000 452000
2020-07-28 14:00 16.01 232000 911000 (1993) 73700 (1988) 220000 86100 96700 107000 132000 185000 263000 285000 420000 452000
2020-07-28 13:30 16.05 233000 911000 (1993) 73700 (1988) 220000 86100 96700 107000 132000 185000 263000 285000 420000 452000
2020-07-28 13:00 16.06 233000 911000 (1993) 73700 (1988) 220000 86100 96700 107000 132000 185000 263000 285000 420000 452000
2020-07-28 12:30 16.00 232000 911000 (1993) 73700 (1988) 220000 86100 96700 107000 132000 185000 263000 285000 420000 452000
2020-07-28 12:00 16.01 232000 911000 (1993) 73700 (1988) 220000 86100 96700 107000 132000 185000 263000 285000 420000 452000
2020-07-28 11:30 16.09 233000 911000 (1993) 73700 (1988) 220000 86100 96700 107000 132000 185000 263000 285000 420000 452000
2020-07-28 11:00 16.10 233000 911000 (1993) 73700 (1988) 220000 86100 96700 107000 132000 185000 263000 285000 420000 452000
2020-07-28 10:30 16.07 233000 911000 (1993) 73700 (1988) 220000 86100 96700 107000 132000 185000 263000 285000 420000 452000
2020-07-28 10:00 16.10 233000 911000 (1993) 73700 (1988) 220000 86100 96700 107000 132000 185000 263000 285000 420000 452000
2020-07-28 09:30 16.08 233000 911000 (1993) 73700 (1988) 220000 86100 96700 107000 132000 185000 263000 285000 420000 452000
2020-07-28 09:00 16.11 234000 911000 (1993) 73700 (1988) 220000 86100 96700 107000 132000 185000 263000 285000 420000 452000
2020-07-28 08:30 16.13 234000 911000 (1993) 73700 (1988) 220000 86100 96700 107000 132000 185000 263000 285000 420000 452000
2020-07-28 08:00 16.06 233000 911000 (1993) 73700 (1988) 220000 86100 96700 107000 132000 185000 263000 285000 420000 452000
2020-07-28 07:30 16.11 234000 911000 (1993) 73700 (1988) 220000 86100 96700 107000 132000 185000 263000 285000 420000 452000
2020-07-28 07:00 16.14 234000 911000 (1993) 73700 (1988) 220000 86100 96700 107000 132000 185000 263000 285000 420000 452000
2020-07-28 06:30 16.21 235000 911000 (1993) 73700 (1988) 220000 86100 96700 107000 132000 185000 263000 285000 420000 452000
2020-07-28 06:00 16.16 234000 911000 (1993) 73700 (1988) 220000 86100 96700 107000 132000 185000 263000 285000 420000 452000
2020-07-28 05:30 16.22 235000 911000 (1993) 73700 (1988) 220000 86100 96700 107000 132000 185000 263000 285000 420000 452000
2020-07-28 05:00 16.21 235000 911000 (1993) 73700 (1988) 220000 86100 96700 107000 132000 185000 263000 285000 420000 452000
2020-07-28 04:30 16.25 236000 911000 (1993) 73700 (1988) 220000 86100 96700 107000 132000 185000 263000 285000 420000 452000
2020-07-28 04:00 16.30 236000 911000 (1993) 73700 (1988) 220000 86100 96700 107000 132000 185000 263000 285000 420000 452000
2020-07-28 03:30 16.32 237000 911000 (1993) 73700 (1988) 220000 86100 96700 107000 132000 185000 263000 285000 420000 452000
2020-07-28 03:00 16.32 237000 911000 (1993) 73700 (1988) 220000 86100 96700 107000 132000 185000 263000 285000 420000 452000
2020-07-28 02:30 16.34 237000 911000 (1993) 73700 (1988) 220000 86100 96700 107000 132000 185000 263000 285000 420000 452000
2020-07-28 02:00 16.36 237000 911000 (1993) 73700 (1988) 220000 86100 96700 107000 132000 185000 263000 285000 420000 452000
2020-07-28 01:30 16.41 238000 911000 (1993) 73700 (1988) 220000 86100 96700 107000 132000 185000 263000 285000 420000 452000
2020-07-28 01:00 16.32 237000 911000 (1993) 73700 (1988) 220000 86100 96700 107000 132000 185000 263000 285000 420000 452000
2020-07-28 00:30 16.40 238000 911000 (1993) 73700 (1988) 220000 86100 96700 107000 132000 185000 263000 285000 420000 452000
2020-07-28 00:00 16.41 238000 911000 (1993) 73700 (1988) 220000 86100 96700 107000 132000 185000 263000 285000 420000 452000
2020-07-27 23:30 16.33 237000 916000 (1993) 78500 (1988) 225000 90000 96100 116000 135000 188000 269000 297000 395000 464000
2020-07-27 23:00 16.38 238000 916000 (1993) 78500 (1988) 225000 90000 96100 116000 135000 188000 269000 297000 395000 464000
2020-07-27 22:30 16.38 238000 916000 (1993) 78500 (1988) 225000 90000 96100 116000 135000 188000 269000 297000 395000 464000
2020-07-27 22:00 16.40 238000 916000 (1993) 78500 (1988) 225000 90000 96100 116000 135000 188000 269000 297000 395000 464000
2020-07-27 21:30 16.52 240000 916000 (1993) 78500 (1988) 225000 90000 96100 116000 135000 188000 269000 297000 395000 464000
2020-07-27 21:00 16.42 238000 916000 (1993) 78500 (1988) 225000 90000 96100 116000 135000 188000 269000 297000 395000 464000
2020-07-27 20:30 16.55 240000 916000 (1993) 78500 (1988) 225000 90000 96100 116000 135000 188000 269000 297000 395000 464000
2020-07-27 20:00 16.51 240000 916000 (1993) 78500 (1988) 225000 90000 96100 116000 135000 188000 269000 297000 395000 464000
2020-07-27 19:30 16.55 240000 916000 (1993) 78500 (1988) 225000 90000 96100 116000 135000 188000 269000 297000 395000 464000
2020-07-27 19:00 16.59 241000 916000 (1993) 78500 (1988) 225000 90000 96100 116000 135000 188000 269000 297000 395000 464000
2020-07-27 18:30 16.65 242000 916000 (1993) 78500 (1988) 225000 90000 96100 116000 135000 188000 269000 297000 395000 464000
2020-07-27 18:00 16.61 241000 916000 (1993) 78500 (1988) 225000 90000 96100 116000 135000 188000 269000 297000 395000 464000
2020-07-27 17:30 16.70 242000 916000 (1993) 78500 (1988) 225000 90000 96100 116000 135000 188000 269000 297000 395000 464000
2020-07-27 17:00 16.77 243000 916000 (1993) 78500 (1988) 225000 90000 96100 116000 135000 188000 269000 297000 395000 464000
2020-07-27 16:30 16.79 244000 916000 (1993) 78500 (1988) 225000 90000 96100 116000 135000 188000 269000 297000 395000 464000
2020-07-27 16:00 16.74 243000 916000 (1993) 78500 (1988) 225000 90000 96100 116000 135000 188000 269000 297000 395000 464000
2020-07-27 15:30 16.81 244000 916000 (1993) 78500 (1988) 225000 90000 96100 116000 135000 188000 269000 297000 395000 464000
2020-07-27 15:00 16.84 245000 916000 (1993) 78500 (1988) 225000 90000 96100 116000 135000 188000 269000 297000 395000 464000
2020-07-27 14:30 16.86 245000 916000 (1993) 78500 (1988) 225000 90000 96100 116000 135000 188000 269000 297000 395000 464000
2020-07-27 14:00 16.84 245000 916000 (1993) 78500 (1988) 225000 90000 96100 116000 135000 188000 269000 297000 395000 464000
2020-07-27 13:30 16.84 245000 916000 (1993) 78500 (1988) 225000 90000 96100 116000 135000 188000 269000 297000 395000 464000
2020-07-27 13:00 16.85 245000 916000 (1993) 78500 (1988) 225000 90000 96100 116000 135000 188000 269000 297000 395000 464000
2020-07-27 12:30 16.86 245000 916000 (1993) 78500 (1988) 225000 90000 96100 116000 135000 188000 269000 297000 395000 464000
2020-07-27 12:00 16.87 245000 916000 (1993) 78500 (1988) 225000 90000 96100 116000 135000 188000 269000 297000 395000 464000
2020-07-27 11:30 16.90 245000 916000 (1993) 78500 (1988) 225000 90000 96100 116000 135000 188000 269000 297000 395000 464000
2020-07-27 11:00 16.91 246000 916000 (1993) 78500 (1988) 225000 90000 96100 116000 135000 188000 269000 297000 395000 464000
2020-07-27 10:30 16.97 247000 916000 (1993) 78500 (1988) 225000 90000 96100 116000 135000 188000 269000 297000 395000 464000
2020-07-27 10:00 16.91 246000 916000 (1993) 78500 (1988) 225000 90000 96100 116000 135000 188000 269000 297000 395000 464000
2020-07-27 09:30 16.93 246000 916000 (1993) 78500 (1988) 225000 90000 96100 116000 135000 188000 269000 297000 395000 464000
2020-07-27 09:00 17.07 248000 916000 (1993) 78500 (1988) 225000 90000 96100 116000 135000 188000 269000 297000 395000 464000
2020-07-27 08:30 16.91 246000 916000 (1993) 78500 (1988) 225000 90000 96100 116000 135000 188000 269000 297000 395000 464000
2020-07-27 08:00 17.07 248000 916000 (1993) 78500 (1988) 225000 90000 96100 116000 135000 188000 269000 297000 395000 464000
2020-07-27 07:30 17.14 249000 916000 (1993) 78500 (1988) 225000 90000 96100 116000 135000 188000 269000 297000 395000 464000
2020-07-27 07:00 17.17 250000 916000 (1993) 78500 (1988) 225000 90000 96100 116000 135000 188000 269000 297000 395000 464000
2020-07-27 06:30 17.16 249000 916000 (1993) 78500 (1988) 225000 90000 96100 116000 135000 188000 269000 297000 395000 464000
2020-07-27 06:00 17.11 249000 916000 (1993) 78500 (1988) 225000 90000 96100 116000 135000 188000 269000 297000 395000 464000
2020-07-27 05:30 17.22 250000 916000 (1993) 78500 (1988) 225000 90000 96100 116000 135000 188000 269000 297000 395000 464000
2020-07-27 05:00 17.25 251000 916000 (1993) 78500 (1988) 225000 90000 96100 116000 135000 188000 269000 297000 395000 464000
2020-07-27 04:30 17.26 251000 916000 (1993) 78500 (1988) 225000 90000 96100 116000 135000 188000 269000 297000 395000 464000
2020-07-27 04:00 17.21 250000 916000 (1993) 78500 (1988) 225000 90000 96100 116000 135000 188000 269000 297000 395000 464000
2020-07-27 03:30 17.35 252000 916000 (1993) 78500 (1988) 225000 90000 96100 116000 135000 188000 269000 297000 395000 464000
2020-07-27 03:00 17.33 252000 916000 (1993) 78500 (1988) 225000 90000 96100 116000 135000 188000 269000 297000 395000 464000
2020-07-27 02:30 17.35 252000 916000 (1993) 78500 (1988) 225000 90000 96100 116000 135000 188000 269000 297000 395000 464000
2020-07-27 02:00 17.43 254000 916000 (1993) 78500 (1988) 225000 90000 96100 116000 135000 188000 269000 297000 395000 464000
2020-07-27 01:30 17.44 254000 916000 (1993) 78500 (1988) 225000 90000 96100 116000 135000 188000 269000 297000 395000 464000
2020-07-27 01:00 17.46 254000 916000 (1993) 78500 (1988) 225000 90000 96100 116000 135000 188000 269000 297000 395000 464000
2020-07-27 00:30 17.50 255000 916000 (1993) 78500 (1988) 225000 90000 96100 116000 135000 188000 269000 297000 395000 464000
2020-07-27 00:00 17.57 256000 916000 (1993) 78500 (1988) 225000 90000 96100 116000 135000 188000 269000 297000 395000 464000
2020-07-26 23:30 17.56 256000 908000 (1993) 76200 (1988) 231000 89400 99300 126000 140000 189000 281000 305000 389000 496000
2020-07-26 23:00 17.57 256000 908000 (1993) 76200 (1988) 231000 89400 99300 126000 140000 189000 281000 305000 389000 496000
2020-07-26 22:30 17.64 257000 908000 (1993) 76200 (1988) 231000 89400 99300 126000 140000 189000 281000 305000 389000 496000
2020-07-26 22:00 17.69 258000 908000 (1993) 76200 (1988) 231000 89400 99300 126000 140000 189000 281000 305000 389000 496000
2020-07-26 21:30 17.75 259000 908000 (1993) 76200 (1988) 231000 89400 99300 126000 140000 189000 281000 305000 389000 496000
2020-07-26 21:00 17.82 260000 908000 (1993) 76200 (1988) 231000 89400 99300 126000 140000 189000 281000 305000 389000 496000
2020-07-26 20:30 17.80 259000 908000 (1993) 76200 (1988) 231000 89400 99300 126000 140000 189000 281000 305000 389000 496000
2020-07-26 20:00 17.94 262000 908000 (1993) 76200 (1988) 231000 89400 99300 126000 140000 189000 281000 305000 389000 496000
2020-07-26 19:30 18.00 263000 908000 (1993) 76200 (1988) 231000 89400 99300 126000 140000 189000 281000 305000 389000 496000
2020-07-26 19:00 17.98 262000 908000 (1993) 76200 (1988) 231000 89400 99300 126000 140000 189000 281000 305000 389000 496000
2020-07-26 18:30 18.09 264000 908000 (1993) 76200 (1988) 231000 89400 99300 126000 140000 189000 281000 305000 389000 496000
2020-07-26 18:00 18.11 264000 908000 (1993) 76200 (1988) 231000 89400 99300 126000 140000 189000 281000 305000 389000 496000
2020-07-26 17:30 18.14 265000 908000 (1993) 76200 (1988) 231000 89400 99300 126000 140000 189000 281000 305000 389000 496000
2020-07-26 17:00 18.15 265000 908000 (1993) 76200 (1988) 231000 89400 99300 126000 140000 189000 281000 305000 389000 496000
2020-07-26 16:30 18.15 265000 908000 (1993) 76200 (1988) 231000 89400 99300 126000 140000 189000 281000 305000 389000 496000
2020-07-26 16:00 18.10 264000 908000 (1993) 76200 (1988) 231000 89400 99300 126000 140000 189000 281000 305000 389000 496000
2020-07-26 15:30 18.14 265000 908000 (1993) 76200 (1988) 231000 89400 99300 126000 140000 189000 281000 305000 389000 496000
2020-07-26 15:00 18.23 266000 908000 (1993) 76200 (1988) 231000 89400 99300 126000 140000 189000 281000 305000 389000 496000
2020-07-26 14:30 18.19 266000 908000 (1993) 76200 (1988) 231000 89400 99300 126000 140000 189000 281000 305000 389000 496000
2020-07-26 14:00 18.22 266000 908000 (1993) 76200 (1988) 231000 89400 99300 126000 140000 189000 281000 305000 389000 496000
2020-07-26 13:30 18.23 266000 908000 (1993) 76200 (1988) 231000 89400 99300 126000 140000 189000 281000 305000 389000 496000
2020-07-26 13:00 18.20 266000 908000 (1993) 76200 (1988) 231000 89400 99300 126000 140000 189000 281000 305000 389000 496000
2020-07-26 12:30 18.26 267000 908000 (1993) 76200 (1988) 231000 89400 99300 126000 140000 189000 281000 305000 389000 496000
2020-07-26 12:00 18.25 267000 908000 (1993) 76200 (1988) 231000 89400 99300 126000 140000 189000 281000 305000 389000 496000
2020-07-26 11:30 18.29 267000 908000 (1993) 76200 (1988) 231000 89400 99300 126000 140000 189000 281000 305000 389000 496000
2020-07-26 11:00 18.26 267000 908000 (1993) 76200 (1988) 231000 89400 99300 126000 140000 189000 281000 305000 389000 496000
2020-07-26 10:30 18.15 265000 908000 (1993) 76200 (1988) 231000 89400 99300 126000 140000 189000 281000 305000 389000 496000
2020-07-26 10:00 18.22 266000 908000 (1993) 76200 (1988) 231000 89400 99300 126000 140000 189000 281000 305000 389000 496000
2020-07-26 09:30 18.38 269000 908000 (1993) 76200 (1988) 231000 89400 99300 126000 140000 189000 281000 305000 389000 496000
2020-07-26 09:00 18.34 268000 908000 (1993) 76200 (1988) 231000 89400 99300 126000 140000 189000 281000 305000 389000 496000
2020-07-26 08:30 18.42 269000 908000 (1993) 76200 (1988) 231000 89400 99300 126000 140000 189000 281000 305000 389000 496000
2020-07-26 08:00 18.39 269000 908000 (1993) 76200 (1988) 231000 89400 99300 126000 140000 189000 281000 305000 389000 496000
2020-07-26 07:30 18.48 270000 908000 (1993) 76200 (1988) 231000 89400 99300 126000 140000 189000 281000 305000 389000 496000
2020-07-26 07:00 18.52 271000 908000 (1993) 76200 (1988) 231000 89400 99300 126000 140000 189000 281000 305000 389000 496000
2020-07-26 06:30 18.50 271000 908000 (1993) 76200 (1988) 231000 89400 99300 126000 140000 189000 281000 305000 389000 496000
2020-07-26 06:00 18.52 271000 908000 (1993) 76200 (1988) 231000 89400 99300 126000 140000 189000 281000 305000 389000 496000
2020-07-26 05:30 18.49 270000 908000 (1993) 76200 (1988) 231000 89400 99300 126000 140000 189000 281000 305000 389000 496000
2020-07-26 05:00 18.62 273000 908000 (1993) 76200 (1988) 231000 89400 99300 126000 140000 189000 281000 305000 389000 496000
2020-07-26 04:30 18.55 271000 908000 (1993) 76200 (1988) 231000 89400 99300 126000 140000 189000 281000 305000 389000 496000
2020-07-26 04:00 18.66 273000 908000 (1993) 76200 (1988) 231000 89400 99300 126000 140000 189000 281000 305000 389000 496000
2020-07-26 03:30 18.66 273000 908000 (1993) 76200 (1988) 231000 89400 99300 126000 140000 189000 281000 305000 389000 496000
2020-07-26 03:00 18.73 274000 908000 (1993) 76200 (1988) 231000 89400 99300 126000 140000 189000 281000 305000 389000 496000
2020-07-26 02:30 18.57 272000 908000 (1993) 76200 (1988) 231000 89400 99300 126000 140000 189000 281000 305000 389000 496000
2020-07-26 02:00 18.76 275000 908000 (1993) 76200 (1988) 231000 89400 99300 126000 140000 189000 281000 305000 389000 496000
2020-07-26 01:30 18.57 272000 908000 (1993) 76200 (1988) 231000 89400 99300 126000 140000 189000 281000 305000 389000 496000
2020-07-26 01:00 18.72 274000 908000 (1993) 76200 (1988) 231000 89400 99300 126000 140000 189000 281000 305000 389000 496000
2020-07-26 00:30 18.66 273000 908000 (1993) 76200 (1988) 231000 89400 99300 126000 140000 189000 281000 305000 389000 496000
2020-07-26 00:00 18.84 276000 908000 (1993) 76200 (1988) 231000 89400 99300 126000 140000 189000 281000 305000 389000 496000
2020-07-25 23:30 18.73 274000 905000 (1993) 71600 (1988) 234000 92700 99300 116000 144000 195000 278000 307000 400000 521000
2020-07-25 23:00 18.88 277000 905000 (1993) 71600 (1988) 234000 92700 99300 116000 144000 195000 278000 307000 400000 521000
2020-07-25 22:30 18.88 277000 905000 (1993) 71600 (1988) 234000 92700 99300 116000 144000 195000 278000 307000 400000 521000
2020-07-25 22:00 18.86 277000 905000 (1993) 71600 (1988) 234000 92700 99300 116000 144000 195000 278000 307000 400000 521000
2020-07-25 21:30 18.80 276000 905000 (1993) 71600 (1988) 234000 92700 99300 116000 144000 195000 278000 307000 400000 521000
2020-07-25 21:00 18.91 277000 905000 (1993) 71600 (1988) 234000 92700 99300 116000 144000 195000 278000 307000 400000 521000
2020-07-25 20:30 18.95 278000 905000 (1993) 71600 (1988) 234000 92700 99300 116000 144000 195000 278000 307000 400000 521000
2020-07-25 20:00 18.93 278000 905000 (1993) 71600 (1988) 234000 92700 99300 116000 144000 195000 278000 307000 400000 521000
2020-07-25 19:30 18.89 277000 905000 (1993) 71600 (1988) 234000 92700 99300 116000 144000 195000 278000 307000 400000 521000
2020-07-25 19:00 19.03 279000 905000 (1993) 71600 (1988) 234000 92700 99300 116000 144000 195000 278000 307000 400000 521000
2020-07-25 18:30 18.96 278000 905000 (1993) 71600 (1988) 234000 92700 99300 116000 144000 195000 278000 307000 400000 521000
2020-07-25 18:00 18.92 278000 905000 (1993) 71600 (1988) 234000 92700 99300 116000 144000 195000 278000 307000 400000 521000
2020-07-25 17:30 18.87 277000 905000 (1993) 71600 (1988) 234000 92700 99300 116000 144000 195000 278000 307000 400000 521000
2020-07-25 17:00 18.87 277000 905000 (1993) 71600 (1988) 234000 92700 99300 116000 144000 195000 278000 307000 400000 521000
2020-07-25 16:30 18.96 278000 905000 (1993) 71600 (1988) 234000 92700 99300 116000 144000 195000 278000 307000 400000 521000
2020-07-25 16:00 19.01 279000 905000 (1993) 71600 (1988) 234000 92700 99300 116000 144000 195000 278000 307000 400000 521000
2020-07-25 15:30 18.98 278000 905000 (1993) 71600 (1988) 234000 92700 99300 116000 144000 195000 278000 307000 400000 521000
2020-07-25 15:00 18.95 278000 905000 (1993) 71600 (1988) 234000 92700 99300 116000 144000 195000 278000 307000 400000 521000
2020-07-25 14:30 18.97 278000 905000 (1993) 71600 (1988) 234000 92700 99300 116000 144000 195000 278000 307000 400000 521000
2020-07-25 14:00 18.86 277000 905000 (1993) 71600 (1988) 234000 92700 99300 116000 144000 195000 278000 307000 400000 521000
2020-07-25 13:30 18.89 277000 905000 (1993) 71600 (1988) 234000 92700 99300 116000 144000 195000 278000 307000 400000 521000
2020-07-25 13:00 18.94 278000 905000 (1993) 71600 (1988) 234000 92700 99300 116000 144000 195000 278000 307000 400000 521000
2020-07-25 12:30 18.77 275000 905000 (1993) 71600 (1988) 234000 92700 99300 116000 144000 195000 278000 307000 400000 521000
2020-07-25 12:00 18.84 276000 905000 (1993) 71600 (1988) 234000 92700 99300 116000 144000 195000 278000 307000 400000 521000
2020-07-25 11:30 18.75 275000 905000 (1993) 71600 (1988) 234000 92700 99300 116000 144000 195000 278000 307000 400000 521000
2020-07-25 11:00 18.80 276000 905000 (1993) 71600 (1988) 234000 92700 99300 116000 144000 195000 278000 307000 400000 521000
2020-07-25 10:30 18.74 275000 905000 (1993) 71600 (1988) 234000 92700 99300 116000 144000 195000 278000 307000 400000 521000
2020-07-25 10:00 18.76 275000 905000 (1993) 71600 (1988) 234000 92700 99300 116000 144000 195000 278000 307000 400000 521000
2020-07-25 09:30 18.74 275000 905000 (1993) 71600 (1988) 234000 92700 99300 116000 144000 195000 278000 307000 400000 521000
2020-07-25 09:00 18.70 274000 905000 (1993) 71600 (1988) 234000 92700 99300 116000 144000 195000 278000 307000 400000 521000
2020-07-25 08:30 18.73 274000 905000 (1993) 71600 (1988) 234000 92700 99300 116000 144000 195000 278000 307000 400000 521000
2020-07-25 08:00 18.72 274000 905000 (1993) 71600 (1988) 234000 92700 99300 116000 144000 195000 278000 307000 400000 521000
2020-07-25 07:30 18.65 273000 905000 (1993) 71600 (1988) 234000 92700 99300 116000 144000 195000 278000 307000 400000 521000
2020-07-25 07:00 18.52 271000 905000 (1993) 71600 (1988) 234000 92700 99300 116000 144000 195000 278000 307000 400000 521000
2020-07-25 06:30 18.57 272000 905000 (1993) 71600 (1988) 234000 92700 99300 116000 144000 195000 278000 307000 400000 521000
2020-07-25 06:00 18.60 272000 905000 (1993) 71600 (1988) 234000 92700 99300 116000 144000 195000 278000 307000 400000 521000
2020-07-25 05:30 18.56 272000 905000 (1993) 71600 (1988) 234000 92700 99300 116000 144000 195000 278000 307000 400000 521000
2020-07-25 05:00 18.53 271000 905000 (1993) 71600 (1988) 234000 92700 99300 116000 144000 195000 278000 307000 400000 521000
2020-07-25 04:30 18.51 271000 905000 (1993) 71600 (1988) 234000 92700 99300 116000 144000 195000 278000 307000 400000 521000
2020-07-25 04:00 18.52 271000 905000 (1993) 71600 (1988) 234000 92700 99300 116000 144000 195000 278000 307000 400000 521000
2020-07-25 03:30 18.52 271000 905000 (1993) 71600 (1988) 234000 92700 99300 116000 144000 195000 278000 307000 400000 521000
2020-07-25 03:00 18.49 270000 905000 (1993) 71600 (1988) 234000 92700 99300 116000 144000 195000 278000 307000 400000 521000
2020-07-25 02:30 18.50 271000 905000 (1993) 71600 (1988) 234000 92700 99300 116000 144000 195000 278000 307000 400000 521000
2020-07-25 02:00 18.45 270000 905000 (1993) 71600 (1988) 234000 92700 99300 116000 144000 195000 278000 307000 400000 521000
2020-07-25 01:30 18.40 269000 905000 (1993) 71600 (1988) 234000 92700 99300 116000 144000 195000 278000 307000 400000 521000
2020-07-25 01:00 18.32 268000 905000 (1993) 71600 (1988) 234000 92700 99300 116000 144000 195000 278000 307000 400000 521000
2020-07-25 00:30 18.31 268000 905000 (1993) 71600 (1988) 234000 92700 99300 116000 144000 195000 278000 307000 400000 521000
2020-07-25 00:00 18.17 265000 905000 (1993) 71600 (1988) 234000 92700 99300 116000 144000 195000 278000 307000 400000 521000
2020-07-24 23:30 18.33 268000 929000 (1993) 69600 (1988) 234000 93900 103000 120000 141000 194000 272000 284000 389000 530000
2020-07-24 23:00 18.26 267000 929000 (1993) 69600 (1988) 234000 93900 103000 120000 141000 194000 272000 284000 389000 530000
2020-07-24 22:30 18.34 268000 929000 (1993) 69600 (1988) 234000 93900 103000 120000 141000 194000 272000 284000 389000 530000
2020-07-24 22:00 18.22 266000 929000 (1993) 69600 (1988) 234000 93900 103000 120000 141000 194000 272000 284000 389000 530000
2020-07-24 21:30 18.32 268000 929000 (1993) 69600 (1988) 234000 93900 103000 120000 141000 194000 272000 284000 389000 530000
2020-07-24 21:00 18.16 265000 929000 (1993) 69600 (1988) 234000 93900 103000 120000 141000 194000 272000 284000 389000 530000
2020-07-24 20:30 18.36 268000 929000 (1993) 69600 (1988) 234000 93900 103000 120000 141000 194000 272000 284000 389000 530000
2020-07-24 20:00 18.32 268000 929000 (1993) 69600 (1988) 234000 93900 103000 120000 141000 194000 272000 284000 389000 530000
2020-07-24 19:30 18.38 269000 929000 (1993) 69600 (1988) 234000 93900 103000 120000 141000 194000 272000 284000 389000 530000
2020-07-24 19:00 18.39 269000 929000 (1993) 69600 (1988) 234000 93900 103000 120000 141000 194000 272000 284000 389000 530000
2020-07-24 18:30 18.43 270000 929000 (1993) 69600 (1988) 234000 93900 103000 120000 141000 194000 272000 284000 389000 530000
2020-07-24 18:00 18.41 269000 929000 (1993) 69600 (1988) 234000 93900 103000 120000 141000 194000 272000 284000 389000 530000
2020-07-24 17:30 18.20 266000 929000 (1993) 69600 (1988) 234000 93900 103000 120000 141000 194000 272000 284000 389000 530000
2020-07-24 17:00 18.35 268000 929000 (1993) 69600 (1988) 234000 93900 103000 120000 141000 194000 272000 284000 389000 530000
2020-07-24 16:30 18.35 268000 929000 (1993) 69600 (1988) 234000 93900 103000 120000 141000 194000 272000 284000 389000 530000
2020-07-24 16:00 18.38 269000 929000 (1993) 69600 (1988) 234000 93900 103000 120000 141000 194000 272000 284000 389000 530000
2020-07-24 15:30 18.16 265000 929000 (1993) 69600 (1988) 234000 93900 103000 120000 141000 194000 272000 284000 389000 530000
2020-07-24 15:00 18.07 264000 929000 (1993) 69600 (1988) 234000 93900 103000 120000 141000 194000 272000 284000 389000 530000
2020-07-24 14:30 18.33 268000 929000 (1993) 69600 (1988) 234000 93900 103000 120000 141000 194000 272000 284000 389000 530000
2020-07-24 14:00 18.25 267000 929000 (1993) 69600 (1988) 234000 93900 103000 120000 141000 194000 272000 284000 389000 530000
2020-07-24 13:30 18.23 266000 929000 (1993) 69600 (1988) 234000 93900 103000 120000 141000 194000 272000 284000 389000 530000
2020-07-24 13:00 18.19 266000 929000 (1993) 69600 (1988) 234000 93900 103000 120000 141000 194000 272000 284000 389000 530000
2020-07-24 12:30 18.15 265000 929000 (1993) 69600 (1988) 234000 93900 103000 120000 141000 194000 272000 284000 389000 530000
2020-07-24 12:00 18.17 265000 929000 (1993) 69600 (1988) 234000 93900 103000 120000 141000 194000 272000 284000 389000 530000
2020-07-24 11:30 18.00 263000 929000 (1993) 69600 (1988) 234000 93900 103000 120000 141000 194000 272000 284000 389000 530000
2020-07-24 11:00 18.06 264000 929000 (1993) 69600 (1988) 234000 93900 103000 120000 141000 194000 272000 284000 389000 530000
2020-07-24 10:30 17.96 262000 929000 (1993) 69600 (1988) 234000 93900 103000 120000 141000 194000 272000 284000 389000 530000
2020-07-24 10:00 17.95 262000 929000 (1993) 69600 (1988) 234000 93900 103000 120000 141000 194000 272000 284000 389000 530000
2020-07-24 09:30 17.89 261000 929000 (1993) 69600 (1988) 234000 93900 103000 120000 141000 194000 272000 284000 389000 530000
2020-07-24 09:00 17.89 261000 929000 (1993) 69600 (1988) 234000 93900 103000 120000 141000 194000 272000 284000 389000 530000
2020-07-24 08:30 17.86 260000 929000 (1993) 69600 (1988) 234000 93900 103000 120000 141000 194000 272000 284000 389000 530000
2020-07-24 08:00 17.96 262000 929000 (1993) 69600 (1988) 234000 93900 103000 120000 141000 194000 272000 284000 389000 530000
2020-07-24 07:30 17.79 259000 929000 (1993) 69600 (1988) 234000 93900 103000 120000 141000 194000 272000 284000 389000 530000
2020-07-24 07:00 17.91 261000 929000 (1993) 69600 (1988) 234000 93900 103000 120000 141000 194000 272000 284000 389000 530000
2020-07-24 06:30 17.90 261000 929000 (1993) 69600 (1988) 234000 93900 103000 120000 141000 194000 272000 284000 389000 530000
2020-07-24 06:00 17.72 258000 929000 (1993) 69600 (1988) 234000 93900 103000 120000 141000 194000 272000 284000 389000 530000
2020-07-24 05:30 17.78 259000 929000 (1993) 69600 (1988) 234000 93900 103000 120000 141000 194000 272000 284000 389000 530000
2020-07-24 05:00 17.78 259000 929000 (1993) 69600 (1988) 234000 93900 103000 120000 141000 194000 272000 284000 389000 530000
2020-07-24 04:30 17.74 258000 929000 (1993) 69600 (1988) 234000 93900 103000 120000 141000 194000 272000 284000 389000 530000
2020-07-24 04:00 17.64 257000 929000 (1993) 69600 (1988) 234000 93900 103000 120000 141000 194000 272000 284000 389000 530000
2020-07-24 03:30 17.69 258000 929000 (1993) 69600 (1988) 234000 93900 103000 120000 141000 194000 272000 284000 389000 530000
2020-07-24 03:00 17.68 258000 929000 (1993) 69600 (1988) 234000 93900 103000 120000 141000 194000 272000 284000 389000 530000
2020-07-24 02:30 17.65 257000 929000 (1993) 69600 (1988) 234000 93900 103000 120000 141000 194000 272000 284000 389000 530000
2020-07-24 02:00 17.78 259000 929000 (1993) 69600 (1988) 234000 93900 103000 120000 141000 194000 272000 284000 389000 530000
2020-07-24 01:30 17.78 259000 929000 (1993) 69600 (1988) 234000 93900 103000 120000 141000 194000 272000 284000 389000 530000
2020-07-24 01:00 17.76 259000 929000 (1993) 69600 (1988) 234000 93900 103000 120000 141000 194000 272000 284000 389000 530000
2020-07-24 00:30 17.74 258000 929000 (1993) 69600 (1988) 234000 93900 103000 120000 141000 194000 272000 284000 389000 530000
2020-07-24 00:00 17.82 260000 929000 (1993) 69600 (1988) 234000 93900 103000 120000 141000 194000 272000 284000 389000 530000
2020-07-23 23:30 17.78 259000 907000 (1993) 70100 (1988) 233000 93600 103000 130000 142000 198000 262000 289000 387000 511000
2020-07-23 23:00 17.76 259000 907000 (1993) 70100 (1988) 233000 93600 103000 130000 142000 198000 262000 289000 387000 511000
2020-07-23 22:30 17.80 259000 907000 (1993) 70100 (1988) 233000 93600 103000 130000 142000 198000 262000 289000 387000 511000
2020-07-23 22:00 17.69 258000 907000 (1993) 70100 (1988) 233000 93600 103000 130000 142000 198000 262000 289000 387000 511000
2020-07-23 21:30 17.87 261000 907000 (1993) 70100 (1988) 233000 93600 103000 130000 142000 198000 262000 289000 387000 511000
2020-07-23 21:00 17.78 259000 907000 (1993) 70100 (1988) 233000 93600 103000 130000 142000 198000 262000 289000 387000 511000
2020-07-23 20:30 17.93 261000 907000 (1993) 70100 (1988) 233000 93600 103000 130000 142000 198000 262000 289000 387000 511000
2020-07-23 20:00 18.01 263000 907000 (1993) 70100 (1988) 233000 93600 103000 130000 142000 198000 262000 289000 387000 511000
2020-07-23 19:30 18.00 263000 907000 (1993) 70100 (1988) 233000 93600 103000 130000 142000 198000 262000 289000 387000 511000
2020-07-23 19:00 17.83 260000 907000 (1993) 70100 (1988) 233000 93600 103000 130000 142000 198000 262000 289000 387000 511000
2020-07-23 18:30 17.90 261000 907000 (1993) 70100 (1988) 233000 93600 103000 130000 142000 198000 262000 289000 387000 511000
2020-07-23 18:00 17.80 259000 907000 (1993) 70100 (1988) 233000 93600 103000 130000 142000 198000 262000 289000 387000 511000
2020-07-23 17:30 17.89 261000 907000 (1993) 70100 (1988) 233000 93600 103000 130000 142000 198000 262000 289000 387000 511000
2020-07-23 17:00 17.91 261000 907000 (1993) 70100 (1988) 233000 93600 103000 130000 142000 198000 262000 289000 387000 511000
2020-07-23 16:30 17.94 262000 907000 (1993) 70100 (1988) 233000 93600 103000 130000 142000 198000 262000 289000 387000 511000
2020-07-23 16:00 17.91 261000 907000 (1993) 70100 (1988) 233000 93600 103000 130000 142000 198000 262000 289000 387000 511000
2020-07-23 15:30 18.03 263000 907000 (1993) 70100 (1988) 233000 93600 103000 130000 142000 198000 262000 289000 387000 511000
2020-07-23 15:00 17.93 261000 907000 (1993) 70100 (1988) 233000 93600 103000 130000 142000 198000 262000 289000 387000 511000
2020-07-23 14:30 18.02 263000 907000 (1993) 70100 (1988) 233000 93600 103000 130000 142000 198000 262000 289000 387000 511000
2020-07-23 14:00 17.94 262000 907000 (1993) 70100 (1988) 233000 93600 103000 130000 142000 198000 262000 289000 387000 511000
2020-07-23 13:30 18.00 263000 907000 (1993) 70100 (1988) 233000 93600 103000 130000 142000 198000 262000 289000 387000 511000
2020-07-23 13:00 18.07 264000 907000 (1993) 70100 (1988) 233000 93600 103000 130000 142000 198000 262000 289000 387000 511000
2020-07-23 12:30 18.04 263000 907000 (1993) 70100 (1988) 233000 93600 103000 130000 142000 198000 262000 289000 387000 511000
2020-07-23 12:00 18.03 263000 907000 (1993) 70100 (1988) 233000 93600 103000 130000 142000 198000 262000 289000 387000 511000
2020-07-23 11:30 18.09 264000 907000 (1993) 70100 (1988) 233000 93600 103000 130000 142000 198000 262000 289000 387000 511000
2020-07-23 11:00 18.03 263000 907000 (1993) 70100 (1988) 233000 93600 103000 130000 142000 198000 262000 289000 387000 511000
2020-07-23 10:30 18.05 263000 907000 (1993) 70100 (1988) 233000 93600 103000 130000 142000 198000 262000 289000 387000 511000
2020-07-23 10:00 18.01 263000 907000 (1993) 70100 (1988) 233000 93600 103000 130000 142000 198000 262000 289000 387000 511000
2020-07-23 09:30 18.06 264000 907000 (1993) 70100 (1988) 233000 93600 103000 130000 142000 198000 262000 289000 387000 511000
2020-07-23 09:00 18.11 264000 907000 (1993) 70100 (1988) 233000 93600 103000 130000 142000 198000 262000 289000 387000 511000
2020-07-23 08:30 18.09 264000 907000 (1993) 70100 (1988) 233000 93600 103000 130000 142000 198000 262000 289000 387000 511000
2020-07-23 08:00 18.01 263000 907000 (1993) 70100 (1988) 233000 93600 103000 130000 142000 198000 262000 289000 387000 511000
2020-07-23 07:30 17.89 261000 907000 (1993) 70100 (1988) 233000 93600 103000 130000 142000 198000 262000 289000 387000 511000
2020-07-23 07:00 18.04 263000 907000 (1993) 70100 (1988) 233000 93600 103000 130000 142000 198000 262000 289000 387000 511000
2020-07-23 06:30 18.03 263000 907000 (1993) 70100 (1988) 233000 93600 103000 130000 142000 198000 262000 289000 387000 511000
2020-07-23 06:00 18.02 263000 907000 (1993) 70100 (1988) 233000 93600 103000 130000 142000 198000 262000 289000 387000 511000
2020-07-23 05:30 18.08 264000 907000 (1993) 70100 (1988) 233000 93600 103000 130000 142000 198000 262000 289000 387000 511000
2020-07-23 05:00 18.18 265000 907000 (1993) 70100 (1988) 233000 93600 103000 130000 142000 198000 262000 289000 387000 511000
2020-07-23 04:30 18.19 266000 907000 (1993) 70100 (1988) 233000 93600 103000 130000 142000 198000 262000 289000 387000 511000
2020-07-23 04:00 18.02 263000 907000 (1993) 70100 (1988) 233000 93600 103000 130000 142000 198000 262000 289000 387000 511000
2020-07-23 03:30 18.24 266000 907000 (1993) 70100 (1988) 233000 93600 103000 130000 142000 198000 262000 289000 387000 511000
2020-07-23 03:00 18.18 265000 907000 (1993) 70100 (1988) 233000 93600 103000 130000 142000 198000 262000 289000 387000 511000
2020-07-23 02:30 18.13 265000 907000 (1993) 70100 (1988) 233000 93600 103000 130000 142000 198000 262000 289000 387000 511000
2020-07-23 02:00 18.35 268000 907000 (1993) 70100 (1988) 233000 93600 103000 130000 142000 198000 262000 289000 387000 511000
2020-07-23 01:30 18.23 266000 907000 (1993) 70100 (1988) 233000 93600 103000 130000 142000 198000 262000 289000 387000 511000
2020-07-23 01:00 18.38 269000 907000 (1993) 70100 (1988) 233000 93600 103000 130000 142000 198000 262000 289000 387000 511000
2020-07-23 00:30 18.37 269000 907000 (1993) 70100 (1988) 233000 93600 103000 130000 142000 198000 262000 289000 387000 511000
2020-07-23 00:00 18.36 268000 907000 (1993) 70100 (1988) 233000 93600 103000 130000 142000 198000 262000 289000 387000 511000
2020-07-22 23:30 18.49 270000 898000 (1993) 72800 (1988) 235000 93100 101000 129000 143000 200000 269000 297000 394000 491000
2020-07-22 23:00 18.62 273000 898000 (1993) 72800 (1988) 235000 93100 101000 129000 143000 200000 269000 297000 394000 491000
2020-07-22 22:30 18.56 272000 898000 (1993) 72800 (1988) 235000 93100 101000 129000 143000 200000 269000 297000 394000 491000
2020-07-22 22:00 18.67 273000 898000 (1993) 72800 (1988) 235000 93100 101000 129000 143000 200000 269000 297000 394000 491000
2020-07-22 21:30 18.47 270000 898000 (1993) 72800 (1988) 235000 93100 101000 129000 143000 200000 269000 297000 394000 491000
2020-07-22 21:00 18.62 273000 898000 (1993) 72800 (1988) 235000 93100 101000 129000 143000 200000 269000 297000 394000 491000
2020-07-22 20:30 18.67 273000 898000 (1993) 72800 (1988) 235000 93100 101000 129000 143000 200000 269000 297000 394000 491000
2020-07-22 20:00 18.70 274000 898000 (1993) 72800 (1988) 235000 93100 101000 129000 143000 200000 269000 297000 394000 491000
2020-07-22 19:30 18.77 275000 898000 (1993) 72800 (1988) 235000 93100 101000 129000 143000 200000 269000 297000 394000 491000
2020-07-22 19:00 18.83 276000 898000 (1993) 72800 (1988) 235000 93100 101000 129000 143000 200000 269000 297000 394000 491000
2020-07-22 18:30 18.75 275000 898000 (1993) 72800 (1988) 235000 93100 101000 129000 143000 200000 269000 297000 394000 491000
2020-07-22 18:00 18.64 273000 898000 (1993) 72800 (1988) 235000 93100 101000 129000 143000 200000 269000 297000 394000 491000
2020-07-22 17:30 18.84 276000 898000 (1993) 72800 (1988) 235000 93100 101000 129000 143000 200000 269000 297000 394000 491000
2020-07-22 17:00 18.76 275000 898000 (1993) 72800 (1988) 235000 93100 101000 129000 143000 200000 269000 297000 394000 491000
2020-07-22 16:30 18.86 277000 898000 (1993) 72800 (1988) 235000 93100 101000 129000 143000 200000 269000 297000 394000 491000
2020-07-22 16:00 18.84 276000 898000 (1993) 72800 (1988) 235000 93100 101000 129000 143000 200000 269000 297000 394000 491000
2020-07-22 15:30 18.90 277000 898000 (1993) 72800 (1988) 235000 93100 101000 129000 143000 200000 269000 297000 394000 491000
2020-07-22 15:00 18.86 277000 898000 (1993) 72800 (1988) 235000 93100 101000 129000 143000 200000 269000 297000 394000 491000
2020-07-22 14:30 18.88 277000 898000 (1993) 72800 (1988) 235000 93100 101000 129000 143000 200000 269000 297000 394000 491000
2020-07-22 14:00 18.95 278000 898000 (1993) 72800 (1988) 235000 93100 101000 129000 143000 200000 269000 297000 394000 491000
2020-07-22 13:30 18.84 276000 898000 (1993) 72800 (1988) 235000 93100 101000 129000 143000 200000 269000 297000 394000 491000
2020-07-22 13:00 18.95 278000 898000 (1993) 72800 (1988) 235000 93100 101000 129000 143000 200000 269000 297000 394000 491000
2020-07-22 12:30 18.96 278000 898000 (1993) 72800 (1988) 235000 93100 101000 129000 143000 200000 269000 297000 394000 491000
2020-07-22 12:00 18.95 278000 898000 (1993) 72800 (1988) 235000 93100 101000 129000 143000 200000 269000 297000 394000 491000
2020-07-22 11:30 18.87 277000 898000 (1993) 72800 (1988) 235000 93100 101000 129000 143000 200000 269000 297000 394000 491000
2020-07-22 11:00 18.88 277000 898000 (1993) 72800 (1988) 235000 93100 101000 129000 143000 200000 269000 297000 394000 491000
2020-07-22 10:30 18.70 274000 898000 (1993) 72800 (1988) 235000 93100 101000 129000 143000 200000 269000 297000 394000 491000
2020-07-22 10:00 18.71 274000 898000 (1993) 72800 (1988) 235000 93100 101000 129000 143000 200000 269000 297000 394000 491000
2020-07-22 09:30 18.76 275000 898000 (1993) 72800 (1988) 235000 93100 101000 129000 143000 200000 269000 297000 394000 491000
2020-07-22 09:00 18.79 275000 898000 (1993) 72800 (1988) 235000 93100 101000 129000 143000 200000 269000 297000 394000 491000
2020-07-22 08:30 18.67 273000 898000 (1993) 72800 (1988) 235000 93100 101000 129000 143000 200000 269000 297000 394000 491000
2020-07-22 08:00 18.65 273000 898000 (1993) 72800 (1988) 235000 93100 101000 129000 143000 200000 269000 297000 394000 491000
2020-07-22 07:30 18.51 271000 898000 (1993) 72800 (1988) 235000 93100 101000 129000 143000 200000 269000 297000 394000 491000
2020-07-22 07:00 18.74 275000 898000 (1993) 72800 (1988) 235000 93100 101000 129000 143000 200000 269000 297000 394000 491000
2020-07-22 06:30 18.73 274000 898000 (1993) 72800 (1988) 235000 93100 101000 129000 143000 200000 269000 297000 394000 491000
2020-07-22 06:00 18.76 275000 898000 (1993) 72800 (1988) 235000 93100 101000 129000 143000 200000 269000 297000 394000 491000
2020-07-22 05:30 18.61 272000 898000 (1993) 72800 (1988) 235000 93100 101000 129000 143000 200000 269000 297000 394000 491000
2020-07-22 05:00 18.72 274000 898000 (1993) 72800 (1988) 235000 93100 101000 129000 143000 200000 269000 297000 394000 491000
2020-07-22 04:30 18.81 276000 898000 (1993) 72800 (1988) 235000 93100 101000 129000 143000 200000 269000 297000 394000 491000
2020-07-22 04:00 18.80 276000 898000 (1993) 72800 (1988) 235000 93100 101000 129000 143000 200000 269000 297000 394000 491000
2020-07-22 03:30 18.72 274000 898000 (1993) 72800 (1988) 235000 93100 101000 129000 143000 200000 269000 297000 394000 491000
2020-07-22 03:00 18.75 275000 898000 (1993) 72800 (1988) 235000 93100 101000 129000 143000 200000 269000 297000 394000 491000
2020-07-22 02:30 18.79 275000 898000 (1993) 72800 (1988) 235000 93100 101000 129000 143000 200000 269000 297000 394000 491000
2020-07-22 02:00 18.78 275000 898000 (1993) 72800 (1988) 235000 93100 101000 129000 143000 200000 269000 297000 394000 491000
2020-07-22 01:30 18.77 275000 898000 (1993) 72800 (1988) 235000 93100 101000 129000 143000 200000 269000 297000 394000 491000
2020-07-22 01:00 18.76 275000 898000 (1993) 72800 (1988) 235000 93100 101000 129000 143000 200000 269000 297000 394000 491000
2020-07-22 00:30 18.69 274000 898000 (1993) 72800 (1988) 235000 93100 101000 129000 143000 200000 269000 297000 394000 491000
2020-07-22 00:00 18.75 275000 898000 (1993) 72800 (1988) 235000 93100 101000 129000 143000 200000 269000 297000 394000 491000
2020-07-21 23:30 18.79 275000 929000 (1993) 74000 (1988) 237000 86100 103000 127000 151000 201000 284000 304000 414000 494000
2020-07-21 23:00 18.89 277000 929000 (1993) 74000 (1988) 237000 86100 103000 127000 151000 201000 284000 304000 414000 494000
2020-07-21 22:30 18.73 274000 929000 (1993) 74000 (1988) 237000 86100 103000 127000 151000 201000 284000 304000 414000 494000
2020-07-21 22:00 18.73 274000 929000 (1993) 74000 (1988) 237000 86100 103000 127000 151000 201000 284000 304000 414000 494000
2020-07-21 21:30 18.89 277000 929000 (1993) 74000 (1988) 237000 86100 103000 127000 151000 201000 284000 304000 414000 494000
2020-07-21 21:00 18.84 276000 929000 (1993) 74000 (1988) 237000 86100 103000 127000 151000 201000 284000 304000 414000 494000
2020-07-21 20:30 18.77 275000 929000 (1993) 74000 (1988) 237000 86100 103000 127000 151000 201000 284000 304000 414000 494000
2020-07-21 20:00 18.85 276000 929000 (1993) 74000 (1988) 237000 86100 103000 127000 151000 201000 284000 304000 414000 494000
2020-07-21 19:30 18.95 278000 929000 (1993) 74000 (1988) 237000 86100 103000 127000 151000 201000 284000 304000 414000 494000
2020-07-21 19:00 18.99 279000 929000 (1993) 74000 (1988) 237000 86100 103000 127000 151000 201000 284000 304000 414000 494000
2020-07-21 18:30 18.97 278000 929000 (1993) 74000 (1988) 237000 86100 103000 127000 151000 201000 284000 304000 414000 494000
2020-07-21 18:00 18.96 278000 929000 (1993) 74000 (1988) 237000 86100 103000 127000 151000 201000 284000 304000 414000 494000
2020-07-21 17:30 19.11 281000 929000 (1993) 74000 (1988) 237000 86100 103000 127000 151000 201000 284000 304000 414000 494000
2020-07-21 17:00 19.07 280000 929000 (1993) 74000 (1988) 237000 86100 103000 127000 151000 201000 284000 304000 414000 494000
2020-07-21 16:30 19.02 279000 929000 (1993) 74000 (1988) 237000 86100 103000 127000 151000 201000 284000 304000 414000 494000
2020-07-21 16:00 19.13 281000 929000 (1993) 74000 (1988) 237000 86100 103000 127000 151000 201000 284000 304000 414000 494000
2020-07-21 15:30 19.05 280000 929000 (1993) 74000 (1988) 237000 86100 103000 127000 151000 201000 284000 304000 414000 494000
2020-07-21 15:00 19.09 280000 929000 (1993) 74000 (1988) 237000 86100 103000 127000 151000 201000 284000 304000 414000 494000
2020-07-21 14:30 19.12 281000 929000 (1993) 74000 (1988) 237000 86100 103000 127000 151000 201000 284000 304000 414000 494000
2020-07-21 14:00 19.05 280000 929000 (1993) 74000 (1988) 237000 86100 103000 127000 151000 201000 284000 304000 414000 494000
2020-07-21 13:30 19.18 282000 929000 (1993) 74000 (1988) 237000 86100 103000 127000 151000 201000 284000 304000 414000 494000
2020-07-21 13:00 19.14 281000 929000 (1993) 74000 (1988) 237000 86100 103000 127000 151000 201000 284000 304000 414000 494000
2020-07-21 12:30 19.15 281000 929000 (1993) 74000 (1988) 237000 86100 103000 127000 151000 201000 284000 304000 414000 494000
2020-07-21 12:00 19.18 282000 929000 (1993) 74000 (1988) 237000 86100 103000 127000 151000 201000 284000 304000 414000 494000
2020-07-21 11:30 19.03 279000 929000 (1993) 74000 (1988) 237000 86100 103000 127000 151000 201000 284000 304000 414000 494000
2020-07-21 11:00 19.02 279000 929000 (1993) 74000 (1988) 237000 86100 103000 127000 151000 201000 284000 304000 414000 494000
2020-07-21 10:30 19.09 280000 929000 (1993) 74000 (1988) 237000 86100 103000 127000 151000 201000 284000 304000 414000 494000
2020-07-21 10:00 19.01 279000 929000 (1993) 74000 (1988) 237000 86100 103000 127000 151000 201000 284000 304000 414000 494000
2020-07-21 09:30 19.04 279000 929000 (1993) 74000 (1988) 237000 86100 103000 127000 151000 201000 284000 304000 414000 494000
2020-07-21 09:00 19.20 282000 929000 (1993) 74000 (1988) 237000 86100 103000 127000 151000 201000 284000 304000 414000 494000
2020-07-21 08:30 19.28 283000 929000 (1993) 74000 (1988) 237000 86100 103000 127000 151000 201000 284000 304000 414000 494000
2020-07-21 08:00 19.20 282000 929000 (1993) 74000 (1988) 237000 86100 103000 127000 151000 201000 284000 304000 414000 494000
2020-07-21 07:30 19.23 283000 929000 (1993) 74000 (1988) 237000 86100 103000 127000 151000 201000 284000 304000 414000 494000
2020-07-21 07:00 19.23 283000 929000 (1993) 74000 (1988) 237000 86100 103000 127000 151000 201000 284000 304000 414000 494000
2020-07-21 06:30 19.28 283000 929000 (1993) 74000 (1988) 237000 86100 103000 127000 151000 201000 284000 304000 414000 494000
2020-07-21 06:00 19.27 283000 929000 (1993) 74000 (1988) 237000 86100 103000 127000 151000 201000 284000 304000 414000 494000
2020-07-21 05:30 19.23 283000 929000 (1993) 74000 (1988) 237000 86100 103000 127000 151000 201000 284000 304000 414000 494000
2020-07-21 05:00 19.30 284000 929000 (1993) 74000 (1988) 237000 86100 103000 127000 151000 201000 284000 304000 414000 494000
2020-07-21 04:30 19.40 285000 929000 (1993) 74000 (1988) 237000 86100 103000 127000 151000 201000 284000 304000 414000 494000
2020-07-21 04:00 19.43 286000 929000 (1993) 74000 (1988) 237000 86100 103000 127000 151000 201000 284000 304000 414000 494000
2020-07-21 03:30 19.35 285000 929000 (1993) 74000 (1988) 237000 86100 103000 127000 151000 201000 284000 304000 414000 494000
2020-07-21 03:00 19.30 284000 929000 (1993) 74000 (1988) 237000 86100 103000 127000 151000 201000 284000 304000 414000 494000
2020-07-21 02:30 19.51 287000 929000 (1993) 74000 (1988) 237000 86100 103000 127000 151000 201000 284000 304000 414000 494000
2020-07-21 02:00 19.47 287000 929000 (1993) 74000 (1988) 237000 86100 103000 127000 151000 201000 284000 304000 414000 494000
2020-07-21 01:30 19.48 287000 929000 (1993) 74000 (1988) 237000 86100 103000 127000 151000 201000 284000 304000 414000 494000
2020-07-21 01:00 19.35 285000 929000 (1993) 74000 (1988) 237000 86100 103000 127000 151000 201000 284000 304000 414000 494000
2020-07-21 00:30 19.21 282000 929000 (1993) 74000 (1988) 237000 86100 103000 127000 151000 201000 284000 304000 414000 494000
2020-07-21 00:00 19.56 288000 929000 (1993) 74000 (1988) 237000 86100 103000 127000 151000 201000 284000 304000 414000 494000
2020-07-20 23:30 19.39 285000 928000 (1993) 68700 (1989) 238000 88100 107000 132000 153000 203000 281000 304000 433000 505000
2020-07-20 23:00 19.48 287000 928000 (1993) 68700 (1989) 238000 88100 107000 132000 153000 203000 281000 304000 433000 505000
2020-07-20 22:30 19.55 288000 928000 (1993) 68700 (1989) 238000 88100 107000 132000 153000 203000 281000 304000 433000 505000
2020-07-20 22:00 19.50 287000 928000 (1993) 68700 (1989) 238000 88100 107000 132000 153000 203000 281000 304000 433000 505000
2020-07-20 21:30 19.43 286000 928000 (1993) 68700 (1989) 238000 88100 107000 132000 153000 203000 281000 304000 433000 505000
2020-07-20 21:00 19.53 288000 928000 (1993) 68700 (1989) 238000 88100 107000 132000 153000 203000 281000 304000 433000 505000
2020-07-20 20:30 19.68 290000 928000 (1993) 68700 (1989) 238000 88100 107000 132000 153000 203000 281000 304000 433000 505000
2020-07-20 20:00 19.61 289000 928000 (1993) 68700 (1989) 238000 88100 107000 132000 153000 203000 281000 304000 433000 505000
2020-07-20 19:30 19.69 290000 928000 (1993) 68700 (1989) 238000 88100 107000 132000 153000 203000 281000 304000 433000 505000
2020-07-20 19:00 19.54 288000 928000 (1993) 68700 (1989) 238000 88100 107000 132000 153000 203000 281000 304000 433000 505000
2020-07-20 18:30 19.63 289000 928000 (1993) 68700 (1989) 238000 88100 107000 132000 153000 203000 281000 304000 433000 505000
2020-07-20 18:00 19.66 290000 928000 (1993) 68700 (1989) 238000 88100 107000 132000 153000 203000 281000 304000 433000 505000
2020-07-20 17:30 19.63 289000 928000 (1993) 68700 (1989) 238000 88100 107000 132000 153000 203000 281000 304000 433000 505000
2020-07-20 17:00 19.69 290000 928000 (1993) 68700 (1989) 238000 88100 107000 132000 153000 203000 281000 304000 433000 505000
2020-07-20 16:30 19.65 290000 928000 (1993) 68700 (1989) 238000 88100 107000 132000 153000 203000 281000 304000 433000 505000
2020-07-20 16:00 19.68 290000 928000 (1993) 68700 (1989) 238000 88100 107000 132000 153000 203000 281000 304000 433000 505000
2020-07-20 15:30 19.61 289000 928000 (1993) 68700 (1989) 238000 88100 107000 132000 153000 203000 281000 304000 433000 505000
2020-07-20 15:00 19.63 289000 928000 (1993) 68700 (1989) 238000 88100 107000 132000 153000 203000 281000 304000 433000 505000
2020-07-20 14:30 19.60 289000 928000 (1993) 68700 (1989) 238000 88100 107000 132000 153000 203000 281000 304000 433000 505000
2020-07-20 14:00 19.58 289000 928000 (1993) 68700 (1989) 238000 88100 107000 132000 153000 203000 281000 304000 433000 505000
2020-07-20 13:30 19.61 289000 928000 (1993) 68700 (1989) 238000 88100 107000 132000 153000 203000 281000 304000 433000 505000
2020-07-20 13:00 19.53 288000 928000 (1993) 68700 (1989) 238000 88100 107000 132000 153000 203000 281000 304000 433000 505000
2020-07-20 12:30 19.55 288000 928000 (1993) 68700 (1989) 238000 88100 107000 132000 153000 203000 281000 304000 433000 505000
2020-07-20 12:00 19.46 286000 928000 (1993) 68700 (1989) 238000 88100 107000 132000 153000 203000 281000 304000 433000 505000
2020-07-20 11:30 19.44 286000 928000 (1993) 68700 (1989) 238000 88100 107000 132000 153000 203000 281000 304000 433000 505000
2020-07-20 11:00 19.23 283000 928000 (1993) 68700 (1989) 238000 88100 107000 132000 153000 203000 281000 304000 433000 505000
2020-07-20 10:30 19.45 286000 928000 (1993) 68700 (1989) 238000 88100 107000 132000 153000 203000 281000 304000 433000 505000
2020-07-20 10:00 19.40 285000 928000 (1993) 68700 (1989) 238000 88100 107000 132000 153000 203000 281000 304000 433000 505000
2020-07-20 09:30 19.35 285000 928000 (1993) 68700 (1989) 238000 88100 107000 132000 153000 203000 281000 304000 433000 505000
2020-07-20 09:00 19.22 282000 928000 (1993) 68700 (1989) 238000 88100 107000 132000 153000 203000 281000 304000 433000 505000
2020-07-20 08:30 19.25 283000 928000 (1993) 68700 (1989) 238000 88100 107000 132000 153000 203000 281000 304000 433000 505000
2020-07-20 08:00 19.25 283000 928000 (1993) 68700 (1989) 238000 88100 107000 132000 153000 203000 281000 304000 433000 505000
2020-07-20 07:30 19.18 282000 928000 (1993) 68700 (1989) 238000 88100 107000 132000 153000 203000 281000 304000 433000 505000
2020-07-20 07:00 19.12 281000 928000 (1993) 68700 (1989) 238000 88100 107000 132000 153000 203000 281000 304000 433000 505000
2020-07-20 06:30 19.05 280000 928000 (1993) 68700 (1989) 238000 88100 107000 132000 153000 203000 281000 304000 433000 505000
2020-07-20 06:00 19.10 280000 928000 (1993) 68700 (1989) 238000 88100 107000 132000 153000 203000 281000 304000 433000 505000
2020-07-20 05:30 19.04 279000 928000 (1993) 68700 (1989) 238000 88100 107000 132000 153000 203000 281000 304000 433000 505000
2020-07-20 05:00 18.99 279000 928000 (1993) 68700 (1989) 238000 88100 107000 132000 153000 203000 281000 304000 433000 505000
2020-07-20 04:30 19.07 280000 928000 (1993) 68700 (1989) 238000 88100 107000 132000 153000 203000 281000 304000 433000 505000
2020-07-20 04:00 19.02 279000 928000 (1993) 68700 (1989) 238000 88100 107000 132000 153000 203000 281000 304000 433000 505000
2020-07-20 03:30 18.97 278000 928000 (1993) 68700 (1989) 238000 88100 107000 132000 153000 203000 281000 304000 433000 505000
2020-07-20 03:00 18.88 277000 928000 (1993) 68700 (1989) 238000 88100 107000 132000 153000 203000 281000 304000 433000 505000
2020-07-20 02:30 18.95 278000 928000 (1993) 68700 (1989) 238000 88100 107000 132000 153000 203000 281000 304000 433000 505000
2020-07-20 02:00 18.90 277000 928000 (1993) 68700 (1989) 238000 88100 107000 132000 153000 203000 281000 304000 433000 505000
2020-07-20 01:30 18.81 276000 928000 (1993) 68700 (1989) 238000 88100 107000 132000 153000 203000 281000 304000 433000 505000
2020-07-20 01:00 18.86 277000 928000 (1993) 68700 (1989) 238000 88100 107000 132000 153000 203000 281000 304000 433000 505000
2020-07-20 00:30 18.86 277000 928000 (1993) 68700 (1989) 238000 88100 107000 132000 153000 203000 281000 304000 433000 505000
2020-07-20 00:00 18.77 275000 928000 (1993) 68700 (1989) 238000 88100 107000 132000 153000 203000 281000 304000 433000 505000
2020-07-19 23:30 18.77 275000 909000 (1993) 68500 (1989) 243000 91000 108000 132000 155000 208000 284000 315000 440000 520000
2020-07-19 23:00 18.75 275000 909000 (1993) 68500 (1989) 243000 91000 108000 132000 155000 208000 284000 315000 440000 520000
2020-07-19 22:30 18.75 275000 909000 (1993) 68500 (1989) 243000 91000 108000 132000 155000 208000 284000 315000 440000 520000
2020-07-19 22:00 18.75 275000 909000 (1993) 68500 (1989) 243000 91000 108000 132000 155000 208000 284000 315000 440000 520000
2020-07-19 21:30 18.82 276000 909000 (1993) 68500 (1989) 243000 91000 108000 132000 155000 208000 284000 315000 440000 520000
2020-07-19 21:00 18.54 271000 909000 (1993) 68500 (1989) 243000 91000 108000 132000 155000 208000 284000 315000 440000 520000
2020-07-19 20:30 18.70 274000 909000 (1993) 68500 (1989) 243000 91000 108000 132000 155000 208000 284000 315000 440000 520000
2020-07-19 20:00 18.64 273000 909000 (1993) 68500 (1989) 243000 91000 108000 132000 155000 208000 284000 315000 440000 520000
2020-07-19 19:30 18.65 273000 909000 (1993) 68500 (1989) 243000 91000 108000 132000 155000 208000 284000 315000 440000 520000
2020-07-19 19:00 18.64 273000 909000 (1993) 68500 (1989) 243000 91000 108000 132000 155000 208000 284000 315000 440000 520000
2020-07-19 18:30 18.70 274000 909000 (1993) 68500 (1989) 243000 91000 108000 132000 155000 208000 284000 315000 440000 520000
2020-07-19 18:00 18.62 273000 909000 (1993) 68500 (1989) 243000 91000 108000 132000 155000 208000 284000 315000 440000 520000
2020-07-19 17:30 18.63 273000 909000 (1993) 68500 (1989) 243000 91000 108000 132000 155000 208000 284000 315000 440000 520000
2020-07-19 17:00 18.58 272000 909000 (1993) 68500 (1989) 243000 91000 108000 132000 155000 208000 284000 315000 440000 520000
2020-07-19 16:30 18.47 270000 909000 (1993) 68500 (1989) 243000 91000 108000 132000 155000 208000 284000 315000 440000 520000
2020-07-19 16:00 18.58 272000 909000 (1993) 68500 (1989) 243000 91000 108000 132000 155000 208000 284000 315000 440000 520000
2020-07-19 15:30 18.45 270000 909000 (1993) 68500 (1989) 243000 91000 108000 132000 155000 208000 284000 315000 440000 520000
2020-07-19 15:00 18.31 268000 909000 (1993) 68500 (1989) 243000 91000 108000 132000 155000 208000 284000 315000 440000 520000
2020-07-19 14:30 18.30 267000 909000 (1993) 68500 (1989) 243000 91000 108000 132000 155000 208000 284000 315000 440000 520000
2020-07-19 14:00 18.28 267000 909000 (1993) 68500 (1989) 243000 91000 108000 132000 155000 208000 284000 315000 440000 520000
2020-07-19 13:30 18.20 266000 909000 (1993) 68500 (1989) 243000 91000 108000 132000 155000 208000 284000 315000 440000 520000
2020-07-19 13:00 18.09 264000 909000 (1993) 68500 (1989) 243000 91000 108000 132000 155000 208000 284000 315000 440000 520000
2020-07-19 12:30 18.19 266000 909000 (1993) 68500 (1989) 243000 91000 108000 132000 155000 208000 284000 315000 440000 520000
2020-07-19 12:00 18.10 264000 909000 (1993) 68500 (1989) 243000 91000 108000 132000 155000 208000 284000 315000 440000 520000
2020-07-19 11:30 18.00 263000 909000 (1993) 68500 (1989) 243000 91000 108000 132000 155000 208000 284000 315000 440000 520000
2020-07-19 11:00 18.06 264000 909000 (1993) 68500 (1989) 243000 91000 108000 132000 155000 208000 284000 315000 440000 520000
2020-07-19 10:30 18.03 263000 909000 (1993) 68500 (1989) 243000 91000 108000 132000 155000 208000 284000 315000 440000 520000
2020-07-19 10:00 17.98 262000 909000 (1993) 68500 (1989) 243000 91000 108000 132000 155000 208000 284000 315000 440000 520000
2020-07-19 09:30 17.81 260000 909000 (1993) 68500 (1989) 243000 91000 108000 132000 155000 208000 284000 315000 440000 520000
2020-07-19 09:00 17.93 261000 909000 (1993) 68500 (1989) 243000 91000 108000 132000 155000 208000 284000 315000 440000 520000
2020-07-19 08:30 17.90 261000 909000 (1993) 68500 (1989) 243000 91000 108000 132000 155000 208000 284000 315000 440000 520000
2020-07-19 08:00 17.81 260000 909000 (1993) 68500 (1989) 243000 91000 108000 132000 155000 208000 284000 315000 440000 520000
2020-07-19 07:30 17.65 257000 909000 (1993) 68500 (1989) 243000 91000 108000 132000 155000 208000 284000 315000 440000 520000
2020-07-19 07:00 17.63 257000 909000 (1993) 68500 (1989) 243000 91000 108000 132000 155000 208000 284000 315000 440000 520000
2020-07-19 06:30 17.68 258000 909000 (1993) 68500 (1989) 243000 91000 108000 132000 155000 208000 284000 315000 440000 520000
2020-07-19 06:00 17.72 258000 909000 (1993) 68500 (1989) 243000 91000 108000 132000 155000 208000 284000 315000 440000 520000
2020-07-19 05:30 17.66 257000 909000 (1993) 68500 (1989) 243000 91000 108000 132000 155000 208000 284000 315000 440000 520000
2020-07-19 05:00 17.66 257000 909000 (1993) 68500 (1989) 243000 91000 108000 132000 155000 208000 284000 315000 440000 520000
2020-07-19 04:30 17.62 257000 909000 (1993) 68500 (1989) 243000 91000 108000 132000 155000 208000 284000 315000 440000 520000
2020-07-19 04:00 17.68 258000 909000 (1993) 68500 (1989) 243000 91000 108000 132000 155000 208000 284000 315000 440000 520000
2020-07-19 03:30 17.70 258000 909000 (1993) 68500 (1989) 243000 91000 108000 132000 155000 208000 284000 315000 440000 520000
2020-07-19 03:00 17.72 258000 909000 (1993) 68500 (1989) 243000 91000 108000 132000 155000 208000 284000 315000 440000 520000
2020-07-19 02:30 17.68 258000 909000 (1993) 68500 (1989) 243000 91000 108000 132000 155000 208000 284000 315000 440000 520000
2020-07-19 02:00 17.56 256000 909000 (1993) 68500 (1989) 243000 91000 108000 132000 155000 208000 284000 315000 440000 520000
2020-07-19 01:30 17.68 258000 909000 (1993) 68500 (1989) 243000 91000 108000 132000 155000 208000 284000 315000 440000 520000
2020-07-19 01:00 17.66 257000 909000 (1993) 68500 (1989) 243000 91000 108000 132000 155000 208000 284000 315000 440000 520000
2020-07-19 00:30 17.58 256000 909000 (1993) 68500 (1989) 243000 91000 108000 132000 155000 208000 284000 315000 440000 520000
2020-07-19 00:00 17.54 255000 909000 (1993) 68500 (1989) 243000 91000 108000 132000 155000 208000 284000 315000 440000 520000
2020-07-18 23:30 17.64 257000 874000 (1993) 69200 (1989) 250000 95300 110000 135000 159000 212000 299000 324000 459000 551000
2020-07-18 23:00 17.54 255000 874000 (1993) 69200 (1989) 250000 95300 110000 135000 159000 212000 299000 324000 459000 551000
2020-07-18 22:30 17.59 256000 874000 (1993) 69200 (1989) 250000 95300 110000 135000 159000 212000 299000 324000 459000 551000
2020-07-18 22:00 17.59 256000 874000 (1993) 69200 (1989) 250000 95300 110000 135000 159000 212000 299000 324000 459000 551000
2020-07-18 21:30 17.48 254000 874000 (1993) 69200 (1989) 250000 95300 110000 135000 159000 212000 299000 324000 459000 551000
2020-07-18 21:00 17.54 255000 874000 (1993) 69200 (1989) 250000 95300 110000 135000 159000 212000 299000 324000 459000 551000
2020-07-18 20:30 17.54 255000 874000 (1993) 69200 (1989) 250000 95300 110000 135000 159000 212000 299000 324000 459000 551000
2020-07-18 20:00 17.61 256000 874000 (1993) 69200 (1989) 250000 95300 110000 135000 159000 212000 299000 324000 459000 551000
2020-07-18 19:30 17.67 257000 874000 (1993) 69200 (1989) 250000 95300 110000 135000 159000 212000 299000 324000 459000 551000
2020-07-18 19:00 17.57 256000 874000 (1993) 69200 (1989) 250000 95300 110000 135000 159000 212000 299000 324000 459000 551000
2020-07-18 18:30 17.52 255000 874000 (1993) 69200 (1989) 250000 95300 110000 135000 159000 212000 299000 324000 459000 551000
2020-07-18 18:00 17.41 253000 874000 (1993) 69200 (1989) 250000 95300 110000 135000 159000 212000 299000 324000 459000 551000
2020-07-18 17:30 17.61 256000 874000 (1993) 69200 (1989) 250000 95300 110000 135000 159000 212000 299000 324000 459000 551000
2020-07-18 17:00 17.46 254000 874000 (1993) 69200 (1989) 250000 95300 110000 135000 159000 212000 299000 324000 459000 551000
2020-07-18 16:30 17.49 255000 874000 (1993) 69200 (1989) 250000 95300 110000 135000 159000 212000 299000 324000 459000 551000
2020-07-18 16:00 17.48 254000 874000 (1993) 69200 (1989) 250000 95300 110000 135000 159000 212000 299000 324000 459000 551000
2020-07-18 15:30 17.45 254000 874000 (1993) 69200 (1989) 250000 95300 110000 135000 159000 212000 299000 324000 459000 551000
2020-07-18 15:00 17.44 254000 874000 (1993) 69200 (1989) 250000 95300 110000 135000 159000 212000 299000 324000 459000 551000
2020-07-18 14:30 17.41 253000 874000 (1993) 69200 (1989) 250000 95300 110000 135000 159000 212000 299000 324000 459000 551000
2020-07-18 14:00 17.33 252000 874000 (1993) 69200 (1989) 250000 95300 110000 135000 159000 212000 299000 324000 459000 551000
2020-07-18 13:30 17.31 252000 874000 (1993) 69200 (1989) 250000 95300 110000 135000 159000 212000 299000 324000 459000 551000
2020-07-18 13:00 17.30 252000 874000 (1993) 69200 (1989) 250000 95300 110000 135000 159000 212000 299000 324000 459000 551000
2020-07-18 12:30 17.34 252000 874000 (1993) 69200 (1989) 250000 95300 110000 135000 159000 212000 299000 324000 459000 551000
2020-07-18 12:00 17.10 249000 874000 (1993) 69200 (1989) 250000 95300 110000 135000 159000 212000 299000 324000 459000 551000
2020-07-18 11:30 17.28 251000 874000 (1993) 69200 (1989) 250000 95300 110000 135000 159000 212000 299000 324000 459000 551000
2020-07-18 11:00 17.14 249000 874000 (1993) 69200 (1989) 250000 95300 110000 135000 159000 212000 299000 324000 459000 551000
2020-07-18 10:30 17.20 250000 874000 (1993) 69200 (1989) 250000 95300 110000 135000 159000 212000 299000 324000 459000 551000
2020-07-18 10:00 17.10 249000 874000 (1993) 69200 (1989) 250000 95300 110000 135000 159000 212000 299000 324000 459000 551000
2020-07-18 09:30 17.00 247000 874000 (1993) 69200 (1989) 250000 95300 110000 135000 159000 212000 299000 324000 459000 551000
2020-07-18 09:00 17.08 248000 874000 (1993) 69200 (1989) 250000 95300 110000 135000 159000 212000 299000 324000 459000 551000
2020-07-18 08:30 17.12 249000 874000 (1993) 69200 (1989) 250000 95300 110000 135000 159000 212000 299000 324000 459000 551000
2020-07-18 08:00 17.14 249000 874000 (1993) 69200 (1989) 250000 95300 110000 135000 159000 212000 299000 324000 459000 551000
2020-07-18 07:30 17.04 248000 874000 (1993) 69200 (1989) 250000 95300 110000 135000 159000 212000 299000 324000 459000 551000
2020-07-18 07:00 17.03 247000 874000 (1993) 69200 (1989) 250000 95300 110000 135000 159000 212000 299000 324000 459000 551000
2020-07-18 06:30 16.96 246000 874000 (1993) 69200 (1989) 250000 95300 110000 135000 159000 212000 299000 324000 459000 551000
2020-07-18 06:00 16.94 246000 874000 (1993) 69200 (1989) 250000 95300 110000 135000 159000 212000 299000 324000 459000 551000
2020-07-18 05:30 16.98 247000 874000 (1993) 69200 (1989) 250000 95300 110000 135000 159000 212000 299000 324000 459000 551000
2020-07-18 05:00 16.93 246000 874000 (1993) 69200 (1989) 250000 95300 110000 135000 159000 212000 299000 324000 459000 551000
2020-07-18 04:30 16.95 246000 874000 (1993) 69200 (1989) 250000 95300 110000 135000 159000 212000 299000 324000 459000 551000
2020-07-18 04:00 16.95 246000 874000 (1993) 69200 (1989) 250000 95300 110000 135000 159000 212000 299000 324000 459000 551000
2020-07-18 03:30 16.92 246000 874000 (1993) 69200 (1989) 250000 95300 110000 135000 159000 212000 299000 324000 459000 551000
2020-07-18 03:00 16.94 246000 874000 (1993) 69200 (1989) 250000 95300 110000 135000 159000 212000 299000 324000 459000 551000
2020-07-18 02:30 16.80 244000 874000 (1993) 69200 (1989) 250000 95300 110000 135000 159000 212000 299000 324000 459000 551000
2020-07-18 02:00 16.93 246000 874000 (1993) 69200 (1989) 250000 95300 110000 135000 159000 212000 299000 324000 459000 551000
2020-07-18 01:30 16.85 245000 874000 (1993) 69200 (1989) 250000 95300 110000 135000 159000 212000 299000 324000 459000 551000
2020-07-18 01:00 16.93 246000 874000 (1993) 69200 (1989) 250000 95300 110000 135000 159000 212000 299000 324000 459000 551000
2020-07-18 00:30 16.81 244000 874000 (1993) 69200 (1989) 250000 95300 110000 135000 159000 212000 299000 324000 459000 551000
2020-07-18 00:00 16.80 244000 874000 (1993) 69200 (1989) 250000 95300 110000 135000 159000 212000 299000 324000 459000 551000
2020-07-17 23:30 16.77 243000 845000 (1993) 72600 (1988) 254000 94000 112000 133000 165000 220000 304000 321000 462000 579000
2020-07-17 23:00 16.85 245000 845000 (1993) 72600 (1988) 254000 94000 112000 133000 165000 220000 304000 321000 462000 579000
2020-07-17 22:30 16.81 244000 845000 (1993) 72600 (1988) 254000 94000 112000 133000 165000 220000 304000 321000 462000 579000
2020-07-17 22:00 16.85 245000 845000 (1993) 72600 (1988) 254000 94000 112000 133000 165000 220000 304000 321000 462000 579000
2020-07-17 21:30 16.79 244000 845000 (1993) 72600 (1988) 254000 94000 112000 133000 165000 220000 304000 321000 462000 579000
2020-07-17 21:00 16.84 245000 845000 (1993) 72600 (1988) 254000 94000 112000 133000 165000 220000 304000 321000 462000 579000
2020-07-17 20:30 16.80 244000 845000 (1993) 72600 (1988) 254000 94000 112000 133000 165000 220000 304000 321000 462000 579000
2020-07-17 20:00 16.79 244000 845000 (1993) 72600 (1988) 254000 94000 112000 133000 165000 220000 304000 321000 462000 579000
2020-07-17 19:30 16.65 242000 845000 (1993) 72600 (1988) 254000 94000 112000 133000 165000 220000 304000 321000 462000 579000
2020-07-17 19:00 16.63 241000 845000 (1993) 72600 (1988) 254000 94000 112000 133000 165000 220000 304000 321000 462000 579000
2020-07-17 18:30 16.82 244000 845000 (1993) 72600 (1988) 254000 94000 112000 133000 165000 220000 304000 321000 462000 579000
2020-07-17 18:00 16.67 242000 845000 (1993) 72600 (1988) 254000 94000 112000 133000 165000 220000 304000 321000 462000 579000
2020-07-17 17:30 16.74 243000 845000 (1993) 72600 (1988) 254000 94000 112000 133000 165000 220000 304000 321000 462000 579000
2020-07-17 17:00 16.68 242000 845000 (1993) 72600 (1988) 254000 94000 112000 133000 165000 220000 304000 321000 462000 579000
2020-07-17 16:30 16.78 244000 845000 (1993) 72600 (1988) 254000 94000 112000 133000 165000 220000 304000 321000 462000 579000
2020-07-17 16:00 16.76 243000 845000 (1993) 72600 (1988) 254000 94000 112000 133000 165000 220000 304000 321000 462000 579000
2020-07-17 15:30 16.79 244000 845000 (1993) 72600 (1988) 254000 94000 112000 133000 165000 220000 304000 321000 462000 579000
2020-07-17 15:00 16.81 244000 845000 (1993) 72600 (1988) 254000 94000 112000 133000 165000 220000 304000 321000 462000 579000
2020-07-17 14:30 16.75 243000 845000 (1993) 72600 (1988) 254000 94000 112000 133000 165000 220000 304000 321000 462000 579000
2020-07-17 14:00 16.68 242000 845000 (1993) 72600 (1988) 254000 94000 112000 133000 165000 220000 304000 321000 462000 579000
2020-07-17 13:30 16.73 243000 845000 (1993) 72600 (1988) 254000 94000 112000 133000 165000 220000 304000 321000 462000 579000
2020-07-17 13:00 16.73 243000 845000 (1993) 72600 (1988) 254000 94000 112000 133000 165000 220000 304000 321000 462000 579000
2020-07-17 12:30 16.68 242000 845000 (1993) 72600 (1988) 254000 94000 112000 133000 165000 220000 304000 321000 462000 579000
2020-07-17 12:00 16.63 241000 845000 (1993) 72600 (1988) 254000 94000 112000 133000 165000 220000 304000 321000 462000 579000
2020-07-17 11:30 16.63 241000 845000 (1993) 72600 (1988) 254000 94000 112000 133000 165000 220000 304000 321000 462000 579000
2020-07-17 11:00 16.53 240000 845000 (1993) 72600 (1988) 254000 94000 112000 133000 165000 220000 304000 321000 462000 579000
2020-07-17 10:30 16.62 241000 845000 (1993) 72600 (1988) 254000 94000 112000 133000 165000 220000 304000 321000 462000 579000
2020-07-17 10:00 16.59 241000 845000 (1993) 72600 (1988) 254000 94000 112000 133000 165000 220000 304000 321000 462000 579000
2020-07-17 09:30 16.61 241000 845000 (1993) 72600 (1988) 254000 94000 112000 133000 165000 220000 304000 321000 462000 579000
2020-07-17 09:00 16.49 239000 845000 (1993) 72600 (1988) 254000 94000 112000 133000 165000 220000 304000 321000 462000 579000
2020-07-17 08:30 16.56 240000 845000 (1993) 72600 (1988) 254000 94000 112000 133000 165000 220000 304000 321000 462000 579000
2020-07-17 08:00 16.53 240000 845000 (1993) 72600 (1988) 254000 94000 112000 133000 165000 220000 304000 321000 462000 579000
2020-07-17 07:30 16.43 238000 845000 (1993) 72600 (1988) 254000 94000 112000 133000 165000 220000 304000 321000 462000 579000
2020-07-17 07:00 16.50 239000 845000 (1993) 72600 (1988) 254000 94000 112000 133000 165000 220000 304000 321000 462000 579000
2020-07-17 06:30 16.47 239000 845000 (1993) 72600 (1988) 254000 94000 112000 133000 165000 220000 304000 321000 462000 579000
2020-07-17 06:00 16.57 240000 845000 (1993) 72600 (1988) 254000 94000 112000 133000 165000 220000 304000 321000 462000 579000
2020-07-17 05:30 16.58 241000 845000 (1993) 72600 (1988) 254000 94000 112000 133000 165000 220000 304000 321000 462000 579000
2020-07-17 05:00 16.42 238000 845000 (1993) 72600 (1988) 254000 94000 112000 133000 165000 220000 304000 321000 462000 579000
2020-07-17 04:30 16.47 239000 845000 (1993) 72600 (1988) 254000 94000 112000 133000 165000 220000 304000 321000 462000 579000
2020-07-17 04:00 16.54 240000 845000 (1993) 72600 (1988) 254000 94000 112000 133000 165000 220000 304000 321000 462000 579000
2020-07-17 03:30 16.59 241000 845000 (1993) 72600 (1988) 254000 94000 112000 133000 165000 220000 304000 321000 462000 579000
2020-07-17 03:00 16.56 240000 845000 (1993) 72600 (1988) 254000 94000 112000 133000 165000 220000 304000 321000 462000 579000
2020-07-17 02:30 16.56 240000 845000 (1993) 72600 (1988) 254000 94000 112000 133000 165000 220000 304000 321000 462000 579000
2020-07-17 02:00 16.55 240000 845000 (1993) 72600 (1988) 254000 94000 112000 133000 165000 220000 304000 321000 462000 579000
2020-07-17 01:30 16.62 241000 845000 (1993) 72600 (1988) 254000 94000 112000 133000 165000 220000 304000 321000 462000 579000
2020-07-17 01:00 16.66 242000 845000 (1993) 72600 (1988) 254000 94000 112000 133000 165000 220000 304000 321000 462000 579000
2020-07-17 00:30 16.61 241000 845000 (1993) 72600 (1988) 254000 94000 112000 133000 165000 220000 304000 321000 462000 579000
2020-07-17 00:00 16.64 242000 845000 (1993) 72600 (1988) 254000 94000 112000 133000 165000 220000 304000 321000 462000 579000
2020-07-16 23:30 16.53 240000 823000 (1993) 73200 (1988) 256000 95200 105000 136000 166000 222000 295000 322000 470000 593000
2020-07-16 23:00 16.64 242000 823000 (1993) 73200 (1988) 256000 95200 105000 136000 166000 222000 295000 322000 470000 593000
2020-07-16 22:30 16.64 242000 823000 (1993) 73200 (1988) 256000 95200 105000 136000 166000 222000 295000 322000 470000 593000
2020-07-16 22:00 16.73 243000 823000 (1993) 73200 (1988) 256000 95200 105000 136000 166000 222000 295000 322000 470000 593000
2020-07-16 21:30 16.59 241000 823000 (1993) 73200 (1988) 256000 95200 105000 136000 166000 222000 295000 322000 470000 593000
2020-07-16 21:00 16.83 244000 823000 (1993) 73200 (1988) 256000 95200 105000 136000 166000 222000 295000 322000 470000 593000
2020-07-16 20:30 16.63 241000 823000 (1993) 73200 (1988) 256000 95200 105000 136000 166000 222000 295000 322000 470000 593000
2020-07-16 20:00 16.85 245000 823000 (1993) 73200 (1988) 256000 95200 105000 136000 166000 222000 295000 322000 470000 593000
2020-07-16 19:30 16.85 245000 823000 (1993) 73200 (1988) 256000 95200 105000 136000 166000 222000 295000 322000 470000 593000
2020-07-16 19:00 16.88 245000 823000 (1993) 73200 (1988) 256000 95200 105000 136000 166000 222000 295000 322000 470000 593000
2020-07-16 18:30 16.84 245000 823000 (1993) 73200 (1988) 256000 95200 105000 136000 166000 222000 295000 322000 470000 593000
2020-07-16 18:00 16.89 245000 823000 (1993) 73200 (1988) 256000 95200 105000 136000 166000 222000 295000 322000 470000 593000
2020-07-16 17:30 16.89 245000 823000 (1993) 73200 (1988) 256000 95200 105000 136000 166000 222000 295000 322000 470000 593000
2020-07-16 17:00 16.90 245000 823000 (1993) 73200 (1988) 256000 95200 105000 136000 166000 222000 295000 322000 470000 593000
2020-07-16 16:30 16.88 245000 823000 (1993) 73200 (1988) 256000 95200 105000 136000 166000 222000 295000 322000 470000 593000
2020-07-16 16:00 16.98 247000 823000 (1993) 73200 (1988) 256000 95200 105000 136000 166000 222000 295000 322000 470000 593000
2020-07-16 15:30 16.91 246000 823000 (1993) 73200 (1988) 256000 95200 105000 136000 166000 222000 295000 322000 470000 593000
2020-07-16 15:00 16.95 246000 823000 (1993) 73200 (1988) 256000 95200 105000 136000 166000 222000 295000 322000 470000 593000
2020-07-16 14:30 16.94 246000 823000 (1993) 73200 (1988) 256000 95200 105000 136000 166000 222000 295000 322000 470000 593000
2020-07-16 14:00 16.90 245000 823000 (1993) 73200 (1988) 256000 95200 105000 136000 166000 222000 295000 322000 470000 593000
2020-07-16 13:30 16.91 246000 823000 (1993) 73200 (1988) 256000 95200 105000 136000 166000 222000 295000 322000 470000 593000
2020-07-16 13:00 16.91 246000 823000 (1993) 73200 (1988) 256000 95200 105000 136000 166000 222000 295000 322000 470000 593000
2020-07-16 12:30 16.92 246000 823000 (1993) 73200 (1988) 256000 95200 105000 136000 166000 222000 295000 322000 470000 593000
2020-07-16 12:00 16.93 246000 823000 (1993) 73200 (1988) 256000 95200 105000 136000 166000 222000 295000 322000 470000 593000
2020-07-16 11:30 16.90 245000 823000 (1993) 73200 (1988) 256000 95200 105000 136000 166000 222000 295000 322000 470000 593000
2020-07-16 11:00 16.92 246000 823000 (1993) 73200 (1988) 256000 95200 105000 136000 166000 222000 295000 322000 470000 593000
2020-07-16 10:30 16.95 246000 823000 (1993) 73200 (1988) 256000 95200 105000 136000 166000 222000 295000 322000 470000 593000
2020-07-16 10:00 16.90 245000 823000 (1993) 73200 (1988) 256000 95200 105000 136000 166000 222000 295000 322000 470000 593000
2020-07-16 09:30 16.91 246000 823000 (1993) 73200 (1988) 256000 95200 105000 136000 166000 222000 295000 322000 470000 593000
2020-07-16 09:00 16.80 244000 823000 (1993) 73200 (1988) 256000 95200 105000 136000 166000 222000 295000 322000 470000 593000
2020-07-16 08:30 16.85 245000 823000 (1993) 73200 (1988) 256000 95200 105000 136000 166000 222000 295000 322000 470000 593000
2020-07-16 08:00 16.86 245000 823000 (1993) 73200 (1988) 256000 95200 105000 136000 166000 222000 295000 322000 470000 593000
2020-07-16 07:30 16.68 242000 823000 (1993) 73200 (1988) 256000 95200 105000 136000 166000 222000 295000 322000 470000 593000
2020-07-16 07:00 16.84 245000 823000 (1993) 73200 (1988) 256000 95200 105000 136000 166000 222000 295000 322000 470000 593000
2020-07-16 06:30 16.90 245000 823000 (1993) 73200 (1988) 256000 95200 105000 136000 166000 222000 295000 322000 470000 593000
2020-07-16 05:30 16.97 247000 823000 (1993) 73200 (1988) 256000 95200 105000 136000 166000 222000 295000 322000 470000 593000
2020-07-16 05:00 16.87 245000 823000 (1993) 73200 (1988) 256000 95200 105000 136000 166000 222000 295000 322000 470000 593000
2020-07-16 04:30 16.92 246000 823000 (1993) 73200 (1988) 256000 95200 105000 136000 166000 222000 295000 322000 470000 593000
2020-07-16 04:00 16.83 244000 823000 (1993) 73200 (1988) 256000 95200 105000 136000 166000 222000 295000 322000 470000 593000
2020-07-16 03:30 16.96 246000 823000 (1993) 73200 (1988) 256000 95200 105000 136000 166000 222000 295000 322000 470000 593000
2020-07-16 03:00 16.92 246000 823000 (1993) 73200 (1988) 256000 95200 105000 136000 166000 222000 295000 322000 470000 593000
2020-07-16 02:30 16.90 245000 823000 (1993) 73200 (1988) 256000 95200 105000 136000 166000 222000 295000 322000 470000 593000
2020-07-16 02:00 16.82 244000 823000 (1993) 73200 (1988) 256000 95200 105000 136000 166000 222000 295000 322000 470000 593000
2020-07-16 01:30 16.87 245000 823000 (1993) 73200 (1988) 256000 95200 105000 136000 166000 222000 295000 322000 470000 593000
2020-07-16 01:00 16.84 245000 823000 (1993) 73200 (1988) 256000 95200 105000 136000 166000 222000 295000 322000 470000 593000
2020-07-16 00:30 16.87 245000 823000 (1993) 73200 (1988) 256000 95200 105000 136000 166000 222000 295000 322000 470000 593000
2020-07-16 00:00 16.76 243000 823000 (1993) 73200 (1988) 256000 95200 105000 136000 166000 222000 295000 322000 470000 593000
2020-07-15 23:30 16.82 244000 813000 (1993) 75200 (1988) 259000 97000 106000 138000 166000 227000 290000 327000 480000 597000
2020-07-15 23:00 16.73 243000 813000 (1993) 75200 (1988) 259000 97000 106000 138000 166000 227000 290000 327000 480000 597000
2020-07-15 22:30 16.70 242000 813000 (1993) 75200 (1988) 259000 97000 106000 138000 166000 227000 290000 327000 480000 597000
2020-07-15 22:00 16.71 243000 813000 (1993) 75200 (1988) 259000 97000 106000 138000 166000 227000 290000 327000 480000 597000
2020-07-15 21:30 16.64 242000 813000 (1993) 75200 (1988) 259000 97000 106000 138000 166000 227000 290000 327000 480000 597000
2020-07-15 21:00 16.65 813000 (1993) 75200 (1988) 259000 97000 106000 138000 166000 227000 290000 327000 480000 597000
2020-07-15 20:30 240000 813000 (1993) 75200 (1988) 259000 97000 106000 138000 166000 227000 290000 327000 480000 597000
2020-07-15 20:00 16.59 241000 813000 (1993) 75200 (1988) 259000 97000 106000 138000 166000 227000 290000 327000 480000 597000
2020-07-15 19:30 16.54 240000 813000 (1993) 75200 (1988) 259000 97000 106000 138000 166000 227000 290000 327000 480000 597000
2020-07-15 19:00 16.51 240000 813000 (1993) 75200 (1988) 259000 97000 106000 138000 166000 227000 290000 327000 480000 597000
2020-07-15 18:30 16.44 239000 813000 (1993) 75200 (1988) 259000 97000 106000 138000 166000 227000 290000 327000 480000 597000
2020-07-15 18:00 16.50 239000 813000 (1993) 75200 (1988) 259000 97000 106000 138000 166000 227000 290000 327000 480000 597000
2020-07-15 17:30 16.39 238000 813000 (1993) 75200 (1988) 259000 97000 106000 138000 166000 227000 290000 327000 480000 597000
2020-07-15 17:00 16.53 240000 813000 (1993) 75200 (1988) 259000 97000 106000 138000 166000 227000 290000 327000 480000 597000
2020-07-15 16:30 16.51 240000 813000 (1993) 75200 (1988) 259000 97000 106000 138000 166000 227000 290000 327000 480000 597000
2020-07-15 16:00 16.49 239000 813000 (1993) 75200 (1988) 259000 97000 106000 138000 166000 227000 290000 327000 480000 597000
2020-07-15 15:30 16.44 239000 813000 (1993) 75200 (1988) 259000 97000 106000 138000 166000 227000 290000 327000 480000 597000
2020-07-15 15:00 16.54 240000 813000 (1993) 75200 (1988) 259000 97000 106000 138000 166000 227000 290000 327000 480000 597000
2020-07-15 14:30 16.48 239000 813000 (1993) 75200 (1988) 259000 97000 106000 138000 166000 227000 290000 327000 480000 597000
2020-07-15 14:00 16.49 239000 813000 (1993) 75200 (1988) 259000 97000 106000 138000 166000 227000 290000 327000 480000 597000
2020-07-15 13:30 16.47 239000 813000 (1993) 75200 (1988) 259000 97000 106000 138000 166000 227000 290000 327000 480000 597000
2020-07-15 09:30 16.95 246000 813000 (1993) 75200 (1988) 259000 97000 106000 138000 166000 227000 290000 327000 480000 597000
2020-07-15 09:00 16.93 246000 813000 (1993) 75200 (1988) 259000 97000 106000 138000 166000 227000 290000 327000 480000 597000
2020-07-15 08:30 17.01 247000 813000 (1993) 75200 (1988) 259000 97000 106000 138000 166000 227000 290000 327000 480000 597000
2020-07-15 08:00 16.97 247000 813000 (1993) 75200 (1988) 259000 97000 106000 138000 166000 227000 290000 327000 480000 597000
2020-07-15 07:30 17.01 247000 813000 (1993) 75200 (1988) 259000 97000 106000 138000 166000 227000 290000 327000 480000 597000
2020-07-15 07:00 17.00 247000 813000 (1993) 75200 (1988) 259000 97000 106000 138000 166000 227000 290000 327000 480000 597000
2020-07-15 06:30 17.05 248000 813000 (1993) 75200 (1988) 259000 97000 106000 138000 166000 227000 290000 327000 480000 597000
2020-07-15 06:00 17.04 248000 813000 (1993) 75200 (1988) 259000 97000 106000 138000 166000 227000 290000 327000 480000 597000
2020-07-15 05:30 17.03 247000 813000 (1993) 75200 (1988) 259000 97000 106000 138000 166000 227000 290000 327000 480000 597000
2020-07-15 05:00 16.98 247000 813000 (1993) 75200 (1988) 259000 97000 106000 138000 166000 227000 290000 327000 480000 597000
2020-07-15 04:30 17.03 247000 813000 (1993) 75200 (1988) 259000 97000 106000 138000 166000 227000 290000 327000 480000 597000
2020-07-15 04:00 17.05 248000 813000 (1993) 75200 (1988) 259000 97000 106000 138000 166000 227000 290000 327000 480000 597000
2020-07-15 03:30 17.10 249000 813000 (1993) 75200 (1988) 259000 97000 106000 138000 166000 227000 290000 327000 480000 597000
2020-07-15 03:00 17.04 248000 813000 (1993) 75200 (1988) 259000 97000 106000 138000 166000 227000 290000 327000 480000 597000
2020-07-15 02:30 17.06 248000 813000 (1993) 75200 (1988) 259000 97000 106000 138000 166000 227000 290000 327000 480000 597000
2020-07-15 02:00 17.03 247000 813000 (1993) 75200 (1988) 259000 97000 106000 138000 166000 227000 290000 327000 480000 597000
2020-07-15 01:30 17.06 248000 813000 (1993) 75200 (1988) 259000 97000 106000 138000 166000 227000 290000 327000 480000 597000
2020-07-15 01:00 17.09 248000 813000 (1993) 75200 (1988) 259000 97000 106000 138000 166000 227000 290000 327000 480000 597000
2020-07-15 00:30 17.10 249000 813000 (1993) 75200 (1988) 259000 97000 106000 138000 166000 227000 290000 327000 480000 597000
2020-07-15 00:00 17.07 248000 813000 (1993) 75200 (1988) 259000 97000 106000 138000 166000 227000 290000 327000 480000 597000
2020-07-14 23:30 17.19 250000 814000 (1993) 71800 (1988) 262000 90700 114000 142000 160000 227000 304000 345000 512000 601000
2020-07-14 23:00 17.12 249000 814000 (1993) 71800 (1988) 262000 90700 114000 142000 160000 227000 304000 345000 512000 601000
2020-07-14 22:30 17.07 248000 814000 (1993) 71800 (1988) 262000 90700 114000 142000 160000 227000 304000 345000 512000 601000
2020-07-14 22:00 17.13 249000 814000 (1993) 71800 (1988) 262000 90700 114000 142000 160000 227000 304000 345000 512000 601000
2020-07-14 21:30 17.12 249000 814000 (1993) 71800 (1988) 262000 90700 114000 142000 160000 227000 304000 345000 512000 601000
2020-07-14 21:00 17.08 248000 814000 (1993) 71800 (1988) 262000 90700 114000 142000 160000 227000 304000 345000 512000 601000
2020-07-14 20:30 17.12 249000 814000 (1993) 71800 (1988) 262000 90700 114000 142000 160000 227000 304000 345000 512000 601000
2020-07-14 20:00 17.19 250000 814000 (1993) 71800 (1988) 262000 90700 114000 142000 160000 227000 304000 345000 512000 601000
2020-07-14 19:30 17.18 250000 814000 (1993) 71800 (1988) 262000 90700 114000 142000 160000 227000 304000 345000 512000 601000
2020-07-14 19:00 17.17 250000 814000 (1993) 71800 (1988) 262000 90700 114000 142000 160000 227000 304000 345000 512000 601000
2020-07-14 18:30 17.21 250000 814000 (1993) 71800 (1988) 262000 90700 114000 142000 160000 227000 304000 345000 512000 601000
2020-07-14 18:00 17.20 250000 814000 (1993) 71800 (1988) 262000 90700 114000 142000 160000 227000 304000 345000 512000 601000
2020-07-14 17:30 17.28 251000 814000 (1993) 71800 (1988) 262000 90700 114000 142000 160000 227000 304000 345000 512000 601000
2020-07-14 17:00 17.25 251000 814000 (1993) 71800 (1988) 262000 90700 114000 142000 160000 227000 304000 345000 512000 601000
2020-07-14 16:30 17.17 250000 814000 (1993) 71800 (1988) 262000 90700 114000 142000 160000 227000 304000 345000 512000 601000
2020-07-14 16:00 17.23 251000 814000 (1993) 71800 (1988) 262000 90700 114000 142000 160000 227000 304000 345000 512000 601000
2020-07-14 15:30 17.15 249000 814000 (1993) 71800 (1988) 262000 90700 114000 142000 160000 227000 304000 345000 512000 601000
2020-07-14 15:00 17.25 251000 814000 (1993) 71800 (1988) 262000 90700 114000 142000 160000 227000 304000 345000 512000 601000
2020-07-14 14:30 17.22 250000 814000 (1993) 71800 (1988) 262000 90700 114000 142000 160000 227000 304000 345000 512000 601000
2020-07-14 14:00 17.26 251000 814000 (1993) 71800 (1988) 262000 90700 114000 142000 160000 227000 304000 345000 512000 601000
2020-07-14 13:30 17.24 251000 814000 (1993) 71800 (1988) 262000 90700 114000 142000 160000 227000 304000 345000 512000 601000
2020-07-14 13:00 17.23 251000 814000 (1993) 71800 (1988) 262000 90700 114000 142000 160000 227000 304000 345000 512000 601000
2020-07-14 12:30 17.08 248000 814000 (1993) 71800 (1988) 262000 90700 114000 142000 160000 227000 304000 345000 512000 601000
2020-07-14 12:00 17.26 251000 814000 (1993) 71800 (1988) 262000 90700 114000 142000 160000 227000 304000 345000 512000 601000
2020-07-14 11:30 17.19 250000 814000 (1993) 71800 (1988) 262000 90700 114000 142000 160000 227000 304000 345000 512000 601000
2020-07-14 11:00 17.22 250000 814000 (1993) 71800 (1988) 262000 90700 114000 142000 160000 227000 304000 345000 512000 601000
2020-07-14 10:30 17.22 250000 814000 (1993) 71800 (1988) 262000 90700 114000 142000 160000 227000 304000 345000 512000 601000
2020-07-14 10:00 17.30 252000 814000 (1993) 71800 (1988) 262000 90700 114000 142000 160000 227000 304000 345000 512000 601000
2020-07-14 09:30 17.27 251000 814000 (1993) 71800 (1988) 262000 90700 114000 142000 160000 227000 304000 345000 512000 601000
2020-07-14 09:00 17.30 252000 814000 (1993) 71800 (1988) 262000 90700 114000 142000 160000 227000 304000 345000 512000 601000
2020-07-14 08:30 17.25 251000 814000 (1993) 71800 (1988) 262000 90700 114000 142000 160000 227000 304000 345000 512000 601000
2020-07-14 08:00 17.22 250000 814000 (1993) 71800 (1988) 262000 90700 114000 142000 160000 227000 304000 345000 512000 601000
2020-07-14 07:30 17.14 249000 814000 (1993) 71800 (1988) 262000 90700 114000 142000 160000 227000 304000 345000 512000 601000
2020-07-14 07:00 17.12 249000 814000 (1993) 71800 (1988) 262000 90700 114000 142000 160000 227000 304000 345000 512000 601000
2020-07-14 06:30 17.19 250000 814000 (1993) 71800 (1988) 262000 90700 114000 142000 160000 227000 304000 345000 512000 601000
2020-07-14 06:00 17.22 250000 814000 (1993) 71800 (1988) 262000 90700 114000 142000 160000 227000 304000 345000 512000 601000
2020-07-14 05:30 17.27 251000 814000 (1993) 71800 (1988) 262000 90700 114000 142000 160000 227000 304000 345000 512000 601000
2020-07-14 05:00 17.15 249000 814000 (1993) 71800 (1988) 262000 90700 114000 142000 160000 227000 304000 345000 512000 601000
2020-07-14 04:30 17.13 249000 814000 (1993) 71800 (1988) 262000 90700 114000 142000 160000 227000 304000 345000 512000 601000
2020-07-14 04:00 17.16 249000 814000 (1993) 71800 (1988) 262000 90700 114000 142000 160000 227000 304000 345000 512000 601000
2020-07-14 03:30 17.28 251000 814000 (1993) 71800 (1988) 262000 90700 114000 142000 160000 227000 304000 345000 512000 601000
2020-07-14 03:00 17.30 252000 814000 (1993) 71800 (1988) 262000 90700 114000 142000 160000 227000 304000 345000 512000 601000
2020-07-14 02:30 17.33 252000 814000 (1993) 71800 (1988) 262000 90700 114000 142000 160000 227000 304000 345000 512000 601000
2020-07-14 02:00 17.40 253000 814000 (1993) 71800 (1988) 262000 90700 114000 142000 160000 227000 304000 345000 512000 601000
2020-07-14 01:30 17.38 253000 814000 (1993) 71800 (1988) 262000 90700 114000 142000 160000 227000 304000 345000 512000 601000
2020-07-14 01:00 17.29 251000 814000 (1993) 71800 (1988) 262000 90700 114000 142000 160000 227000 304000 345000 512000 601000
2020-07-14 00:30 17.37 253000 814000 (1993) 71800 (1988) 262000 90700 114000 142000 160000 227000 304000 345000 512000 601000
2020-07-14 00:00 17.36 253000 814000 (1993) 71800 (1988) 262000 90700 114000 142000 160000 227000 304000 345000 512000 601000
2020-07-13 23:30 17.45 254000 813000 (1993) 62500 (1988) 268000 88400 117000 146000 157000 229000 315000 370000 534000 613000
2020-07-13 23:00 17.47 254000 813000 (1993) 62500 (1988) 268000 88400 117000 146000 157000 229000 315000 370000 534000 613000
2020-07-13 22:30 17.35 252000 813000 (1993) 62500 (1988) 268000 88400 117000 146000 157000 229000 315000 370000 534000 613000
2020-07-13 22:00 17.47 254000 813000 (1993) 62500 (1988) 268000 88400 117000 146000 157000 229000 315000 370000 534000 613000
2020-07-13 21:30 17.54 255000 813000 (1993) 62500 (1988) 268000 88400 117000 146000 157000 229000 315000 370000 534000 613000
2020-07-13 21:00 17.38 253000 813000 (1993) 62500 (1988) 268000 88400 117000 146000 157000 229000 315000 370000 534000 613000
2020-07-13 20:30 17.44 254000 813000 (1993) 62500 (1988) 268000 88400 117000 146000 157000 229000 315000 370000 534000 613000
2020-07-13 20:00 17.64 257000 813000 (1993) 62500 (1988) 268000 88400 117000 146000 157000 229000 315000 370000 534000 613000
2020-07-13 19:30 17.68 258000 813000 (1993) 62500 (1988) 268000 88400 117000 146000 157000 229000 315000 370000 534000 613000
2020-07-13 19:00 17.70 258000 813000 (1993) 62500 (1988) 268000 88400 117000 146000 157000 229000 315000 370000 534000 613000
2020-07-13 18:30 17.66 257000 813000 (1993) 62500 (1988) 268000 88400 117000 146000 157000 229000 315000 370000 534000 613000
2020-07-13 18:00 17.74 258000 813000 (1993) 62500 (1988) 268000 88400 117000 146000 157000 229000 315000 370000 534000 613000
2020-07-13 17:30 17.81 260000 813000 (1993) 62500 (1988) 268000 88400 117000 146000 157000 229000 315000 370000 534000 613000
2020-07-13 17:00 17.63 257000 813000 (1993) 62500 (1988) 268000 88400 117000 146000 157000 229000 315000 370000 534000 613000
2020-07-13 16:30 17.79 259000 813000 (1993) 62500 (1988) 268000 88400 117000 146000 157000 229000 315000 370000 534000 613000
2020-07-13 16:00 17.78 259000 813000 (1993) 62500 (1988) 268000 88400 117000 146000 157000 229000 315000 370000 534000 613000
2020-07-13 15:30 17.75 255000 813000 (1993) 62500 (1988) 268000 88400 117000 146000 157000 229000 315000 370000 534000 613000
2020-07-13 15:00 17.75 255000 813000 (1993) 62500 (1988) 268000 88400 117000 146000 157000 229000 315000 370000 534000 613000
2020-07-13 14:30 17.72 254000 813000 (1993) 62500 (1988) 268000 88400 117000 146000 157000 229000 315000 370000 534000 613000
2020-07-13 14:00 17.76 255000 813000 (1993) 62500 (1988) 268000 88400 117000 146000 157000 229000 315000 370000 534000 613000
2020-07-13 13:30 17.79 255000 813000 (1993) 62500 (1988) 268000 88400 117000 146000 157000 229000 315000 370000 534000 613000
2020-07-13 13:00 17.88 257000 813000 (1993) 62500 (1988) 268000 88400 117000 146000 157000 229000 315000 370000 534000 613000
2020-07-13 12:30 17.72 254000 813000 (1993) 62500 (1988) 268000 88400 117000 146000 157000 229000 315000 370000 534000 613000
2020-07-13 12:00 17.75 255000 813000 (1993) 62500 (1988) 268000 88400 117000 146000 157000 229000 315000 370000 534000 613000
2020-07-13 11:30 17.77 255000 813000 (1993) 62500 (1988) 268000 88400 117000 146000 157000 229000 315000 370000 534000 613000
2020-07-13 11:00 17.74 255000 813000 (1993) 62500 (1988) 268000 88400 117000 146000 157000 229000 315000 370000 534000 613000
2020-07-13 10:30 17.64 253000 813000 (1993) 62500 (1988) 268000 88400 117000 146000 157000 229000 315000 370000 534000 613000
2020-07-13 10:00 17.78 255000 813000 (1993) 62500 (1988) 268000 88400 117000 146000 157000 229000 315000 370000 534000 613000
2020-07-13 09:30 17.81 256000 813000 (1993) 62500 (1988) 268000 88400 117000 146000 157000 229000 315000 370000 534000 613000
2020-07-13 09:00 17.71 254000 813000 (1993) 62500 (1988) 268000 88400 117000 146000 157000 229000 315000 370000 534000 613000
2020-07-13 08:30 17.84 256000 813000 (1993) 62500 (1988) 268000 88400 117000 146000 157000 229000 315000 370000 534000 613000
2020-07-13 08:00 17.73 254000 813000 (1993) 62500 (1988) 268000 88400 117000 146000 157000 229000 315000 370000 534000 613000
2020-07-13 07:30 17.82 256000 813000 (1993) 62500 (1988) 268000 88400 117000 146000 157000 229000 315000 370000 534000 613000
2020-07-13 07:00 17.87 257000 813000 (1993) 62500 (1988) 268000 88400 117000 146000 157000 229000 315000 370000 534000 613000
2020-07-13 06:30 17.74 255000 813000 (1993) 62500 (1988) 268000 88400 117000 146000 157000 229000 315000 370000 534000 613000
2020-07-13 06:00 17.81 256000 813000 (1993) 62500 (1988) 268000 88400 117000 146000 157000 229000 315000 370000 534000 613000
2020-07-13 05:30 17.88 257000 813000 (1993) 62500 (1988) 268000 88400 117000 146000 157000 229000 315000 370000 534000 613000
2020-07-13 05:00 17.88 257000 813000 (1993) 62500 (1988) 268000 88400 117000 146000 157000 229000 315000 370000 534000 613000
2020-07-13 04:30 17.88 257000 813000 (1993) 62500 (1988) 268000 88400 117000 146000 157000 229000 315000 370000 534000 613000
2020-07-13 04:00 17.79 255000 813000 (1993) 62500 (1988) 268000 88400 117000 146000 157000 229000 315000 370000 534000 613000
2020-07-13 03:30 17.77 255000 813000 (1993) 62500 (1988) 268000 88400 117000 146000 157000 229000 315000 370000 534000 613000
2020-07-13 03:00 17.90 257000 813000 (1993) 62500 (1988) 268000 88400 117000 146000 157000 229000 315000 370000 534000 613000
2020-07-13 02:30 17.89 257000 813000 (1993) 62500 (1988) 268000 88400 117000 146000 157000 229000 315000 370000 534000 613000
2020-07-13 02:00 17.90 257000 813000 (1993) 62500 (1988) 268000 88400 117000 146000 157000 229000 315000 370000 534000 613000
2020-07-13 01:30 17.95 258000 813000 (1993) 62500 (1988) 268000 88400 117000 146000 157000 229000 315000 370000 534000 613000
2020-07-13 01:00 17.91 257000 813000 (1993) 62500 (1988) 268000 88400 117000 146000 157000 229000 315000 370000 534000 613000
2020-07-13 00:30 18.04 259000 813000 (1993) 62500 (1988) 268000 88400 117000 146000 157000 229000 315000 370000 534000 613000
2020-07-13 00:00 17.98 258000 813000 (1993) 62500 (1988) 268000 88400 117000 146000 157000 229000 315000 370000 534000 613000
2020-07-12 23:30 18.06 260000 808000 (1993) 59600 (1988) 273000 93200 121000 151000 168000 235000 332000 387000 538000 611000
2020-07-12 23:00 17.93 258000 808000 (1993) 59600 (1988) 273000 93200 121000 151000 168000 235000 332000 387000 538000 611000
2020-07-12 22:30 18.08 260000 808000 (1993) 59600 (1988) 273000 93200 121000 151000 168000 235000 332000 387000 538000 611000
2020-07-12 22:00 17.95 258000 808000 (1993) 59600 (1988) 273000 93200 121000 151000 168000 235000 332000 387000 538000 611000
2020-07-12 21:30 18.11 260000 808000 (1993) 59600 (1988) 273000 93200 121000 151000 168000 235000 332000 387000 538000 611000
2020-07-12 21:00 18.06 260000 808000 (1993) 59600 (1988) 273000 93200 121000 151000 168000 235000 332000 387000 538000 611000
2020-07-12 20:30 18.00 259000 808000 (1993) 59600 (1988) 273000 93200 121000 151000 168000 235000 332000 387000 538000 611000
2020-07-12 20:00 18.14 261000 808000 (1993) 59600 (1988) 273000 93200 121000 151000 168000 235000 332000 387000 538000 611000
2020-07-12 19:30 18.19 262000 808000 (1993) 59600 (1988) 273000 93200 121000 151000 168000 235000 332000 387000 538000 611000
2020-07-12 19:00 18.20 262000 808000 (1993) 59600 (1988) 273000 93200 121000 151000 168000 235000 332000 387000 538000 611000
2020-07-12 18:30 18.19 262000 808000 (1993) 59600 (1988) 273000 93200 121000 151000 168000 235000 332000 387000 538000 611000
2020-07-12 18:00 18.24 262000 808000 (1993) 59600 (1988) 273000 93200 121000 151000 168000 235000 332000 387000 538000 611000
2020-07-12 17:30 18.29 263000 808000 (1993) 59600 (1988) 273000 93200 121000 151000 168000 235000 332000 387000 538000 611000
2020-07-12 17:00 18.28 263000 808000 (1993) 59600 (1988) 273000 93200 121000 151000 168000 235000 332000 387000 538000 611000
2020-07-12 16:30 18.33 264000 808000 (1993) 59600 (1988) 273000 93200 121000 151000 168000 235000 332000 387000 538000 611000
2020-07-12 16:00 18.34 264000 808000 (1993) 59600 (1988) 273000 93200 121000 151000 168000 235000 332000 387000 538000 611000
2020-07-12 15:30 18.30 263000 808000 (1993) 59600 (1988) 273000 93200 121000 151000 168000 235000 332000 387000 538000 611000
2020-07-12 15:00 18.26 263000 808000 (1993) 59600 (1988) 273000 93200 121000 151000 168000 235000 332000 387000 538000 611000
2020-07-12 14:30 18.20 262000 808000 (1993) 59600 (1988) 273000 93200 121000 151000 168000 235000 332000 387000 538000 611000
2020-07-12 14:00 18.24 262000 808000 (1993) 59600 (1988) 273000 93200 121000 151000 168000 235000 332000 387000 538000 611000
2020-07-12 13:30 18.32 264000 808000 (1993) 59600 (1988) 273000 93200 121000 151000 168000 235000 332000 387000 538000 611000
2020-07-12 13:00 18.36 264000 808000 (1993) 59600 (1988) 273000 93200 121000 151000 168000 235000 332000 387000 538000 611000
2020-07-12 12:30 18.35 264000 808000 (1993) 59600 (1988) 273000 93200 121000 151000 168000 235000 332000 387000 538000 611000
2020-07-12 12:00 18.26 263000 808000 (1993) 59600 (1988) 273000 93200 121000 151000 168000 235000 332000 387000 538000 611000
2020-07-12 11:30 18.36 264000 808000 (1993) 59600 (1988) 273000 93200 121000 151000 168000 235000 332000 387000 538000 611000
2020-07-12 11:00 18.39 265000 808000 (1993) 59600 (1988) 273000 93200 121000 151000 168000 235000 332000 387000 538000 611000
2020-07-12 10:30 18.47 266000 808000 (1993) 59600 (1988) 273000 93200 121000 151000 168000 235000 332000 387000 538000 611000
2020-07-12 10:00 18.32 264000 808000 (1993) 59600 (1988) 273000 93200 121000 151000 168000 235000 332000 387000 538000 611000
2020-07-12 09:30 18.47 266000 808000 (1993) 59600 (1988) 273000 93200 121000 151000 168000 235000 332000 387000 538000 611000
2020-07-12 09:00 18.43 265000 808000 (1993) 59600 (1988) 273000 93200 121000 151000 168000 235000 332000 387000 538000 611000
2020-07-12 08:30 18.43 265000 808000 (1993) 59600 (1988) 273000 93200 121000 151000 168000 235000 332000 387000 538000 611000
2020-07-12 08:00 18.39 265000 808000 (1993) 59600 (1988) 273000 93200 121000 151000 168000 235000 332000 387000 538000 611000
2020-07-12 07:30 18.47 266000 808000 (1993) 59600 (1988) 273000 93200 121000 151000 168000 235000 332000 387000 538000 611000
2020-07-12 07:00 18.45 266000 808000 (1993) 59600 (1988) 273000 93200 121000 151000 168000 235000 332000 387000 538000 611000
2020-07-12 06:30 18.35 264000 808000 (1993) 59600 (1988) 273000 93200 121000 151000 168000 235000 332000 387000 538000 611000
2020-07-12 06:00 18.52 267000 808000 (1993) 59600 (1988) 273000 93200 121000 151000 168000 235000 332000 387000 538000 611000
2020-07-12 05:30 18.55 267000 808000 (1993) 59600 (1988) 273000 93200 121000 151000 168000 235000 332000 387000 538000 611000
2020-07-12 05:00 18.53 267000 808000 (1993) 59600 (1988) 273000 93200 121000 151000 168000 235000 332000 387000 538000 611000
2020-07-12 04:30 18.62 269000 808000 (1993) 59600 (1988) 273000 93200 121000 151000 168000 235000 332000 387000 538000 611000
2020-07-12 04:00 18.57 268000 808000 (1993) 59600 (1988) 273000 93200 121000 151000 168000 235000 332000 387000 538000 611000
2020-07-12 03:30 18.49 266000 808000 (1993) 59600 (1988) 273000 93200 121000 151000 168000 235000 332000 387000 538000 611000
2020-07-12 03:00 18.59 268000 808000 (1993) 59600 (1988) 273000 93200 121000 151000 168000 235000 332000 387000 538000 611000
2020-07-12 02:30 18.69 270000 808000 (1993) 59600 (1988) 273000 93200 121000 151000 168000 235000 332000 387000 538000 611000
2020-07-12 02:00 18.53 267000 808000 (1993) 59600 (1988) 273000 93200 121000 151000 168000 235000 332000 387000 538000 611000
2020-07-12 01:30 18.68 270000 808000 (1993) 59600 (1988) 273000 93200 121000 151000 168000 235000 332000 387000 538000 611000
2020-07-12 01:00 18.61 268000 808000 (1993) 59600 (1988) 273000 93200 121000 151000 168000 235000 332000 387000 538000 611000
2020-07-12 00:30 18.66 269000 808000 (1993) 59600 (1988) 273000 93200 121000 151000 168000 235000 332000 387000 538000 611000
2020-07-12 00:00 18.85 272000 808000 (1993) 59600 (1988) 273000 93200 121000 151000 168000 235000 332000 387000 538000 611000

A total of 1473 rows are displayed for years 1942 through 2019.